<?xml version="1.0" encoding="UTF-8" standalone="no" ?>
<gpx xmlns="http://www.topografix.com/GPX/1/1" xmlns:xsi="http://www.w3.org/2001/XMLSchema-instance" xsi:schemaLocation="http://www.topografix.com/GPX/1/1 http://www.topografix.com/GPX/1/1/gpx.xsd" version="1.1" creator="VisuGPX - https://www.visugpx.com">
  <metadata>
    <name>Tour de la Fayée Chanousse: 05 SEPT 2019 09:09</name>
    <desc><![CDATA[Se Garer à Chanousse et prendre le sentier qui mène vers Saint Cyrice quitter ensuite le sentier pour aller au col de Lièvre Cuite. Descendre ensuite vers Chanousse en passant par Gaudissant.]]></desc>
  </metadata>
  <trk>
    <name><![CDATA[Tour de la Fayée Chanousse: 05 SEPT 2019 09:09]]></name>
    <trkseg>
      <trkpt lat="44.35532" lon="5.65648">
        <ele>794.67</ele>
        <time>2019-09-05T07:09:02Z</time>
      </trkpt>
      <trkpt lat="44.35532" lon="5.65648">
        <ele>794.67</ele>
        <time>2019-09-05T07:09:03Z</time>
      </trkpt>
      <trkpt lat="44.35532" lon="5.65648">
        <ele>795.15</ele>
        <time>2019-09-05T07:09:04Z</time>
      </trkpt>
      <trkpt lat="44.35532" lon="5.65646">
        <ele>798.03</ele>
        <time>2019-09-05T07:09:17Z</time>
      </trkpt>
      <trkpt lat="44.35531" lon="5.65645">
        <ele>801.4</ele>
        <time>2019-09-05T07:09:31Z</time>
      </trkpt>
      <trkpt lat="44.35532" lon="5.65645">
        <ele>802.36</ele>
        <time>2019-09-05T07:09:51Z</time>
      </trkpt>
      <trkpt lat="44.3553" lon="5.65644">
        <ele>803.32</ele>
        <time>2019-09-05T07:10:10Z</time>
      </trkpt>
      <trkpt lat="44.35531" lon="5.65652">
        <ele>802.84</ele>
        <time>2019-09-05T07:10:36Z</time>
      </trkpt>
      <trkpt lat="44.35528" lon="5.65657">
        <ele>802.36</ele>
        <time>2019-09-05T07:10:52Z</time>
      </trkpt>
      <trkpt lat="44.35535" lon="5.65652">
        <ele>803.32</ele>
        <time>2019-09-05T07:11:06Z</time>
      </trkpt>
      <trkpt lat="44.35533" lon="5.65651">
        <ele>803.32</ele>
        <time>2019-09-05T07:11:22Z</time>
      </trkpt>
      <trkpt lat="44.35535" lon="5.65648">
        <ele>803.32</ele>
        <time>2019-09-05T07:11:35Z</time>
      </trkpt>
      <trkpt lat="44.35534" lon="5.65648">
        <ele>803.32</ele>
        <time>2019-09-05T07:11:47Z</time>
      </trkpt>
      <trkpt lat="44.35533" lon="5.65649">
        <ele>802.84</ele>
        <time>2019-09-05T07:12:15Z</time>
      </trkpt>
      <trkpt lat="44.35533" lon="5.65645">
        <ele>802.36</ele>
        <time>2019-09-05T07:12:40Z</time>
      </trkpt>
      <trkpt lat="44.35532" lon="5.65648">
        <ele>802.36</ele>
        <time>2019-09-05T07:12:52Z</time>
      </trkpt>
      <trkpt lat="44.35531" lon="5.65651">
        <ele>801.88</ele>
        <time>2019-09-05T07:12:54Z</time>
      </trkpt>
      <trkpt lat="44.35528" lon="5.65647">
        <ele>802.84</ele>
        <time>2019-09-05T07:13:09Z</time>
      </trkpt>
      <trkpt lat="44.35529" lon="5.65645">
        <ele>802.84</ele>
        <time>2019-09-05T07:13:26Z</time>
      </trkpt>
      <trkpt lat="44.35531" lon="5.65647">
        <ele>803.32</ele>
        <time>2019-09-05T07:13:40Z</time>
      </trkpt>
      <trkpt lat="44.35533" lon="5.65649">
        <ele>803.32</ele>
        <time>2019-09-05T07:13:52Z</time>
      </trkpt>
      <trkpt lat="44.35533" lon="5.65648">
        <ele>802.36</ele>
        <time>2019-09-05T07:14:00Z</time>
      </trkpt>
      <trkpt lat="44.35531" lon="5.65646">
        <ele>801.88</ele>
        <time>2019-09-05T07:14:24Z</time>
      </trkpt>
      <trkpt lat="44.35531" lon="5.65643">
        <ele>801.88</ele>
        <time>2019-09-05T07:14:44Z</time>
      </trkpt>
      <trkpt lat="44.35534" lon="5.65645">
        <ele>803.32</ele>
        <time>2019-09-05T07:14:52Z</time>
      </trkpt>
      <trkpt lat="44.35536" lon="5.65624">
        <ele>801.4</ele>
        <time>2019-09-05T07:15:04Z</time>
      </trkpt>
      <trkpt lat="44.35527" lon="5.65601">
        <ele>797.55</ele>
        <time>2019-09-05T07:15:20Z</time>
      </trkpt>
      <trkpt lat="44.35525" lon="5.65598">
        <ele>797.07</ele>
        <time>2019-09-05T07:15:22Z</time>
      </trkpt>
      <trkpt lat="44.35522" lon="5.65589">
        <ele>796.11</ele>
        <time>2019-09-05T07:15:27Z</time>
      </trkpt>
      <trkpt lat="44.35513" lon="5.65559">
        <ele>793.22</ele>
        <time>2019-09-05T07:15:44Z</time>
      </trkpt>
      <trkpt lat="44.35505" lon="5.65531">
        <ele>791.78</ele>
        <time>2019-09-05T07:16:00Z</time>
      </trkpt>
      <trkpt lat="44.35503" lon="5.65525">
        <ele>791.78</ele>
        <time>2019-09-05T07:16:05Z</time>
      </trkpt>
      <trkpt lat="44.35497" lon="5.65521">
        <ele>792.26</ele>
        <time>2019-09-05T07:16:10Z</time>
      </trkpt>
      <trkpt lat="44.35491" lon="5.65493">
        <ele>793.22</ele>
        <time>2019-09-05T07:16:25Z</time>
      </trkpt>
      <trkpt lat="44.35483" lon="5.65475">
        <ele>794.19</ele>
        <time>2019-09-05T07:16:37Z</time>
      </trkpt>
      <trkpt lat="44.35479" lon="5.65469">
        <ele>794.19</ele>
        <time>2019-09-05T07:16:41Z</time>
      </trkpt>
      <trkpt lat="44.35471" lon="5.65455">
        <ele>795.63</ele>
        <time>2019-09-05T07:16:53Z</time>
      </trkpt>
      <trkpt lat="44.35452" lon="5.65438">
        <ele>794.67</ele>
        <time>2019-09-05T07:17:10Z</time>
      </trkpt>
      <trkpt lat="44.35436" lon="5.65422">
        <ele>794.67</ele>
        <time>2019-09-05T07:17:26Z</time>
      </trkpt>
      <trkpt lat="44.3542" lon="5.65407">
        <ele>794.19</ele>
        <time>2019-09-05T07:17:42Z</time>
      </trkpt>
      <trkpt lat="44.35404" lon="5.65391">
        <ele>793.71</ele>
        <time>2019-09-05T07:17:57Z</time>
      </trkpt>
      <trkpt lat="44.35397" lon="5.65386">
        <ele>794.19</ele>
        <time>2019-09-05T07:18:04Z</time>
      </trkpt>
      <trkpt lat="44.35377" lon="5.65384">
        <ele>793.71</ele>
        <time>2019-09-05T07:18:20Z</time>
      </trkpt>
      <trkpt lat="44.35358" lon="5.65381">
        <ele>794.19</ele>
        <time>2019-09-05T07:18:35Z</time>
      </trkpt>
      <trkpt lat="44.35354" lon="5.65383">
        <ele>794.19</ele>
        <time>2019-09-05T07:18:39Z</time>
      </trkpt>
      <trkpt lat="44.35343" lon="5.65393">
        <ele>795.63</ele>
        <time>2019-09-05T07:18:53Z</time>
      </trkpt>
      <trkpt lat="44.35335" lon="5.65398">
        <ele>796.59</ele>
        <time>2019-09-05T07:19:06Z</time>
      </trkpt>
      <trkpt lat="44.35326" lon="5.65402">
        <ele>798.03</ele>
        <time>2019-09-05T07:19:21Z</time>
      </trkpt>
      <trkpt lat="44.35318" lon="5.65402">
        <ele>799.47</ele>
        <time>2019-09-05T07:19:38Z</time>
      </trkpt>
      <trkpt lat="44.35309" lon="5.65404">
        <ele>800.92</ele>
        <time>2019-09-05T07:19:51Z</time>
      </trkpt>
      <trkpt lat="44.35296" lon="5.65404">
        <ele>802.36</ele>
        <time>2019-09-05T07:20:08Z</time>
      </trkpt>
      <trkpt lat="44.35287" lon="5.65401">
        <ele>804.76</ele>
        <time>2019-09-05T07:20:23Z</time>
      </trkpt>
      <trkpt lat="44.35278" lon="5.65394">
        <ele>806.2</ele>
        <time>2019-09-05T07:20:39Z</time>
      </trkpt>
      <trkpt lat="44.3527" lon="5.6539">
        <ele>808.61</ele>
        <time>2019-09-05T07:20:54Z</time>
      </trkpt>
      <trkpt lat="44.35266" lon="5.65388">
        <ele>810.05</ele>
        <time>2019-09-05T07:21:07Z</time>
      </trkpt>
      <trkpt lat="44.35259" lon="5.65388">
        <ele>811.49</ele>
        <time>2019-09-05T07:21:24Z</time>
      </trkpt>
      <trkpt lat="44.35253" lon="5.65384">
        <ele>813.41</ele>
        <time>2019-09-05T07:21:38Z</time>
      </trkpt>
      <trkpt lat="44.35249" lon="5.65382">
        <ele>814.85</ele>
        <time>2019-09-05T07:21:50Z</time>
      </trkpt>
      <trkpt lat="44.3524" lon="5.65379">
        <ele>816.78</ele>
        <time>2019-09-05T07:22:05Z</time>
      </trkpt>
      <trkpt lat="44.35236" lon="5.65375">
        <ele>818.7</ele>
        <time>2019-09-05T07:22:20Z</time>
      </trkpt>
      <trkpt lat="44.35233" lon="5.6537">
        <ele>820.14</ele>
        <time>2019-09-05T07:22:32Z</time>
      </trkpt>
      <trkpt lat="44.35233" lon="5.65371">
        <ele>820.14</ele>
        <time>2019-09-05T07:22:35Z</time>
      </trkpt>
      <trkpt lat="44.35233" lon="5.65371">
        <ele>819.66</ele>
        <time>2019-09-05T07:22:50Z</time>
      </trkpt>
      <trkpt lat="44.35229" lon="5.65372">
        <ele>819.66</ele>
        <time>2019-09-05T07:23:09Z</time>
      </trkpt>
      <trkpt lat="44.35233" lon="5.65372">
        <ele>819.18</ele>
        <time>2019-09-05T07:23:33Z</time>
      </trkpt>
      <trkpt lat="44.3523" lon="5.65375">
        <ele>819.66</ele>
        <time>2019-09-05T07:23:43Z</time>
      </trkpt>
      <trkpt lat="44.35232" lon="5.6537">
        <ele>819.66</ele>
        <time>2019-09-05T07:24:07Z</time>
      </trkpt>
      <trkpt lat="44.35232" lon="5.65369">
        <ele>819.66</ele>
        <time>2019-09-05T07:24:23Z</time>
      </trkpt>
      <trkpt lat="44.3523" lon="5.65364">
        <ele>821.58</ele>
        <time>2019-09-05T07:24:41Z</time>
      </trkpt>
      <trkpt lat="44.35225" lon="5.6536">
        <ele>823.99</ele>
        <time>2019-09-05T07:24:55Z</time>
      </trkpt>
      <trkpt lat="44.35217" lon="5.65359">
        <ele>826.39</ele>
        <time>2019-09-05T07:25:09Z</time>
      </trkpt>
      <trkpt lat="44.35212" lon="5.65358">
        <ele>828.31</ele>
        <time>2019-09-05T07:25:20Z</time>
      </trkpt>
      <trkpt lat="44.35208" lon="5.65354">
        <ele>830.24</ele>
        <time>2019-09-05T07:25:32Z</time>
      </trkpt>
      <trkpt lat="44.35203" lon="5.65352">
        <ele>833.12</ele>
        <time>2019-09-05T07:25:47Z</time>
      </trkpt>
      <trkpt lat="44.35196" lon="5.65346">
        <ele>835.52</ele>
        <time>2019-09-05T07:26:03Z</time>
      </trkpt>
      <trkpt lat="44.3519" lon="5.65342">
        <ele>837.93</ele>
        <time>2019-09-05T07:26:21Z</time>
      </trkpt>
      <trkpt lat="44.35183" lon="5.65335">
        <ele>839.85</ele>
        <time>2019-09-05T07:26:37Z</time>
      </trkpt>
      <trkpt lat="44.35174" lon="5.65334">
        <ele>842.25</ele>
        <time>2019-09-05T07:26:54Z</time>
      </trkpt>
      <trkpt lat="44.35169" lon="5.65334">
        <ele>843.69</ele>
        <time>2019-09-05T07:27:07Z</time>
      </trkpt>
      <trkpt lat="44.3516" lon="5.65333">
        <ele>844.66</ele>
        <time>2019-09-05T07:27:20Z</time>
      </trkpt>
      <trkpt lat="44.35153" lon="5.65339">
        <ele>846.58</ele>
        <time>2019-09-05T07:27:33Z</time>
      </trkpt>
      <trkpt lat="44.35144" lon="5.65342">
        <ele>847.54</ele>
        <time>2019-09-05T07:27:46Z</time>
      </trkpt>
      <trkpt lat="44.35138" lon="5.65345">
        <ele>849.94</ele>
        <time>2019-09-05T07:28:02Z</time>
      </trkpt>
      <trkpt lat="44.35131" lon="5.65344">
        <ele>852.35</ele>
        <time>2019-09-05T07:28:17Z</time>
      </trkpt>
      <trkpt lat="44.35126" lon="5.65338">
        <ele>854.27</ele>
        <time>2019-09-05T07:28:32Z</time>
      </trkpt>
      <trkpt lat="44.35118" lon="5.65339">
        <ele>856.67</ele>
        <time>2019-09-05T07:28:46Z</time>
      </trkpt>
      <trkpt lat="44.35108" lon="5.65346">
        <ele>858.59</ele>
        <time>2019-09-05T07:29:00Z</time>
      </trkpt>
      <trkpt lat="44.35107" lon="5.65347">
        <ele>859.08</ele>
        <time>2019-09-05T07:29:02Z</time>
      </trkpt>
      <trkpt lat="44.35098" lon="5.6535">
        <ele>860.52</ele>
        <time>2019-09-05T07:29:16Z</time>
      </trkpt>
      <trkpt lat="44.3509" lon="5.65353">
        <ele>863.4</ele>
        <time>2019-09-05T07:29:33Z</time>
      </trkpt>
      <trkpt lat="44.35082" lon="5.6536">
        <ele>864.84</ele>
        <time>2019-09-05T07:29:48Z</time>
      </trkpt>
      <trkpt lat="44.35074" lon="5.65366">
        <ele>866.77</ele>
        <time>2019-09-05T07:30:02Z</time>
      </trkpt>
      <trkpt lat="44.35069" lon="5.65375">
        <ele>868.69</ele>
        <time>2019-09-05T07:30:17Z</time>
      </trkpt>
      <trkpt lat="44.35063" lon="5.6538">
        <ele>869.65</ele>
        <time>2019-09-05T07:30:32Z</time>
      </trkpt>
      <trkpt lat="44.3506" lon="5.65386">
        <ele>871.09</ele>
        <time>2019-09-05T07:30:46Z</time>
      </trkpt>
      <trkpt lat="44.35054" lon="5.65392">
        <ele>872.53</ele>
        <time>2019-09-05T07:30:59Z</time>
      </trkpt>
      <trkpt lat="44.3505" lon="5.65396">
        <ele>874.46</ele>
        <time>2019-09-05T07:31:12Z</time>
      </trkpt>
      <trkpt lat="44.35046" lon="5.65403">
        <ele>875.9</ele>
        <time>2019-09-05T07:31:25Z</time>
      </trkpt>
      <trkpt lat="44.3504" lon="5.65405">
        <ele>877.34</ele>
        <time>2019-09-05T07:31:37Z</time>
      </trkpt>
      <trkpt lat="44.35033" lon="5.6541">
        <ele>878.78</ele>
        <time>2019-09-05T07:31:51Z</time>
      </trkpt>
      <trkpt lat="44.35028" lon="5.6542">
        <ele>881.19</ele>
        <time>2019-09-05T07:32:05Z</time>
      </trkpt>
      <trkpt lat="44.35025" lon="5.65436">
        <ele>882.63</ele>
        <time>2019-09-05T07:32:20Z</time>
      </trkpt>
      <trkpt lat="44.35023" lon="5.65452">
        <ele>885.03</ele>
        <time>2019-09-05T07:32:36Z</time>
      </trkpt>
      <trkpt lat="44.35022" lon="5.65464">
        <ele>885.51</ele>
        <time>2019-09-05T07:32:49Z</time>
      </trkpt>
      <trkpt lat="44.35018" lon="5.65476">
        <ele>886.47</ele>
        <time>2019-09-05T07:33:06Z</time>
      </trkpt>
      <trkpt lat="44.3502" lon="5.65483">
        <ele>887.91</ele>
        <time>2019-09-05T07:33:21Z</time>
      </trkpt>
      <trkpt lat="44.35024" lon="5.65488">
        <ele>890.32</ele>
        <time>2019-09-05T07:33:35Z</time>
      </trkpt>
      <trkpt lat="44.35025" lon="5.65495">
        <ele>891.28</ele>
        <time>2019-09-05T07:33:46Z</time>
      </trkpt>
      <trkpt lat="44.35026" lon="5.65504">
        <ele>893.2</ele>
        <time>2019-09-05T07:33:59Z</time>
      </trkpt>
      <trkpt lat="44.35029" lon="5.65511">
        <ele>894.64</ele>
        <time>2019-09-05T07:34:14Z</time>
      </trkpt>
      <trkpt lat="44.35033" lon="5.65518">
        <ele>896.57</ele>
        <time>2019-09-05T07:34:31Z</time>
      </trkpt>
      <trkpt lat="44.35035" lon="5.65524">
        <ele>898.49</ele>
        <time>2019-09-05T07:34:44Z</time>
      </trkpt>
      <trkpt lat="44.35033" lon="5.65527">
        <ele>898.97</ele>
        <time>2019-09-05T07:34:59Z</time>
      </trkpt>
      <trkpt lat="44.35033" lon="5.65528">
        <ele>905.7</ele>
        <time>2019-09-05T07:35:03Z</time>
      </trkpt>
      <trkpt lat="44.35033" lon="5.65529">
        <ele>904.74</ele>
        <time>2019-09-05T07:35:08Z</time>
      </trkpt>
      <trkpt lat="44.35033" lon="5.65538">
        <ele>907.62</ele>
        <time>2019-09-05T07:35:21Z</time>
      </trkpt>
      <trkpt lat="44.35035" lon="5.65546">
        <ele>910.99</ele>
        <time>2019-09-05T07:35:31Z</time>
      </trkpt>
      <trkpt lat="44.35038" lon="5.65555">
        <ele>911.95</ele>
        <time>2019-09-05T07:35:45Z</time>
      </trkpt>
      <trkpt lat="44.35041" lon="5.65565">
        <ele>913.87</ele>
        <time>2019-09-05T07:35:59Z</time>
      </trkpt>
      <trkpt lat="44.35046" lon="5.6558">
        <ele>916.27</ele>
        <time>2019-09-05T07:36:17Z</time>
      </trkpt>
      <trkpt lat="44.3505" lon="5.65596">
        <ele>917.72</ele>
        <time>2019-09-05T07:36:32Z</time>
      </trkpt>
      <trkpt lat="44.35054" lon="5.65606">
        <ele>919.16</ele>
        <time>2019-09-05T07:36:48Z</time>
      </trkpt>
      <trkpt lat="44.35058" lon="5.65617">
        <ele>920.6</ele>
        <time>2019-09-05T07:37:01Z</time>
      </trkpt>
      <trkpt lat="44.35063" lon="5.65627">
        <ele>923.48</ele>
        <time>2019-09-05T07:37:17Z</time>
      </trkpt>
      <trkpt lat="44.35069" lon="5.65635">
        <ele>924.93</ele>
        <time>2019-09-05T07:37:30Z</time>
      </trkpt>
      <trkpt lat="44.35073" lon="5.65642">
        <ele>925.41</ele>
        <time>2019-09-05T07:37:44Z</time>
      </trkpt>
      <trkpt lat="44.35066" lon="5.65641">
        <ele>927.33</ele>
        <time>2019-09-05T07:37:59Z</time>
      </trkpt>
      <trkpt lat="44.35056" lon="5.6564">
        <ele>928.77</ele>
        <time>2019-09-05T07:38:16Z</time>
      </trkpt>
      <trkpt lat="44.35053" lon="5.65639">
        <ele>929.73</ele>
        <time>2019-09-05T07:38:21Z</time>
      </trkpt>
      <trkpt lat="44.35041" lon="5.65633">
        <ele>931.65</ele>
        <time>2019-09-05T07:38:37Z</time>
      </trkpt>
      <trkpt lat="44.35028" lon="5.65627">
        <ele>932.14</ele>
        <time>2019-09-05T07:38:51Z</time>
      </trkpt>
      <trkpt lat="44.35025" lon="5.65626">
        <ele>933.58</ele>
        <time>2019-09-05T07:38:54Z</time>
      </trkpt>
      <trkpt lat="44.35015" lon="5.6562">
        <ele>932.14</ele>
        <time>2019-09-05T07:39:07Z</time>
      </trkpt>
      <trkpt lat="44.35009" lon="5.65615">
        <ele>933.58</ele>
        <time>2019-09-05T07:39:20Z</time>
      </trkpt>
      <trkpt lat="44.35003" lon="5.6561">
        <ele>936.46</ele>
        <time>2019-09-05T07:39:34Z</time>
      </trkpt>
      <trkpt lat="44.34994" lon="5.65606">
        <ele>938.38</ele>
        <time>2019-09-05T07:39:49Z</time>
      </trkpt>
      <trkpt lat="44.34983" lon="5.65602">
        <ele>940.79</ele>
        <time>2019-09-05T07:40:06Z</time>
      </trkpt>
      <trkpt lat="44.34977" lon="5.656">
        <ele>942.71</ele>
        <time>2019-09-05T07:40:22Z</time>
      </trkpt>
      <trkpt lat="44.34969" lon="5.65596">
        <ele>944.63</ele>
        <time>2019-09-05T07:40:37Z</time>
      </trkpt>
      <trkpt lat="44.34963" lon="5.65591">
        <ele>946.56</ele>
        <time>2019-09-05T07:40:50Z</time>
      </trkpt>
      <trkpt lat="44.34955" lon="5.6559">
        <ele>949.44</ele>
        <time>2019-09-05T07:41:04Z</time>
      </trkpt>
      <trkpt lat="44.34947" lon="5.65588">
        <ele>951.84</ele>
        <time>2019-09-05T07:41:20Z</time>
      </trkpt>
      <trkpt lat="44.3494" lon="5.65589">
        <ele>955.21</ele>
        <time>2019-09-05T07:41:32Z</time>
      </trkpt>
      <trkpt lat="44.34939" lon="5.65589">
        <ele>956.17</ele>
        <time>2019-09-05T07:41:34Z</time>
      </trkpt>
      <trkpt lat="44.34934" lon="5.65586">
        <ele>957.13</ele>
        <time>2019-09-05T07:41:47Z</time>
      </trkpt>
      <trkpt lat="44.34929" lon="5.65586">
        <ele>959.05</ele>
        <time>2019-09-05T07:41:55Z</time>
      </trkpt>
      <trkpt lat="44.34923" lon="5.65589">
        <ele>959.53</ele>
        <time>2019-09-05T07:42:06Z</time>
      </trkpt>
      <trkpt lat="44.34918" lon="5.65594">
        <ele>961.94</ele>
        <time>2019-09-05T07:42:22Z</time>
      </trkpt>
      <trkpt lat="44.34915" lon="5.65595">
        <ele>963.86</ele>
        <time>2019-09-05T07:42:33Z</time>
      </trkpt>
      <trkpt lat="44.3491" lon="5.65597">
        <ele>964.82</ele>
        <time>2019-09-05T07:42:49Z</time>
      </trkpt>
      <trkpt lat="44.34906" lon="5.656">
        <ele>967.22</ele>
        <time>2019-09-05T07:43:02Z</time>
      </trkpt>
      <trkpt lat="44.34901" lon="5.65603">
        <ele>967.7</ele>
        <time>2019-09-05T07:43:12Z</time>
      </trkpt>
      <trkpt lat="44.34899" lon="5.65598">
        <ele>967.7</ele>
        <time>2019-09-05T07:43:26Z</time>
      </trkpt>
      <trkpt lat="44.349" lon="5.65602">
        <ele>967.22</ele>
        <time>2019-09-05T07:43:42Z</time>
      </trkpt>
      <trkpt lat="44.34901" lon="5.65601">
        <ele>967.22</ele>
        <time>2019-09-05T07:44:09Z</time>
      </trkpt>
      <trkpt lat="44.349" lon="5.65601">
        <ele>967.22</ele>
        <time>2019-09-05T07:44:37Z</time>
      </trkpt>
      <trkpt lat="44.34901" lon="5.65599">
        <ele>967.7</ele>
        <time>2019-09-05T07:45:06Z</time>
      </trkpt>
      <trkpt lat="44.34901" lon="5.656">
        <ele>967.22</ele>
        <time>2019-09-05T07:45:37Z</time>
      </trkpt>
      <trkpt lat="44.34899" lon="5.65602">
        <ele>967.22</ele>
        <time>2019-09-05T07:46:08Z</time>
      </trkpt>
      <trkpt lat="44.349" lon="5.656">
        <ele>966.74</ele>
        <time>2019-09-05T07:46:24Z</time>
      </trkpt>
      <trkpt lat="44.34901" lon="5.65603">
        <ele>966.74</ele>
        <time>2019-09-05T07:46:38Z</time>
      </trkpt>
      <trkpt lat="44.349" lon="5.65601">
        <ele>966.74</ele>
        <time>2019-09-05T07:47:04Z</time>
      </trkpt>
      <trkpt lat="44.349" lon="5.65602">
        <ele>967.7</ele>
        <time>2019-09-05T07:47:34Z</time>
      </trkpt>
      <trkpt lat="44.349" lon="5.65602">
        <ele>967.22</ele>
        <time>2019-09-05T07:47:54Z</time>
      </trkpt>
      <trkpt lat="44.34899" lon="5.65602">
        <ele>967.22</ele>
        <time>2019-09-05T07:48:28Z</time>
      </trkpt>
      <trkpt lat="44.349" lon="5.65601">
        <ele>967.22</ele>
        <time>2019-09-05T07:49:03Z</time>
      </trkpt>
      <trkpt lat="44.349" lon="5.65602">
        <ele>967.22</ele>
        <time>2019-09-05T07:49:30Z</time>
      </trkpt>
      <trkpt lat="44.349" lon="5.65601">
        <ele>966.74</ele>
        <time>2019-09-05T07:49:58Z</time>
      </trkpt>
      <trkpt lat="44.34899" lon="5.65602">
        <ele>967.22</ele>
        <time>2019-09-05T07:50:06Z</time>
      </trkpt>
      <trkpt lat="44.34896" lon="5.65601">
        <ele>966.74</ele>
        <time>2019-09-05T07:50:09Z</time>
      </trkpt>
      <trkpt lat="44.34882" lon="5.65595">
        <ele>968.18</ele>
        <time>2019-09-05T07:50:24Z</time>
      </trkpt>
      <trkpt lat="44.34878" lon="5.65593">
        <ele>968.67</ele>
        <time>2019-09-05T07:50:28Z</time>
      </trkpt>
      <trkpt lat="44.34876" lon="5.65593">
        <ele>968.67</ele>
        <time>2019-09-05T07:50:30Z</time>
      </trkpt>
      <trkpt lat="44.34861" lon="5.65595">
        <ele>970.11</ele>
        <time>2019-09-05T07:50:46Z</time>
      </trkpt>
      <trkpt lat="44.34846" lon="5.65595">
        <ele>970.59</ele>
        <time>2019-09-05T07:51:00Z</time>
      </trkpt>
      <trkpt lat="44.34833" lon="5.65596">
        <ele>972.03</ele>
        <time>2019-09-05T07:51:13Z</time>
      </trkpt>
      <trkpt lat="44.34821" lon="5.656">
        <ele>972.51</ele>
        <time>2019-09-05T07:51:25Z</time>
      </trkpt>
      <trkpt lat="44.34807" lon="5.65604">
        <ele>973.47</ele>
        <time>2019-09-05T07:51:40Z</time>
      </trkpt>
      <trkpt lat="44.34795" lon="5.65606">
        <ele>974.43</ele>
        <time>2019-09-05T07:51:53Z</time>
      </trkpt>
      <trkpt lat="44.34784" lon="5.65615">
        <ele>973.95</ele>
        <time>2019-09-05T07:52:09Z</time>
      </trkpt>
      <trkpt lat="44.34771" lon="5.65617">
        <ele>972.99</ele>
        <time>2019-09-05T07:52:24Z</time>
      </trkpt>
      <trkpt lat="44.3476" lon="5.65618">
        <ele>972.99</ele>
        <time>2019-09-05T07:52:37Z</time>
      </trkpt>
      <trkpt lat="44.34747" lon="5.65624">
        <ele>972.99</ele>
        <time>2019-09-05T07:52:52Z</time>
      </trkpt>
      <trkpt lat="44.3474" lon="5.65627">
        <ele>973.95</ele>
        <time>2019-09-05T07:53:07Z</time>
      </trkpt>
      <trkpt lat="44.34734" lon="5.65629">
        <ele>974.43</ele>
        <time>2019-09-05T07:53:24Z</time>
      </trkpt>
      <trkpt lat="44.3472" lon="5.65629">
        <ele>976.36</ele>
        <time>2019-09-05T07:53:39Z</time>
      </trkpt>
      <trkpt lat="44.34708" lon="5.65628">
        <ele>977.8</ele>
        <time>2019-09-05T07:53:53Z</time>
      </trkpt>
      <trkpt lat="44.34704" lon="5.65629">
        <ele>977.8</ele>
        <time>2019-09-05T07:54:05Z</time>
      </trkpt>
      <trkpt lat="44.34685" lon="5.65629">
        <ele>977.8</ele>
        <time>2019-09-05T07:54:22Z</time>
      </trkpt>
      <trkpt lat="44.34668" lon="5.65628">
        <ele>978.76</ele>
        <time>2019-09-05T07:54:40Z</time>
      </trkpt>
      <trkpt lat="44.34658" lon="5.65627">
        <ele>980.2</ele>
        <time>2019-09-05T07:54:54Z</time>
      </trkpt>
      <trkpt lat="44.34645" lon="5.65623">
        <ele>982.12</ele>
        <time>2019-09-05T07:55:11Z</time>
      </trkpt>
      <trkpt lat="44.34634" lon="5.65621">
        <ele>982.12</ele>
        <time>2019-09-05T07:55:25Z</time>
      </trkpt>
      <trkpt lat="44.34627" lon="5.65621">
        <ele>982.12</ele>
        <time>2019-09-05T07:55:35Z</time>
      </trkpt>
      <trkpt lat="44.34614" lon="5.6562">
        <ele>982.12</ele>
        <time>2019-09-05T07:55:49Z</time>
      </trkpt>
      <trkpt lat="44.346" lon="5.65618">
        <ele>980.68</ele>
        <time>2019-09-05T07:56:05Z</time>
      </trkpt>
      <trkpt lat="44.34588" lon="5.65619">
        <ele>979.24</ele>
        <time>2019-09-05T07:56:20Z</time>
      </trkpt>
      <trkpt lat="44.34574" lon="5.65624">
        <ele>978.28</ele>
        <time>2019-09-05T07:56:37Z</time>
      </trkpt>
      <trkpt lat="44.34567" lon="5.65618">
        <ele>978.28</ele>
        <time>2019-09-05T07:56:52Z</time>
      </trkpt>
      <trkpt lat="44.34563" lon="5.65616">
        <ele>977.32</ele>
        <time>2019-09-05T07:57:01Z</time>
      </trkpt>
      <trkpt lat="44.34558" lon="5.65599">
        <ele>977.8</ele>
        <time>2019-09-05T07:57:19Z</time>
      </trkpt>
      <trkpt lat="44.34556" lon="5.65591">
        <ele>978.28</ele>
        <time>2019-09-05T07:57:27Z</time>
      </trkpt>
      <trkpt lat="44.34542" lon="5.65577">
        <ele>976.36</ele>
        <time>2019-09-05T07:57:44Z</time>
      </trkpt>
      <trkpt lat="44.34539" lon="5.65574">
        <ele>976.36</ele>
        <time>2019-09-05T07:57:47Z</time>
      </trkpt>
      <trkpt lat="44.34533" lon="5.65567">
        <ele>977.8</ele>
        <time>2019-09-05T07:57:56Z</time>
      </trkpt>
      <trkpt lat="44.34521" lon="5.65551">
        <ele>978.76</ele>
        <time>2019-09-05T07:58:12Z</time>
      </trkpt>
      <trkpt lat="44.3451" lon="5.65529">
        <ele>979.72</ele>
        <time>2019-09-05T07:58:29Z</time>
      </trkpt>
      <trkpt lat="44.34504" lon="5.65515">
        <ele>981.64</ele>
        <time>2019-09-05T07:58:43Z</time>
      </trkpt>
      <trkpt lat="44.34496" lon="5.65497">
        <ele>983.57</ele>
        <time>2019-09-05T07:58:59Z</time>
      </trkpt>
      <trkpt lat="44.34488" lon="5.65478">
        <ele>985.01</ele>
        <time>2019-09-05T07:59:16Z</time>
      </trkpt>
      <trkpt lat="44.34482" lon="5.6546">
        <ele>986.93</ele>
        <time>2019-09-05T07:59:32Z</time>
      </trkpt>
      <trkpt lat="44.34476" lon="5.65447">
        <ele>988.37</ele>
        <time>2019-09-05T07:59:45Z</time>
      </trkpt>
      <trkpt lat="44.34467" lon="5.65435">
        <ele>989.81</ele>
        <time>2019-09-05T08:00:00Z</time>
      </trkpt>
      <trkpt lat="44.34453" lon="5.65421">
        <ele>990.78</ele>
        <time>2019-09-05T08:00:18Z</time>
      </trkpt>
      <trkpt lat="44.34441" lon="5.65407">
        <ele>992.22</ele>
        <time>2019-09-05T08:00:34Z</time>
      </trkpt>
      <trkpt lat="44.3443" lon="5.65395">
        <ele>994.14</ele>
        <time>2019-09-05T08:00:50Z</time>
      </trkpt>
      <trkpt lat="44.34418" lon="5.65388">
        <ele>995.58</ele>
        <time>2019-09-05T08:01:05Z</time>
      </trkpt>
      <trkpt lat="44.34407" lon="5.6538">
        <ele>996.54</ele>
        <time>2019-09-05T08:01:19Z</time>
      </trkpt>
      <trkpt lat="44.34397" lon="5.65374">
        <ele>997.99</ele>
        <time>2019-09-05T08:01:33Z</time>
      </trkpt>
      <trkpt lat="44.34385" lon="5.65363">
        <ele>999.43</ele>
        <time>2019-09-05T08:01:49Z</time>
      </trkpt>
      <trkpt lat="44.34375" lon="5.65356">
        <ele>999.91</ele>
        <time>2019-09-05T08:02:01Z</time>
      </trkpt>
      <trkpt lat="44.34363" lon="5.65352">
        <ele>1001.35</ele>
        <time>2019-09-05T08:02:16Z</time>
      </trkpt>
      <trkpt lat="44.3436" lon="5.65351">
        <ele>1001.83</ele>
        <time>2019-09-05T08:02:20Z</time>
      </trkpt>
      <trkpt lat="44.34355" lon="5.65349">
        <ele>1002.31</ele>
        <time>2019-09-05T08:02:25Z</time>
      </trkpt>
      <trkpt lat="44.34343" lon="5.65342">
        <ele>1003.27</ele>
        <time>2019-09-05T08:02:40Z</time>
      </trkpt>
      <trkpt lat="44.34332" lon="5.65334">
        <ele>1004.72</ele>
        <time>2019-09-05T08:02:54Z</time>
      </trkpt>
      <trkpt lat="44.34321" lon="5.65326">
        <ele>1006.64</ele>
        <time>2019-09-05T08:03:09Z</time>
      </trkpt>
      <trkpt lat="44.34308" lon="5.65319">
        <ele>1007.6</ele>
        <time>2019-09-05T08:03:25Z</time>
      </trkpt>
      <trkpt lat="44.34296" lon="5.65311">
        <ele>1008.56</ele>
        <time>2019-09-05T08:03:40Z</time>
      </trkpt>
      <trkpt lat="44.34288" lon="5.65314">
        <ele>1009.52</ele>
        <time>2019-09-05T08:03:50Z</time>
      </trkpt>
      <trkpt lat="44.34277" lon="5.65326">
        <ele>1010</ele>
        <time>2019-09-05T08:04:05Z</time>
      </trkpt>
      <trkpt lat="44.34271" lon="5.65335">
        <ele>1010.96</ele>
        <time>2019-09-05T08:04:17Z</time>
      </trkpt>
      <trkpt lat="44.34262" lon="5.65342">
        <ele>1011.44</ele>
        <time>2019-09-05T08:04:29Z</time>
      </trkpt>
      <trkpt lat="44.34254" lon="5.6535">
        <ele>1014.33</ele>
        <time>2019-09-05T08:04:42Z</time>
      </trkpt>
      <trkpt lat="44.34246" lon="5.65359">
        <ele>1014.81</ele>
        <time>2019-09-05T08:04:56Z</time>
      </trkpt>
      <trkpt lat="44.34242" lon="5.65363">
        <ele>1014.33</ele>
        <time>2019-09-05T08:05:02Z</time>
      </trkpt>
      <trkpt lat="44.34237" lon="5.65371">
        <ele>1014.81</ele>
        <time>2019-09-05T08:05:11Z</time>
      </trkpt>
      <trkpt lat="44.34236" lon="5.65376">
        <ele>1014.33</ele>
        <time>2019-09-05T08:05:15Z</time>
      </trkpt>
      <trkpt lat="44.34238" lon="5.65381">
        <ele>1014.81</ele>
        <time>2019-09-05T08:05:19Z</time>
      </trkpt>
      <trkpt lat="44.34242" lon="5.65385">
        <ele>1014.81</ele>
        <time>2019-09-05T08:05:23Z</time>
      </trkpt>
      <trkpt lat="44.34264" lon="5.6539">
        <ele>1015.29</ele>
        <time>2019-09-05T08:05:44Z</time>
      </trkpt>
      <trkpt lat="44.34268" lon="5.65392">
        <ele>1014.81</ele>
        <time>2019-09-05T08:05:49Z</time>
      </trkpt>
      <trkpt lat="44.3428" lon="5.65406">
        <ele>1016.73</ele>
        <time>2019-09-05T08:06:05Z</time>
      </trkpt>
      <trkpt lat="44.34287" lon="5.65419">
        <ele>1017.21</ele>
        <time>2019-09-05T08:06:17Z</time>
      </trkpt>
      <trkpt lat="44.34292" lon="5.65435">
        <ele>1018.65</ele>
        <time>2019-09-05T08:06:31Z</time>
      </trkpt>
      <trkpt lat="44.34293" lon="5.65441">
        <ele>1019.13</ele>
        <time>2019-09-05T08:06:43Z</time>
      </trkpt>
      <trkpt lat="44.34294" lon="5.65449">
        <ele>1018.65</ele>
        <time>2019-09-05T08:06:50Z</time>
      </trkpt>
      <trkpt lat="44.34297" lon="5.65458">
        <ele>1020.1</ele>
        <time>2019-09-05T08:06:58Z</time>
      </trkpt>
      <trkpt lat="44.343" lon="5.65479">
        <ele>1022.5</ele>
        <time>2019-09-05T08:07:13Z</time>
      </trkpt>
      <trkpt lat="44.34303" lon="5.65499">
        <ele>1024.9</ele>
        <time>2019-09-05T08:07:28Z</time>
      </trkpt>
      <trkpt lat="44.34306" lon="5.65503">
        <ele>1025.38</ele>
        <time>2019-09-05T08:07:33Z</time>
      </trkpt>
      <trkpt lat="44.34312" lon="5.65519">
        <ele>1026.34</ele>
        <time>2019-09-05T08:07:47Z</time>
      </trkpt>
      <trkpt lat="44.3432" lon="5.65534">
        <ele>1027.31</ele>
        <time>2019-09-05T08:08:02Z</time>
      </trkpt>
      <trkpt lat="44.34327" lon="5.6555">
        <ele>1028.75</ele>
        <time>2019-09-05T08:08:18Z</time>
      </trkpt>
      <trkpt lat="44.34331" lon="5.65568">
        <ele>1030.19</ele>
        <time>2019-09-05T08:08:32Z</time>
      </trkpt>
      <trkpt lat="44.34337" lon="5.65583">
        <ele>1030.19</ele>
        <time>2019-09-05T08:08:46Z</time>
      </trkpt>
      <trkpt lat="44.34341" lon="5.65598">
        <ele>1029.71</ele>
        <time>2019-09-05T08:09:00Z</time>
      </trkpt>
      <trkpt lat="44.34343" lon="5.65603">
        <ele>1031.15</ele>
        <time>2019-09-05T08:09:04Z</time>
      </trkpt>
      <trkpt lat="44.34347" lon="5.65614">
        <ele>1030.19</ele>
        <time>2019-09-05T08:09:14Z</time>
      </trkpt>
      <trkpt lat="44.34351" lon="5.65632">
        <ele>1032.11</ele>
        <time>2019-09-05T08:09:29Z</time>
      </trkpt>
      <trkpt lat="44.34354" lon="5.6565">
        <ele>1032.59</ele>
        <time>2019-09-05T08:09:44Z</time>
      </trkpt>
      <trkpt lat="44.34356" lon="5.65654">
        <ele>1034.04</ele>
        <time>2019-09-05T08:09:47Z</time>
      </trkpt>
      <trkpt lat="44.34365" lon="5.65666">
        <ele>1034.04</ele>
        <time>2019-09-05T08:10:01Z</time>
      </trkpt>
      <trkpt lat="44.34373" lon="5.65677">
        <ele>1037.4</ele>
        <time>2019-09-05T08:10:16Z</time>
      </trkpt>
      <trkpt lat="44.34366" lon="5.65685">
        <ele>1038.84</ele>
        <time>2019-09-05T08:10:32Z</time>
      </trkpt>
      <trkpt lat="44.34359" lon="5.65678">
        <ele>1040.28</ele>
        <time>2019-09-05T08:10:44Z</time>
      </trkpt>
      <trkpt lat="44.3435" lon="5.65666">
        <ele>1041.73</ele>
        <time>2019-09-05T08:11:00Z</time>
      </trkpt>
      <trkpt lat="44.34342" lon="5.65656">
        <ele>1042.69</ele>
        <time>2019-09-05T08:11:12Z</time>
      </trkpt>
      <trkpt lat="44.34332" lon="5.65646">
        <ele>1045.09</ele>
        <time>2019-09-05T08:11:28Z</time>
      </trkpt>
      <trkpt lat="44.3432" lon="5.65632">
        <ele>1046.05</ele>
        <time>2019-09-05T08:11:47Z</time>
      </trkpt>
      <trkpt lat="44.34319" lon="5.65631">
        <ele>1046.05</ele>
        <time>2019-09-05T08:11:48Z</time>
      </trkpt>
      <trkpt lat="44.34309" lon="5.6562">
        <ele>1047.01</ele>
        <time>2019-09-05T08:12:03Z</time>
      </trkpt>
      <trkpt lat="44.34298" lon="5.65603">
        <ele>1047.49</ele>
        <time>2019-09-05T08:12:20Z</time>
      </trkpt>
      <trkpt lat="44.34285" lon="5.65588">
        <ele>1048.94</ele>
        <time>2019-09-05T08:12:38Z</time>
      </trkpt>
      <trkpt lat="44.34276" lon="5.65574">
        <ele>1050.38</ele>
        <time>2019-09-05T08:12:53Z</time>
      </trkpt>
      <trkpt lat="44.34265" lon="5.65564">
        <ele>1052.3</ele>
        <time>2019-09-05T08:13:08Z</time>
      </trkpt>
      <trkpt lat="44.34251" lon="5.65552">
        <ele>1053.74</ele>
        <time>2019-09-05T08:13:26Z</time>
      </trkpt>
      <trkpt lat="44.34241" lon="5.65543">
        <ele>1055.18</ele>
        <time>2019-09-05T08:13:40Z</time>
      </trkpt>
      <trkpt lat="44.34229" lon="5.6553">
        <ele>1057.11</ele>
        <time>2019-09-05T08:13:57Z</time>
      </trkpt>
      <trkpt lat="44.34217" lon="5.65512">
        <ele>1058.55</ele>
        <time>2019-09-05T08:14:17Z</time>
      </trkpt>
      <trkpt lat="44.34206" lon="5.65501">
        <ele>1059.99</ele>
        <time>2019-09-05T08:14:33Z</time>
      </trkpt>
      <trkpt lat="44.34194" lon="5.6549">
        <ele>1061.43</ele>
        <time>2019-09-05T08:14:50Z</time>
      </trkpt>
      <trkpt lat="44.34182" lon="5.6548">
        <ele>1061.43</ele>
        <time>2019-09-05T08:15:06Z</time>
      </trkpt>
      <trkpt lat="44.3417" lon="5.65472">
        <ele>1062.39</ele>
        <time>2019-09-05T08:15:21Z</time>
      </trkpt>
      <trkpt lat="44.34158" lon="5.65463">
        <ele>1064.8</ele>
        <time>2019-09-05T08:15:35Z</time>
      </trkpt>
      <trkpt lat="44.34145" lon="5.65454">
        <ele>1067.2</ele>
        <time>2019-09-05T08:15:51Z</time>
      </trkpt>
      <trkpt lat="44.34132" lon="5.65444">
        <ele>1068.16</ele>
        <time>2019-09-05T08:16:08Z</time>
      </trkpt>
      <trkpt lat="44.34121" lon="5.65435">
        <ele>1069.6</ele>
        <time>2019-09-05T08:16:23Z</time>
      </trkpt>
      <trkpt lat="44.34111" lon="5.65423">
        <ele>1070.57</ele>
        <time>2019-09-05T08:16:38Z</time>
      </trkpt>
      <trkpt lat="44.341" lon="5.65412">
        <ele>1072.49</ele>
        <time>2019-09-05T08:16:55Z</time>
      </trkpt>
      <trkpt lat="44.34089" lon="5.654">
        <ele>1073.45</ele>
        <time>2019-09-05T08:17:11Z</time>
      </trkpt>
      <trkpt lat="44.34085" lon="5.65396">
        <ele>1073.93</ele>
        <time>2019-09-05T08:17:24Z</time>
      </trkpt>
      <trkpt lat="44.34082" lon="5.65393">
        <ele>1073.93</ele>
        <time>2019-09-05T08:17:29Z</time>
      </trkpt>
      <trkpt lat="44.34077" lon="5.65385">
        <ele>1074.89</ele>
        <time>2019-09-05T08:17:46Z</time>
      </trkpt>
      <trkpt lat="44.3407" lon="5.65379">
        <ele>1075.85</ele>
        <time>2019-09-05T08:17:59Z</time>
      </trkpt>
      <trkpt lat="44.34065" lon="5.65371">
        <ele>1076.81</ele>
        <time>2019-09-05T08:18:16Z</time>
      </trkpt>
      <trkpt lat="44.3406" lon="5.65351">
        <ele>1076.81</ele>
        <time>2019-09-05T08:18:32Z</time>
      </trkpt>
      <trkpt lat="44.34059" lon="5.65344">
        <ele>1077.78</ele>
        <time>2019-09-05T08:18:45Z</time>
      </trkpt>
      <trkpt lat="44.34057" lon="5.65346">
        <ele>1075.85</ele>
        <time>2019-09-05T08:19:01Z</time>
      </trkpt>
      <trkpt lat="44.34057" lon="5.65342">
        <ele>1076.33</ele>
        <time>2019-09-05T08:19:21Z</time>
      </trkpt>
      <trkpt lat="44.34066" lon="5.65322">
        <ele>1079.22</ele>
        <time>2019-09-05T08:19:36Z</time>
      </trkpt>
      <trkpt lat="44.34072" lon="5.65301">
        <ele>1082.1</ele>
        <time>2019-09-05T08:19:51Z</time>
      </trkpt>
      <trkpt lat="44.34073" lon="5.65285">
        <ele>1083.54</ele>
        <time>2019-09-05T08:20:02Z</time>
      </trkpt>
      <trkpt lat="44.34072" lon="5.65283">
        <ele>1083.54</ele>
        <time>2019-09-05T08:20:04Z</time>
      </trkpt>
      <trkpt lat="44.34072" lon="5.6528">
        <ele>1084.02</ele>
        <time>2019-09-05T08:20:06Z</time>
      </trkpt>
      <trkpt lat="44.34066" lon="5.65258">
        <ele>1084.02</ele>
        <time>2019-09-05T08:20:22Z</time>
      </trkpt>
      <trkpt lat="44.34062" lon="5.65241">
        <ele>1086.91</ele>
        <time>2019-09-05T08:20:34Z</time>
      </trkpt>
      <trkpt lat="44.34062" lon="5.65238">
        <ele>1087.39</ele>
        <time>2019-09-05T08:20:36Z</time>
      </trkpt>
      <trkpt lat="44.34055" lon="5.65216">
        <ele>1089.31</ele>
        <time>2019-09-05T08:20:54Z</time>
      </trkpt>
      <trkpt lat="44.34049" lon="5.65195">
        <ele>1092.2</ele>
        <time>2019-09-05T08:21:11Z</time>
      </trkpt>
      <trkpt lat="44.34044" lon="5.65175">
        <ele>1093.16</ele>
        <time>2019-09-05T08:21:27Z</time>
      </trkpt>
      <trkpt lat="44.34042" lon="5.65165">
        <ele>1093.64</ele>
        <time>2019-09-05T08:21:42Z</time>
      </trkpt>
      <trkpt lat="44.34042" lon="5.65163">
        <ele>1092.2</ele>
        <time>2019-09-05T08:21:57Z</time>
      </trkpt>
      <trkpt lat="44.34042" lon="5.65159">
        <ele>1092.2</ele>
        <time>2019-09-05T08:22:13Z</time>
      </trkpt>
      <trkpt lat="44.34043" lon="5.65161">
        <ele>1091.71</ele>
        <time>2019-09-05T08:22:26Z</time>
      </trkpt>
      <trkpt lat="44.34041" lon="5.6516">
        <ele>1091.71</ele>
        <time>2019-09-05T08:22:50Z</time>
      </trkpt>
      <trkpt lat="44.34041" lon="5.6516">
        <ele>1094.6</ele>
        <time>2019-09-05T08:23:07Z</time>
      </trkpt>
      <trkpt lat="44.34041" lon="5.6516">
        <ele>1094.12</ele>
        <time>2019-09-05T08:23:08Z</time>
      </trkpt>
      <trkpt lat="44.34042" lon="5.65159">
        <ele>1089.79</ele>
        <time>2019-09-05T08:23:20Z</time>
      </trkpt>
      <trkpt lat="44.34042" lon="5.65158">
        <ele>1093.16</ele>
        <time>2019-09-05T08:23:21Z</time>
      </trkpt>
      <trkpt lat="44.34034" lon="5.6515">
        <ele>1092.68</ele>
        <time>2019-09-05T08:23:36Z</time>
      </trkpt>
      <trkpt lat="44.34032" lon="5.65148">
        <ele>1093.16</ele>
        <time>2019-09-05T08:23:48Z</time>
      </trkpt>
      <trkpt lat="44.34032" lon="5.65149">
        <ele>1091.71</ele>
        <time>2019-09-05T08:24:07Z</time>
      </trkpt>
      <trkpt lat="44.34033" lon="5.6515">
        <ele>1091.71</ele>
        <time>2019-09-05T08:24:18Z</time>
      </trkpt>
      <trkpt lat="44.34036" lon="5.6515">
        <ele>1090.75</ele>
        <time>2019-09-05T08:24:37Z</time>
      </trkpt>
      <trkpt lat="44.34035" lon="5.65152">
        <ele>1090.27</ele>
        <time>2019-09-05T08:25:02Z</time>
      </trkpt>
      <trkpt lat="44.34036" lon="5.65151">
        <ele>1090.27</ele>
        <time>2019-09-05T08:25:37Z</time>
      </trkpt>
      <trkpt lat="44.34039" lon="5.65153">
        <ele>1090.27</ele>
        <time>2019-09-05T08:26:16Z</time>
      </trkpt>
      <trkpt lat="44.34038" lon="5.65151">
        <ele>1090.27</ele>
        <time>2019-09-05T08:26:53Z</time>
      </trkpt>
      <trkpt lat="44.34039" lon="5.6515">
        <ele>1090.75</ele>
        <time>2019-09-05T08:27:31Z</time>
      </trkpt>
      <trkpt lat="44.34038" lon="5.65152">
        <ele>1091.71</ele>
        <time>2019-09-05T08:28:07Z</time>
      </trkpt>
      <trkpt lat="44.34039" lon="5.65152">
        <ele>1092.2</ele>
        <time>2019-09-05T08:28:54Z</time>
      </trkpt>
      <trkpt lat="44.34037" lon="5.65151">
        <ele>1088.83</ele>
        <time>2019-09-05T08:29:38Z</time>
      </trkpt>
      <trkpt lat="44.34036" lon="5.65152">
        <ele>1089.79</ele>
        <time>2019-09-05T08:30:16Z</time>
      </trkpt>
      <trkpt lat="44.34037" lon="5.65152">
        <ele>1091.23</ele>
        <time>2019-09-05T08:30:24Z</time>
      </trkpt>
      <trkpt lat="44.34038" lon="5.65152">
        <ele>1091.71</ele>
        <time>2019-09-05T08:31:05Z</time>
      </trkpt>
      <trkpt lat="44.34039" lon="5.65151">
        <ele>1091.71</ele>
        <time>2019-09-05T08:31:47Z</time>
      </trkpt>
      <trkpt lat="44.34036" lon="5.65151">
        <ele>1091.71</ele>
        <time>2019-09-05T08:32:18Z</time>
      </trkpt>
      <trkpt lat="44.34039" lon="5.65151">
        <ele>1090.75</ele>
        <time>2019-09-05T08:33:05Z</time>
      </trkpt>
      <trkpt lat="44.34039" lon="5.6515">
        <ele>1090.27</ele>
        <time>2019-09-05T08:33:43Z</time>
      </trkpt>
      <trkpt lat="44.34034" lon="5.65152">
        <ele>1091.71</ele>
        <time>2019-09-05T08:34:11Z</time>
      </trkpt>
      <trkpt lat="44.34033" lon="5.6515">
        <ele>1091.23</ele>
        <time>2019-09-05T08:34:22Z</time>
      </trkpt>
      <trkpt lat="44.34033" lon="5.65149">
        <ele>1091.23</ele>
        <time>2019-09-05T08:34:40Z</time>
      </trkpt>
      <trkpt lat="44.34033" lon="5.65148">
        <ele>1092.68</ele>
        <time>2019-09-05T08:35:05Z</time>
      </trkpt>
      <trkpt lat="44.34033" lon="5.65148">
        <ele>1091.71</ele>
        <time>2019-09-05T08:35:29Z</time>
      </trkpt>
      <trkpt lat="44.34033" lon="5.65149">
        <ele>1091.23</ele>
        <time>2019-09-05T08:35:51Z</time>
      </trkpt>
      <trkpt lat="44.34033" lon="5.65151">
        <ele>1090.75</ele>
        <time>2019-09-05T08:36:12Z</time>
      </trkpt>
      <trkpt lat="44.34032" lon="5.6515">
        <ele>1091.23</ele>
        <time>2019-09-05T08:36:42Z</time>
      </trkpt>
      <trkpt lat="44.34033" lon="5.65151">
        <ele>1091.23</ele>
        <time>2019-09-05T08:37:12Z</time>
      </trkpt>
      <trkpt lat="44.34033" lon="5.65152">
        <ele>1091.23</ele>
        <time>2019-09-05T08:37:35Z</time>
      </trkpt>
      <trkpt lat="44.34033" lon="5.65151">
        <ele>1090.75</ele>
        <time>2019-09-05T08:38:01Z</time>
      </trkpt>
      <trkpt lat="44.34032" lon="5.65151">
        <ele>1090.75</ele>
        <time>2019-09-05T08:38:21Z</time>
      </trkpt>
      <trkpt lat="44.34031" lon="5.65151">
        <ele>1090.27</ele>
        <time>2019-09-05T08:38:32Z</time>
      </trkpt>
      <trkpt lat="44.34025" lon="5.65152">
        <ele>1089.79</ele>
        <time>2019-09-05T08:38:44Z</time>
      </trkpt>
      <trkpt lat="44.34023" lon="5.65152">
        <ele>1089.31</ele>
        <time>2019-09-05T08:38:58Z</time>
      </trkpt>
      <trkpt lat="44.34022" lon="5.65153">
        <ele>1089.31</ele>
        <time>2019-09-05T08:39:15Z</time>
      </trkpt>
      <trkpt lat="44.34014" lon="5.65149">
        <ele>1089.31</ele>
        <time>2019-09-05T08:39:27Z</time>
      </trkpt>
      <trkpt lat="44.34014" lon="5.65149">
        <ele>1088.83</ele>
        <time>2019-09-05T08:39:28Z</time>
      </trkpt>
      <trkpt lat="44.34004" lon="5.65146">
        <ele>1087.39</ele>
        <time>2019-09-05T08:39:43Z</time>
      </trkpt>
      <trkpt lat="44.33999" lon="5.65146">
        <ele>1086.91</ele>
        <time>2019-09-05T08:39:51Z</time>
      </trkpt>
      <trkpt lat="44.33984" lon="5.65148">
        <ele>1084.02</ele>
        <time>2019-09-05T08:40:08Z</time>
      </trkpt>
      <trkpt lat="44.33972" lon="5.65144">
        <ele>1082.1</ele>
        <time>2019-09-05T08:40:24Z</time>
      </trkpt>
      <trkpt lat="44.33961" lon="5.65143">
        <ele>1080.66</ele>
        <time>2019-09-05T08:40:38Z</time>
      </trkpt>
      <trkpt lat="44.33949" lon="5.65141">
        <ele>1081.14</ele>
        <time>2019-09-05T08:40:54Z</time>
      </trkpt>
      <trkpt lat="44.33939" lon="5.65134">
        <ele>1080.66</ele>
        <time>2019-09-05T08:41:09Z</time>
      </trkpt>
      <trkpt lat="44.33933" lon="5.65124">
        <ele>1079.22</ele>
        <time>2019-09-05T08:41:19Z</time>
      </trkpt>
      <trkpt lat="44.33923" lon="5.65114">
        <ele>1078.26</ele>
        <time>2019-09-05T08:41:31Z</time>
      </trkpt>
      <trkpt lat="44.3391" lon="5.65107">
        <ele>1076.81</ele>
        <time>2019-09-05T08:41:45Z</time>
      </trkpt>
      <trkpt lat="44.33896" lon="5.651">
        <ele>1075.37</ele>
        <time>2019-09-05T08:42:02Z</time>
      </trkpt>
      <trkpt lat="44.33885" lon="5.65093">
        <ele>1072.97</ele>
        <time>2019-09-05T08:42:17Z</time>
      </trkpt>
      <trkpt lat="44.33875" lon="5.65081">
        <ele>1071.53</ele>
        <time>2019-09-05T08:42:32Z</time>
      </trkpt>
      <trkpt lat="44.33861" lon="5.65076">
        <ele>1068.64</ele>
        <time>2019-09-05T08:42:47Z</time>
      </trkpt>
      <trkpt lat="44.33857" lon="5.65077">
        <ele>1068.16</ele>
        <time>2019-09-05T08:42:53Z</time>
      </trkpt>
      <trkpt lat="44.33847" lon="5.65076">
        <ele>1068.16</ele>
        <time>2019-09-05T08:43:06Z</time>
      </trkpt>
      <trkpt lat="44.33841" lon="5.65075">
        <ele>1067.2</ele>
        <time>2019-09-05T08:43:14Z</time>
      </trkpt>
      <trkpt lat="44.33839" lon="5.65075">
        <ele>1067.2</ele>
        <time>2019-09-05T08:43:16Z</time>
      </trkpt>
      <trkpt lat="44.33826" lon="5.65077">
        <ele>1066.24</ele>
        <time>2019-09-05T08:43:32Z</time>
      </trkpt>
      <trkpt lat="44.33816" lon="5.65076">
        <ele>1065.76</ele>
        <time>2019-09-05T08:43:47Z</time>
      </trkpt>
      <trkpt lat="44.33807" lon="5.6508">
        <ele>1062.87</ele>
        <time>2019-09-05T08:44:03Z</time>
      </trkpt>
      <trkpt lat="44.33796" lon="5.65083">
        <ele>1061.43</ele>
        <time>2019-09-05T08:44:18Z</time>
      </trkpt>
      <trkpt lat="44.33786" lon="5.65086">
        <ele>1060.47</ele>
        <time>2019-09-05T08:44:33Z</time>
      </trkpt>
      <trkpt lat="44.33791" lon="5.65071">
        <ele>1058.55</ele>
        <time>2019-09-05T08:44:45Z</time>
      </trkpt>
      <trkpt lat="44.33798" lon="5.65058">
        <ele>1056.15</ele>
        <time>2019-09-05T08:45:01Z</time>
      </trkpt>
      <trkpt lat="44.33802" lon="5.65047">
        <ele>1055.18</ele>
        <time>2019-09-05T08:45:14Z</time>
      </trkpt>
      <trkpt lat="44.33793" lon="5.65046">
        <ele>1053.26</ele>
        <time>2019-09-05T08:45:26Z</time>
      </trkpt>
      <trkpt lat="44.33783" lon="5.65049">
        <ele>1050.38</ele>
        <time>2019-09-05T08:45:41Z</time>
      </trkpt>
      <trkpt lat="44.33777" lon="5.65051">
        <ele>1049.42</ele>
        <time>2019-09-05T08:45:54Z</time>
      </trkpt>
      <trkpt lat="44.33772" lon="5.65054">
        <ele>1048.45</ele>
        <time>2019-09-05T08:46:08Z</time>
      </trkpt>
      <trkpt lat="44.33768" lon="5.65056">
        <ele>1047.01</ele>
        <time>2019-09-05T08:46:19Z</time>
      </trkpt>
      <trkpt lat="44.3376" lon="5.65058">
        <ele>1044.61</ele>
        <time>2019-09-05T08:46:31Z</time>
      </trkpt>
      <trkpt lat="44.33747" lon="5.65063">
        <ele>1042.21</ele>
        <time>2019-09-05T08:46:47Z</time>
      </trkpt>
      <trkpt lat="44.33737" lon="5.65065">
        <ele>1042.21</ele>
        <time>2019-09-05T08:47:03Z</time>
      </trkpt>
      <trkpt lat="44.33728" lon="5.6507">
        <ele>1041.25</ele>
        <time>2019-09-05T08:47:18Z</time>
      </trkpt>
      <trkpt lat="44.33719" lon="5.65073">
        <ele>1039.8</ele>
        <time>2019-09-05T08:47:33Z</time>
      </trkpt>
      <trkpt lat="44.33714" lon="5.65076">
        <ele>1038.36</ele>
        <time>2019-09-05T08:47:46Z</time>
      </trkpt>
      <trkpt lat="44.33709" lon="5.65077">
        <ele>1037.4</ele>
        <time>2019-09-05T08:48:00Z</time>
      </trkpt>
      <trkpt lat="44.337" lon="5.6508">
        <ele>1035.48</ele>
        <time>2019-09-05T08:48:15Z</time>
      </trkpt>
      <trkpt lat="44.33694" lon="5.65081">
        <ele>1034.04</ele>
        <time>2019-09-05T08:48:28Z</time>
      </trkpt>
      <trkpt lat="44.33688" lon="5.65081">
        <ele>1032.11</ele>
        <time>2019-09-05T08:48:41Z</time>
      </trkpt>
      <trkpt lat="44.33683" lon="5.65083">
        <ele>1031.15</ele>
        <time>2019-09-05T08:48:47Z</time>
      </trkpt>
      <trkpt lat="44.33674" lon="5.65091">
        <ele>1029.23</ele>
        <time>2019-09-05T08:49:02Z</time>
      </trkpt>
      <trkpt lat="44.33664" lon="5.65103">
        <ele>1027.79</ele>
        <time>2019-09-05T08:49:17Z</time>
      </trkpt>
      <trkpt lat="44.33662" lon="5.65104">
        <ele>1027.31</ele>
        <time>2019-09-05T08:49:19Z</time>
      </trkpt>
      <trkpt lat="44.33659" lon="5.65108">
        <ele>1026.83</ele>
        <time>2019-09-05T08:49:24Z</time>
      </trkpt>
      <trkpt lat="44.33648" lon="5.65115">
        <ele>1024.9</ele>
        <time>2019-09-05T08:49:39Z</time>
      </trkpt>
      <trkpt lat="44.33637" lon="5.65118">
        <ele>1022.02</ele>
        <time>2019-09-05T08:49:54Z</time>
      </trkpt>
      <trkpt lat="44.33626" lon="5.65116">
        <ele>1019.62</ele>
        <time>2019-09-05T08:50:09Z</time>
      </trkpt>
      <trkpt lat="44.33614" lon="5.65116">
        <ele>1017.21</ele>
        <time>2019-09-05T08:50:24Z</time>
      </trkpt>
      <trkpt lat="44.33613" lon="5.65116">
        <ele>1017.21</ele>
        <time>2019-09-05T08:50:25Z</time>
      </trkpt>
      <trkpt lat="44.33602" lon="5.65116">
        <ele>1014.33</ele>
        <time>2019-09-05T08:50:41Z</time>
      </trkpt>
      <trkpt lat="44.33588" lon="5.65114">
        <ele>1011.93</ele>
        <time>2019-09-05T08:50:56Z</time>
      </trkpt>
      <trkpt lat="44.33573" lon="5.65111">
        <ele>1008.56</ele>
        <time>2019-09-05T08:51:13Z</time>
      </trkpt>
      <trkpt lat="44.3356" lon="5.65111">
        <ele>1006.64</ele>
        <time>2019-09-05T08:51:28Z</time>
      </trkpt>
      <trkpt lat="44.33546" lon="5.65118">
        <ele>1004.72</ele>
        <time>2019-09-05T08:51:45Z</time>
      </trkpt>
      <trkpt lat="44.3353" lon="5.65129">
        <ele>1003.27</ele>
        <time>2019-09-05T08:52:03Z</time>
      </trkpt>
      <trkpt lat="44.33518" lon="5.65132">
        <ele>1002.31</ele>
        <time>2019-09-05T08:52:18Z</time>
      </trkpt>
      <trkpt lat="44.33502" lon="5.65135">
        <ele>1000.39</ele>
        <time>2019-09-05T08:52:35Z</time>
      </trkpt>
      <trkpt lat="44.33496" lon="5.6513">
        <ele>998.95</ele>
        <time>2019-09-05T08:52:48Z</time>
      </trkpt>
      <trkpt lat="44.33509" lon="5.65125">
        <ele>998.47</ele>
        <time>2019-09-05T08:53:02Z</time>
      </trkpt>
      <trkpt lat="44.33524" lon="5.65116">
        <ele>997.02</ele>
        <time>2019-09-05T08:53:18Z</time>
      </trkpt>
      <trkpt lat="44.33533" lon="5.6511">
        <ele>996.06</ele>
        <time>2019-09-05T08:53:31Z</time>
      </trkpt>
      <trkpt lat="44.33541" lon="5.65098">
        <ele>995.1</ele>
        <time>2019-09-05T08:53:46Z</time>
      </trkpt>
      <trkpt lat="44.3355" lon="5.65092">
        <ele>995.1</ele>
        <time>2019-09-05T08:53:59Z</time>
      </trkpt>
      <trkpt lat="44.33555" lon="5.65087">
        <ele>995.1</ele>
        <time>2019-09-05T08:54:05Z</time>
      </trkpt>
      <trkpt lat="44.33559" lon="5.65082">
        <ele>994.62</ele>
        <time>2019-09-05T08:54:10Z</time>
      </trkpt>
      <trkpt lat="44.33577" lon="5.65077">
        <ele>992.7</ele>
        <time>2019-09-05T08:54:29Z</time>
      </trkpt>
      <trkpt lat="44.33589" lon="5.65074">
        <ele>991.26</ele>
        <time>2019-09-05T08:54:44Z</time>
      </trkpt>
      <trkpt lat="44.33601" lon="5.65072">
        <ele>989.81</ele>
        <time>2019-09-05T08:55:00Z</time>
      </trkpt>
      <trkpt lat="44.33609" lon="5.6507">
        <ele>989.81</ele>
        <time>2019-09-05T08:55:14Z</time>
      </trkpt>
      <trkpt lat="44.33621" lon="5.65063">
        <ele>990.3</ele>
        <time>2019-09-05T08:55:29Z</time>
      </trkpt>
      <trkpt lat="44.33631" lon="5.65052">
        <ele>990.3</ele>
        <time>2019-09-05T08:55:44Z</time>
      </trkpt>
      <trkpt lat="44.33638" lon="5.65041">
        <ele>991.26</ele>
        <time>2019-09-05T08:55:59Z</time>
      </trkpt>
      <trkpt lat="44.33645" lon="5.65031">
        <ele>991.74</ele>
        <time>2019-09-05T08:56:12Z</time>
      </trkpt>
      <trkpt lat="44.33648" lon="5.65021">
        <ele>992.22</ele>
        <time>2019-09-05T08:56:24Z</time>
      </trkpt>
      <trkpt lat="44.33655" lon="5.6501">
        <ele>992.7</ele>
        <time>2019-09-05T08:56:37Z</time>
      </trkpt>
      <trkpt lat="44.33665" lon="5.65009">
        <ele>993.18</ele>
        <time>2019-09-05T08:56:51Z</time>
      </trkpt>
      <trkpt lat="44.33673" lon="5.65004">
        <ele>994.14</ele>
        <time>2019-09-05T08:57:05Z</time>
      </trkpt>
      <trkpt lat="44.3368" lon="5.65">
        <ele>995.58</ele>
        <time>2019-09-05T08:57:19Z</time>
      </trkpt>
      <trkpt lat="44.33688" lon="5.64995">
        <ele>997.02</ele>
        <time>2019-09-05T08:57:32Z</time>
      </trkpt>
      <trkpt lat="44.33697" lon="5.6499">
        <ele>998.47</ele>
        <time>2019-09-05T08:57:47Z</time>
      </trkpt>
      <trkpt lat="44.33695" lon="5.64988">
        <ele>998.47</ele>
        <time>2019-09-05T08:58:03Z</time>
      </trkpt>
      <trkpt lat="44.33696" lon="5.64989">
        <ele>999.43</ele>
        <time>2019-09-05T08:58:24Z</time>
      </trkpt>
      <trkpt lat="44.33695" lon="5.64987">
        <ele>998.95</ele>
        <time>2019-09-05T08:58:41Z</time>
      </trkpt>
      <trkpt lat="44.33698" lon="5.64983">
        <ele>999.43</ele>
        <time>2019-09-05T08:59:01Z</time>
      </trkpt>
      <trkpt lat="44.33707" lon="5.64973">
        <ele>1000.39</ele>
        <time>2019-09-05T08:59:14Z</time>
      </trkpt>
      <trkpt lat="44.33717" lon="5.6496">
        <ele>1002.79</ele>
        <time>2019-09-05T08:59:30Z</time>
      </trkpt>
      <trkpt lat="44.33723" lon="5.64955">
        <ele>1003.27</ele>
        <time>2019-09-05T08:59:43Z</time>
      </trkpt>
      <trkpt lat="44.33734" lon="5.64949">
        <ele>1004.23</ele>
        <time>2019-09-05T08:59:58Z</time>
      </trkpt>
      <trkpt lat="44.33739" lon="5.64946">
        <ele>1005.2</ele>
        <time>2019-09-05T09:00:12Z</time>
      </trkpt>
      <trkpt lat="44.33748" lon="5.64939">
        <ele>1006.16</ele>
        <time>2019-09-05T09:00:26Z</time>
      </trkpt>
      <trkpt lat="44.33753" lon="5.64937">
        <ele>1007.12</ele>
        <time>2019-09-05T09:00:40Z</time>
      </trkpt>
      <trkpt lat="44.33755" lon="5.64936">
        <ele>1007.12</ele>
        <time>2019-09-05T09:00:42Z</time>
      </trkpt>
      <trkpt lat="44.33764" lon="5.64932">
        <ele>1008.08</ele>
        <time>2019-09-05T09:00:54Z</time>
      </trkpt>
      <trkpt lat="44.33771" lon="5.64926">
        <ele>1008.56</ele>
        <time>2019-09-05T09:01:05Z</time>
      </trkpt>
      <trkpt lat="44.33776" lon="5.64921">
        <ele>1009.04</ele>
        <time>2019-09-05T09:01:16Z</time>
      </trkpt>
      <trkpt lat="44.3378" lon="5.64916">
        <ele>1010.48</ele>
        <time>2019-09-05T09:01:26Z</time>
      </trkpt>
      <trkpt lat="44.33784" lon="5.64902">
        <ele>1013.37</ele>
        <time>2019-09-05T09:01:41Z</time>
      </trkpt>
      <trkpt lat="44.3379" lon="5.64898">
        <ele>1014.33</ele>
        <time>2019-09-05T09:01:53Z</time>
      </trkpt>
      <trkpt lat="44.33796" lon="5.64893">
        <ele>1015.77</ele>
        <time>2019-09-05T09:02:08Z</time>
      </trkpt>
      <trkpt lat="44.33805" lon="5.64888">
        <ele>1016.73</ele>
        <time>2019-09-05T09:02:21Z</time>
      </trkpt>
      <trkpt lat="44.33813" lon="5.64879">
        <ele>1018.17</ele>
        <time>2019-09-05T09:02:36Z</time>
      </trkpt>
      <trkpt lat="44.33822" lon="5.64874">
        <ele>1020.1</ele>
        <time>2019-09-05T09:02:56Z</time>
      </trkpt>
      <trkpt lat="44.33827" lon="5.64867">
        <ele>1021.06</ele>
        <time>2019-09-05T09:03:08Z</time>
      </trkpt>
      <trkpt lat="44.33832" lon="5.64859">
        <ele>1022.02</ele>
        <time>2019-09-05T09:03:17Z</time>
      </trkpt>
      <trkpt lat="44.33831" lon="5.6485">
        <ele>1023.46</ele>
        <time>2019-09-05T09:03:30Z</time>
      </trkpt>
      <trkpt lat="44.33838" lon="5.64842">
        <ele>1024.9</ele>
        <time>2019-09-05T09:03:44Z</time>
      </trkpt>
      <trkpt lat="44.3384" lon="5.64834">
        <ele>1027.79</ele>
        <time>2019-09-05T09:04:00Z</time>
      </trkpt>
      <trkpt lat="44.33839" lon="5.64833">
        <ele>1027.31</ele>
        <time>2019-09-05T09:04:19Z</time>
      </trkpt>
      <trkpt lat="44.33839" lon="5.64838">
        <ele>1027.31</ele>
        <time>2019-09-05T09:04:33Z</time>
      </trkpt>
      <trkpt lat="44.33837" lon="5.6483">
        <ele>1028.27</ele>
        <time>2019-09-05T09:04:48Z</time>
      </trkpt>
      <trkpt lat="44.33834" lon="5.64831">
        <ele>1028.27</ele>
        <time>2019-09-05T09:05:02Z</time>
      </trkpt>
      <trkpt lat="44.33832" lon="5.64831">
        <ele>1028.27</ele>
        <time>2019-09-05T09:05:32Z</time>
      </trkpt>
      <trkpt lat="44.33833" lon="5.64833">
        <ele>1029.71</ele>
        <time>2019-09-05T09:05:56Z</time>
      </trkpt>
      <trkpt lat="44.33826" lon="5.64822">
        <ele>1031.63</ele>
        <time>2019-09-05T09:06:09Z</time>
      </trkpt>
      <trkpt lat="44.33816" lon="5.6482">
        <ele>1034.52</ele>
        <time>2019-09-05T09:06:22Z</time>
      </trkpt>
      <trkpt lat="44.33806" lon="5.64816">
        <ele>1036.92</ele>
        <time>2019-09-05T09:06:39Z</time>
      </trkpt>
      <trkpt lat="44.33799" lon="5.6481">
        <ele>1038.36</ele>
        <time>2019-09-05T09:06:52Z</time>
      </trkpt>
      <trkpt lat="44.33794" lon="5.64808">
        <ele>1040.28</ele>
        <time>2019-09-05T09:07:04Z</time>
      </trkpt>
      <trkpt lat="44.33791" lon="5.64805">
        <ele>1041.25</ele>
        <time>2019-09-05T09:07:17Z</time>
      </trkpt>
      <trkpt lat="44.33786" lon="5.64794">
        <ele>1043.17</ele>
        <time>2019-09-05T09:07:31Z</time>
      </trkpt>
      <trkpt lat="44.33781" lon="5.64782">
        <ele>1045.57</ele>
        <time>2019-09-05T09:07:46Z</time>
      </trkpt>
      <trkpt lat="44.33776" lon="5.64774">
        <ele>1047.01</ele>
        <time>2019-09-05T09:07:57Z</time>
      </trkpt>
      <trkpt lat="44.3377" lon="5.64764">
        <ele>1048.45</ele>
        <time>2019-09-05T09:08:11Z</time>
      </trkpt>
      <trkpt lat="44.33765" lon="5.64752">
        <ele>1049.9</ele>
        <time>2019-09-05T09:08:25Z</time>
      </trkpt>
      <trkpt lat="44.33759" lon="5.64739">
        <ele>1051.82</ele>
        <time>2019-09-05T09:08:40Z</time>
      </trkpt>
      <trkpt lat="44.33756" lon="5.64729">
        <ele>1053.26</ele>
        <time>2019-09-05T09:08:53Z</time>
      </trkpt>
      <trkpt lat="44.33755" lon="5.64725">
        <ele>1055.18</ele>
        <time>2019-09-05T09:09:07Z</time>
      </trkpt>
      <trkpt lat="44.33752" lon="5.64716">
        <ele>1054.7</ele>
        <time>2019-09-05T09:09:20Z</time>
      </trkpt>
      <trkpt lat="44.33747" lon="5.64705">
        <ele>1056.15</ele>
        <time>2019-09-05T09:09:35Z</time>
      </trkpt>
      <trkpt lat="44.33743" lon="5.64698">
        <ele>1057.11</ele>
        <time>2019-09-05T09:09:50Z</time>
      </trkpt>
      <trkpt lat="44.33735" lon="5.64689">
        <ele>1059.51</ele>
        <time>2019-09-05T09:10:04Z</time>
      </trkpt>
      <trkpt lat="44.33727" lon="5.64683">
        <ele>1059.99</ele>
        <time>2019-09-05T09:10:18Z</time>
      </trkpt>
      <trkpt lat="44.33722" lon="5.64682">
        <ele>1060.47</ele>
        <time>2019-09-05T09:10:23Z</time>
      </trkpt>
      <trkpt lat="44.33712" lon="5.64677">
        <ele>1062.87</ele>
        <time>2019-09-05T09:10:38Z</time>
      </trkpt>
      <trkpt lat="44.33704" lon="5.64667">
        <ele>1064.8</ele>
        <time>2019-09-05T09:10:53Z</time>
      </trkpt>
      <trkpt lat="44.33698" lon="5.64665">
        <ele>1065.28</ele>
        <time>2019-09-05T09:11:01Z</time>
      </trkpt>
      <trkpt lat="44.3369" lon="5.64654">
        <ele>1066.72</ele>
        <time>2019-09-05T09:11:16Z</time>
      </trkpt>
      <trkpt lat="44.33693" lon="5.64643">
        <ele>1067.2</ele>
        <time>2019-09-05T09:11:32Z</time>
      </trkpt>
      <trkpt lat="44.33696" lon="5.64638">
        <ele>1067.68</ele>
        <time>2019-09-05T09:11:45Z</time>
      </trkpt>
      <trkpt lat="44.33695" lon="5.64634">
        <ele>1066.24</ele>
        <time>2019-09-05T09:11:57Z</time>
      </trkpt>
      <trkpt lat="44.33697" lon="5.64635">
        <ele>1066.24</ele>
        <time>2019-09-05T09:12:22Z</time>
      </trkpt>
      <trkpt lat="44.33697" lon="5.64636">
        <ele>1068.16</ele>
        <time>2019-09-05T09:13:01Z</time>
      </trkpt>
      <trkpt lat="44.33694" lon="5.64639">
        <ele>1069.6</ele>
        <time>2019-09-05T09:13:11Z</time>
      </trkpt>
      <trkpt lat="44.33693" lon="5.64637">
        <ele>1069.6</ele>
        <time>2019-09-05T09:13:27Z</time>
      </trkpt>
      <trkpt lat="44.33692" lon="5.6464">
        <ele>1069.6</ele>
        <time>2019-09-05T09:13:43Z</time>
      </trkpt>
      <trkpt lat="44.3369" lon="5.64638">
        <ele>1069.6</ele>
        <time>2019-09-05T09:14:03Z</time>
      </trkpt>
      <trkpt lat="44.3369" lon="5.64639">
        <ele>1069.6</ele>
        <time>2019-09-05T09:14:18Z</time>
      </trkpt>
      <trkpt lat="44.33688" lon="5.64647">
        <ele>1069.12</ele>
        <time>2019-09-05T09:14:34Z</time>
      </trkpt>
      <trkpt lat="44.33689" lon="5.64643">
        <ele>1069.12</ele>
        <time>2019-09-05T09:14:54Z</time>
      </trkpt>
      <trkpt lat="44.33688" lon="5.64642">
        <ele>1068.64</ele>
        <time>2019-09-05T09:15:15Z</time>
      </trkpt>
      <trkpt lat="44.33688" lon="5.64641">
        <ele>1068.64</ele>
        <time>2019-09-05T09:15:45Z</time>
      </trkpt>
      <trkpt lat="44.33687" lon="5.64643">
        <ele>1069.12</ele>
        <time>2019-09-05T09:16:16Z</time>
      </trkpt>
      <trkpt lat="44.33686" lon="5.64639">
        <ele>1069.6</ele>
        <time>2019-09-05T09:16:42Z</time>
      </trkpt>
      <trkpt lat="44.33686" lon="5.64638">
        <ele>1070.08</ele>
        <time>2019-09-05T09:17:04Z</time>
      </trkpt>
      <trkpt lat="44.33687" lon="5.64637">
        <ele>1069.6</ele>
        <time>2019-09-05T09:17:29Z</time>
      </trkpt>
      <trkpt lat="44.33686" lon="5.64635">
        <ele>1070.08</ele>
        <time>2019-09-05T09:18:01Z</time>
      </trkpt>
      <trkpt lat="44.33687" lon="5.64644">
        <ele>1070.08</ele>
        <time>2019-09-05T09:18:24Z</time>
      </trkpt>
      <trkpt lat="44.33688" lon="5.64641">
        <ele>1070.08</ele>
        <time>2019-09-05T09:18:44Z</time>
      </trkpt>
      <trkpt lat="44.33688" lon="5.64636">
        <ele>1070.57</ele>
        <time>2019-09-05T09:19:11Z</time>
      </trkpt>
      <trkpt lat="44.33687" lon="5.64635">
        <ele>1070.57</ele>
        <time>2019-09-05T09:19:30Z</time>
      </trkpt>
      <trkpt lat="44.33695" lon="5.64633">
        <ele>1072.01</ele>
        <time>2019-09-05T09:19:43Z</time>
      </trkpt>
      <trkpt lat="44.33694" lon="5.64632">
        <ele>1072.01</ele>
        <time>2019-09-05T09:19:54Z</time>
      </trkpt>
      <trkpt lat="44.33694" lon="5.64636">
        <ele>1071.53</ele>
        <time>2019-09-05T09:20:19Z</time>
      </trkpt>
      <trkpt lat="44.33696" lon="5.64634">
        <ele>1071.53</ele>
        <time>2019-09-05T09:20:45Z</time>
      </trkpt>
      <trkpt lat="44.33704" lon="5.64628">
        <ele>1072.97</ele>
        <time>2019-09-05T09:21:00Z</time>
      </trkpt>
      <trkpt lat="44.33708" lon="5.64621">
        <ele>1073.45</ele>
        <time>2019-09-05T09:21:13Z</time>
      </trkpt>
      <trkpt lat="44.33713" lon="5.6462">
        <ele>1074.41</ele>
        <time>2019-09-05T09:21:25Z</time>
      </trkpt>
      <trkpt lat="44.33715" lon="5.64619">
        <ele>1075.37</ele>
        <time>2019-09-05T09:21:28Z</time>
      </trkpt>
      <trkpt lat="44.33717" lon="5.64613">
        <ele>1075.85</ele>
        <time>2019-09-05T09:21:33Z</time>
      </trkpt>
      <trkpt lat="44.33721" lon="5.64597">
        <ele>1077.29</ele>
        <time>2019-09-05T09:21:48Z</time>
      </trkpt>
      <trkpt lat="44.33723" lon="5.64591">
        <ele>1078.74</ele>
        <time>2019-09-05T09:22:03Z</time>
      </trkpt>
      <trkpt lat="44.33726" lon="5.64583">
        <ele>1080.66</ele>
        <time>2019-09-05T09:22:19Z</time>
      </trkpt>
      <trkpt lat="44.33733" lon="5.64574">
        <ele>1082.1</ele>
        <time>2019-09-05T09:22:33Z</time>
      </trkpt>
      <trkpt lat="44.33733" lon="5.64562">
        <ele>1083.54</ele>
        <time>2019-09-05T09:22:48Z</time>
      </trkpt>
      <trkpt lat="44.33731" lon="5.64549">
        <ele>1084.5</ele>
        <time>2019-09-05T09:23:02Z</time>
      </trkpt>
      <trkpt lat="44.33732" lon="5.64533">
        <ele>1086.43</ele>
        <time>2019-09-05T09:23:18Z</time>
      </trkpt>
      <trkpt lat="44.33729" lon="5.64522">
        <ele>1087.39</ele>
        <time>2019-09-05T09:23:31Z</time>
      </trkpt>
      <trkpt lat="44.33729" lon="5.64507">
        <ele>1088.83</ele>
        <time>2019-09-05T09:23:45Z</time>
      </trkpt>
      <trkpt lat="44.33728" lon="5.64502">
        <ele>1089.31</ele>
        <time>2019-09-05T09:23:49Z</time>
      </trkpt>
      <trkpt lat="44.33726" lon="5.64487">
        <ele>1090.27</ele>
        <time>2019-09-05T09:24:02Z</time>
      </trkpt>
      <trkpt lat="44.33725" lon="5.64472">
        <ele>1090.75</ele>
        <time>2019-09-05T09:24:17Z</time>
      </trkpt>
      <trkpt lat="44.33727" lon="5.64466">
        <ele>1091.23</ele>
        <time>2019-09-05T09:24:31Z</time>
      </trkpt>
      <trkpt lat="44.33727" lon="5.64465">
        <ele>1090.75</ele>
        <time>2019-09-05T09:24:58Z</time>
      </trkpt>
      <trkpt lat="44.33727" lon="5.64466">
        <ele>1090.75</ele>
        <time>2019-09-05T09:25:17Z</time>
      </trkpt>
      <trkpt lat="44.33729" lon="5.64464">
        <ele>1090.75</ele>
        <time>2019-09-05T09:25:39Z</time>
      </trkpt>
      <trkpt lat="44.33731" lon="5.64463">
        <ele>1090.27</ele>
        <time>2019-09-05T09:25:52Z</time>
      </trkpt>
      <trkpt lat="44.33732" lon="5.64461">
        <ele>1090.27</ele>
        <time>2019-09-05T09:26:15Z</time>
      </trkpt>
      <trkpt lat="44.33734" lon="5.64459">
        <ele>1091.71</ele>
        <time>2019-09-05T09:26:31Z</time>
      </trkpt>
      <trkpt lat="44.33746" lon="5.64443">
        <ele>1092.2</ele>
        <time>2019-09-05T09:26:47Z</time>
      </trkpt>
      <trkpt lat="44.33758" lon="5.64438">
        <ele>1092.68</ele>
        <time>2019-09-05T09:27:01Z</time>
      </trkpt>
      <trkpt lat="44.33771" lon="5.6442">
        <ele>1094.6</ele>
        <time>2019-09-05T09:27:17Z</time>
      </trkpt>
      <trkpt lat="44.33781" lon="5.64409">
        <ele>1097.48</ele>
        <time>2019-09-05T09:27:32Z</time>
      </trkpt>
      <trkpt lat="44.33789" lon="5.64399">
        <ele>1099.89</ele>
        <time>2019-09-05T09:27:47Z</time>
      </trkpt>
      <trkpt lat="44.33797" lon="5.64386">
        <ele>1102.77</ele>
        <time>2019-09-05T09:28:02Z</time>
      </trkpt>
      <trkpt lat="44.33802" lon="5.64374">
        <ele>1105.17</ele>
        <time>2019-09-05T09:28:15Z</time>
      </trkpt>
      <trkpt lat="44.33803" lon="5.64364">
        <ele>1106.13</ele>
        <time>2019-09-05T09:28:22Z</time>
      </trkpt>
      <trkpt lat="44.33807" lon="5.64353">
        <ele>1106.61</ele>
        <time>2019-09-05T09:28:30Z</time>
      </trkpt>
      <trkpt lat="44.33807" lon="5.6435">
        <ele>1106.61</ele>
        <time>2019-09-05T09:28:32Z</time>
      </trkpt>
      <trkpt lat="44.33807" lon="5.64344">
        <ele>1106.61</ele>
        <time>2019-09-05T09:28:36Z</time>
      </trkpt>
      <trkpt lat="44.33807" lon="5.64317">
        <ele>1106.61</ele>
        <time>2019-09-05T09:28:53Z</time>
      </trkpt>
      <trkpt lat="44.33807" lon="5.64314">
        <ele>1106.61</ele>
        <time>2019-09-05T09:28:55Z</time>
      </trkpt>
      <trkpt lat="44.33807" lon="5.64305">
        <ele>1106.61</ele>
        <time>2019-09-05T09:29:01Z</time>
      </trkpt>
      <trkpt lat="44.338" lon="5.64276">
        <ele>1107.1</ele>
        <time>2019-09-05T09:29:19Z</time>
      </trkpt>
      <trkpt lat="44.338" lon="5.64271">
        <ele>1107.1</ele>
        <time>2019-09-05T09:29:22Z</time>
      </trkpt>
      <trkpt lat="44.33799" lon="5.64267">
        <ele>1107.58</ele>
        <time>2019-09-05T09:29:25Z</time>
      </trkpt>
      <trkpt lat="44.33803" lon="5.64245">
        <ele>1110.46</ele>
        <time>2019-09-05T09:29:43Z</time>
      </trkpt>
      <trkpt lat="44.33807" lon="5.64231">
        <ele>1113.82</ele>
        <time>2019-09-05T09:29:55Z</time>
      </trkpt>
      <trkpt lat="44.33814" lon="5.64215">
        <ele>1116.71</ele>
        <time>2019-09-05T09:30:10Z</time>
      </trkpt>
      <trkpt lat="44.33816" lon="5.64213">
        <ele>1116.71</ele>
        <time>2019-09-05T09:30:12Z</time>
      </trkpt>
      <trkpt lat="44.33824" lon="5.64203">
        <ele>1118.15</ele>
        <time>2019-09-05T09:30:26Z</time>
      </trkpt>
      <trkpt lat="44.3383" lon="5.64196">
        <ele>1118.15</ele>
        <time>2019-09-05T09:30:40Z</time>
      </trkpt>
      <trkpt lat="44.33839" lon="5.64182">
        <ele>1119.11</ele>
        <time>2019-09-05T09:30:56Z</time>
      </trkpt>
      <trkpt lat="44.33849" lon="5.64172">
        <ele>1119.59</ele>
        <time>2019-09-05T09:31:09Z</time>
      </trkpt>
      <trkpt lat="44.33859" lon="5.64163">
        <ele>1119.11</ele>
        <time>2019-09-05T09:31:24Z</time>
      </trkpt>
      <trkpt lat="44.33861" lon="5.64162">
        <ele>1119.11</ele>
        <time>2019-09-05T09:31:37Z</time>
      </trkpt>
      <trkpt lat="44.33863" lon="5.64158">
        <ele>1119.11</ele>
        <time>2019-09-05T09:31:41Z</time>
      </trkpt>
      <trkpt lat="44.33876" lon="5.64142">
        <ele>1119.11</ele>
        <time>2019-09-05T09:31:57Z</time>
      </trkpt>
      <trkpt lat="44.33888" lon="5.64131">
        <ele>1119.59</ele>
        <time>2019-09-05T09:32:12Z</time>
      </trkpt>
      <trkpt lat="44.33894" lon="5.64122">
        <ele>1119.59</ele>
        <time>2019-09-05T09:32:21Z</time>
      </trkpt>
      <trkpt lat="44.33909" lon="5.64105">
        <ele>1120.07</ele>
        <time>2019-09-05T09:32:39Z</time>
      </trkpt>
      <trkpt lat="44.33922" lon="5.64099">
        <ele>1121.52</ele>
        <time>2019-09-05T09:32:53Z</time>
      </trkpt>
      <trkpt lat="44.33931" lon="5.64096">
        <ele>1122.96</ele>
        <time>2019-09-05T09:33:07Z</time>
      </trkpt>
      <trkpt lat="44.33942" lon="5.6409">
        <ele>1123.44</ele>
        <time>2019-09-05T09:33:22Z</time>
      </trkpt>
      <trkpt lat="44.33954" lon="5.64085">
        <ele>1123.92</ele>
        <time>2019-09-05T09:33:38Z</time>
      </trkpt>
      <trkpt lat="44.33962" lon="5.64077">
        <ele>1124.88</ele>
        <time>2019-09-05T09:33:51Z</time>
      </trkpt>
      <trkpt lat="44.33971" lon="5.64061">
        <ele>1124.88</ele>
        <time>2019-09-05T09:34:06Z</time>
      </trkpt>
      <trkpt lat="44.3398" lon="5.64049">
        <ele>1124.88</ele>
        <time>2019-09-05T09:34:22Z</time>
      </trkpt>
      <trkpt lat="44.33987" lon="5.6404">
        <ele>1125.36</ele>
        <time>2019-09-05T09:34:37Z</time>
      </trkpt>
      <trkpt lat="44.33994" lon="5.64031">
        <ele>1126.32</ele>
        <time>2019-09-05T09:34:53Z</time>
      </trkpt>
      <trkpt lat="44.33998" lon="5.64018">
        <ele>1127.76</ele>
        <time>2019-09-05T09:35:06Z</time>
      </trkpt>
      <trkpt lat="44.33994" lon="5.64006">
        <ele>1128.24</ele>
        <time>2019-09-05T09:35:17Z</time>
      </trkpt>
      <trkpt lat="44.33985" lon="5.63986">
        <ele>1128.73</ele>
        <time>2019-09-05T09:35:34Z</time>
      </trkpt>
      <trkpt lat="44.33979" lon="5.63966">
        <ele>1129.21</ele>
        <time>2019-09-05T09:35:50Z</time>
      </trkpt>
      <trkpt lat="44.33977" lon="5.6395">
        <ele>1130.17</ele>
        <time>2019-09-05T09:36:06Z</time>
      </trkpt>
      <trkpt lat="44.33977" lon="5.63938">
        <ele>1131.13</ele>
        <time>2019-09-05T09:36:21Z</time>
      </trkpt>
      <trkpt lat="44.33978" lon="5.63929">
        <ele>1132.09</ele>
        <time>2019-09-05T09:36:33Z</time>
      </trkpt>
      <trkpt lat="44.33981" lon="5.63916">
        <ele>1134.01</ele>
        <time>2019-09-05T09:36:48Z</time>
      </trkpt>
      <trkpt lat="44.33982" lon="5.6391">
        <ele>1134.97</ele>
        <time>2019-09-05T09:36:54Z</time>
      </trkpt>
      <trkpt lat="44.33989" lon="5.63892">
        <ele>1135.94</ele>
        <time>2019-09-05T09:37:10Z</time>
      </trkpt>
      <trkpt lat="44.33996" lon="5.63878">
        <ele>1135.94</ele>
        <time>2019-09-05T09:37:25Z</time>
      </trkpt>
      <trkpt lat="44.34003" lon="5.63868">
        <ele>1135.94</ele>
        <time>2019-09-05T09:37:38Z</time>
      </trkpt>
      <trkpt lat="44.34005" lon="5.63866">
        <ele>1135.94</ele>
        <time>2019-09-05T09:37:40Z</time>
      </trkpt>
      <trkpt lat="44.34016" lon="5.63857">
        <ele>1136.9</ele>
        <time>2019-09-05T09:37:57Z</time>
      </trkpt>
      <trkpt lat="44.34027" lon="5.63854">
        <ele>1138.34</ele>
        <time>2019-09-05T09:38:11Z</time>
      </trkpt>
      <trkpt lat="44.34036" lon="5.6385">
        <ele>1138.82</ele>
        <time>2019-09-05T09:38:26Z</time>
      </trkpt>
      <trkpt lat="44.34046" lon="5.63842">
        <ele>1139.78</ele>
        <time>2019-09-05T09:38:41Z</time>
      </trkpt>
      <trkpt lat="44.34052" lon="5.63825">
        <ele>1140.26</ele>
        <time>2019-09-05T09:38:56Z</time>
      </trkpt>
      <trkpt lat="44.34053" lon="5.63819">
        <ele>1140.26</ele>
        <time>2019-09-05T09:39:01Z</time>
      </trkpt>
      <trkpt lat="44.34053" lon="5.63809">
        <ele>1140.74</ele>
        <time>2019-09-05T09:39:09Z</time>
      </trkpt>
      <trkpt lat="44.34052" lon="5.63791">
        <ele>1140.26</ele>
        <time>2019-09-05T09:39:25Z</time>
      </trkpt>
      <trkpt lat="44.34051" lon="5.63774">
        <ele>1140.26</ele>
        <time>2019-09-05T09:39:41Z</time>
      </trkpt>
      <trkpt lat="44.34052" lon="5.63758">
        <ele>1141.22</ele>
        <time>2019-09-05T09:39:57Z</time>
      </trkpt>
      <trkpt lat="44.3405" lon="5.63737">
        <ele>1142.18</ele>
        <time>2019-09-05T09:40:13Z</time>
      </trkpt>
      <trkpt lat="44.34045" lon="5.63716">
        <ele>1141.7</ele>
        <time>2019-09-05T09:40:30Z</time>
      </trkpt>
      <trkpt lat="44.34042" lon="5.63697">
        <ele>1141.7</ele>
        <time>2019-09-05T09:40:46Z</time>
      </trkpt>
      <trkpt lat="44.34039" lon="5.6368">
        <ele>1142.66</ele>
        <time>2019-09-05T09:41:03Z</time>
      </trkpt>
      <trkpt lat="44.34035" lon="5.63666">
        <ele>1143.63</ele>
        <time>2019-09-05T09:41:17Z</time>
      </trkpt>
      <trkpt lat="44.3403" lon="5.6365">
        <ele>1144.59</ele>
        <time>2019-09-05T09:41:34Z</time>
      </trkpt>
      <trkpt lat="44.34027" lon="5.63636">
        <ele>1146.03</ele>
        <time>2019-09-05T09:41:49Z</time>
      </trkpt>
      <trkpt lat="44.34026" lon="5.63622">
        <ele>1147.47</ele>
        <time>2019-09-05T09:42:02Z</time>
      </trkpt>
      <trkpt lat="44.34022" lon="5.63608">
        <ele>1148.91</ele>
        <time>2019-09-05T09:42:17Z</time>
      </trkpt>
      <trkpt lat="44.34017" lon="5.63591">
        <ele>1148.91</ele>
        <time>2019-09-05T09:42:33Z</time>
      </trkpt>
      <trkpt lat="44.34012" lon="5.63572">
        <ele>1149.39</ele>
        <time>2019-09-05T09:42:49Z</time>
      </trkpt>
      <trkpt lat="44.34009" lon="5.63556">
        <ele>1149.87</ele>
        <time>2019-09-05T09:43:05Z</time>
      </trkpt>
      <trkpt lat="44.34004" lon="5.63537">
        <ele>1150.84</ele>
        <time>2019-09-05T09:43:22Z</time>
      </trkpt>
      <trkpt lat="44.33998" lon="5.63521">
        <ele>1151.8</ele>
        <time>2019-09-05T09:43:38Z</time>
      </trkpt>
      <trkpt lat="44.33995" lon="5.63516">
        <ele>1151.8</ele>
        <time>2019-09-05T09:43:43Z</time>
      </trkpt>
      <trkpt lat="44.33986" lon="5.63501">
        <ele>1151.8</ele>
        <time>2019-09-05T09:44:00Z</time>
      </trkpt>
      <trkpt lat="44.33977" lon="5.63483">
        <ele>1151.8</ele>
        <time>2019-09-05T09:44:16Z</time>
      </trkpt>
      <trkpt lat="44.33975" lon="5.6347">
        <ele>1153.72</ele>
        <time>2019-09-05T09:44:31Z</time>
      </trkpt>
      <trkpt lat="44.33975" lon="5.63461">
        <ele>1154.2</ele>
        <time>2019-09-05T09:44:41Z</time>
      </trkpt>
      <trkpt lat="44.33977" lon="5.63446">
        <ele>1154.68</ele>
        <time>2019-09-05T09:44:56Z</time>
      </trkpt>
      <trkpt lat="44.3398" lon="5.63429">
        <ele>1155.64</ele>
        <time>2019-09-05T09:45:12Z</time>
      </trkpt>
      <trkpt lat="44.33981" lon="5.63418">
        <ele>1157.56</ele>
        <time>2019-09-05T09:45:26Z</time>
      </trkpt>
      <trkpt lat="44.33981" lon="5.63412">
        <ele>1158.05</ele>
        <time>2019-09-05T09:45:39Z</time>
      </trkpt>
      <trkpt lat="44.33981" lon="5.63401">
        <ele>1159.49</ele>
        <time>2019-09-05T09:45:53Z</time>
      </trkpt>
      <trkpt lat="44.3398" lon="5.6339">
        <ele>1161.41</ele>
        <time>2019-09-05T09:46:07Z</time>
      </trkpt>
      <trkpt lat="44.33979" lon="5.63377">
        <ele>1163.33</ele>
        <time>2019-09-05T09:46:23Z</time>
      </trkpt>
      <trkpt lat="44.33974" lon="5.6337">
        <ele>1164.77</ele>
        <time>2019-09-05T09:46:38Z</time>
      </trkpt>
      <trkpt lat="44.33971" lon="5.63368">
        <ele>1165.26</ele>
        <time>2019-09-05T09:46:43Z</time>
      </trkpt>
      <trkpt lat="44.33962" lon="5.63359">
        <ele>1166.22</ele>
        <time>2019-09-05T09:46:59Z</time>
      </trkpt>
      <trkpt lat="44.33958" lon="5.63351">
        <ele>1167.18</ele>
        <time>2019-09-05T09:47:11Z</time>
      </trkpt>
      <trkpt lat="44.33953" lon="5.63339">
        <ele>1167.18</ele>
        <time>2019-09-05T09:47:26Z</time>
      </trkpt>
      <trkpt lat="44.33947" lon="5.63329">
        <ele>1166.7</ele>
        <time>2019-09-05T09:47:40Z</time>
      </trkpt>
      <trkpt lat="44.33943" lon="5.63323">
        <ele>1165.74</ele>
        <time>2019-09-05T09:47:55Z</time>
      </trkpt>
      <trkpt lat="44.33942" lon="5.63322">
        <ele>1165.74</ele>
        <time>2019-09-05T09:47:57Z</time>
      </trkpt>
      <trkpt lat="44.33932" lon="5.6331">
        <ele>1164.77</ele>
        <time>2019-09-05T09:48:12Z</time>
      </trkpt>
      <trkpt lat="44.33923" lon="5.63301">
        <ele>1165.26</ele>
        <time>2019-09-05T09:48:26Z</time>
      </trkpt>
      <trkpt lat="44.33912" lon="5.63289">
        <ele>1165.74</ele>
        <time>2019-09-05T09:48:41Z</time>
      </trkpt>
      <trkpt lat="44.339" lon="5.63276">
        <ele>1166.22</ele>
        <time>2019-09-05T09:48:57Z</time>
      </trkpt>
      <trkpt lat="44.33893" lon="5.63263">
        <ele>1166.7</ele>
        <time>2019-09-05T09:49:09Z</time>
      </trkpt>
      <trkpt lat="44.33884" lon="5.63249">
        <ele>1166.7</ele>
        <time>2019-09-05T09:49:24Z</time>
      </trkpt>
      <trkpt lat="44.33872" lon="5.63228">
        <ele>1166.22</ele>
        <time>2019-09-05T09:49:42Z</time>
      </trkpt>
      <trkpt lat="44.33865" lon="5.63209">
        <ele>1167.18</ele>
        <time>2019-09-05T09:49:59Z</time>
      </trkpt>
      <trkpt lat="44.33857" lon="5.63197">
        <ele>1168.62</ele>
        <time>2019-09-05T09:50:13Z</time>
      </trkpt>
      <trkpt lat="44.3385" lon="5.6319">
        <ele>1169.58</ele>
        <time>2019-09-05T09:50:26Z</time>
      </trkpt>
      <trkpt lat="44.33841" lon="5.63174">
        <ele>1171.5</ele>
        <time>2019-09-05T09:50:45Z</time>
      </trkpt>
      <trkpt lat="44.33835" lon="5.63167">
        <ele>1172.95</ele>
        <time>2019-09-05T09:51:00Z</time>
      </trkpt>
      <trkpt lat="44.33828" lon="5.63156">
        <ele>1174.39</ele>
        <time>2019-09-05T09:51:16Z</time>
      </trkpt>
      <trkpt lat="44.33822" lon="5.63151">
        <ele>1176.31</ele>
        <time>2019-09-05T09:51:30Z</time>
      </trkpt>
      <trkpt lat="44.33817" lon="5.63143">
        <ele>1177.75</ele>
        <time>2019-09-05T09:51:42Z</time>
      </trkpt>
      <trkpt lat="44.33813" lon="5.63135">
        <ele>1178.71</ele>
        <time>2019-09-05T09:51:55Z</time>
      </trkpt>
      <trkpt lat="44.33812" lon="5.6313">
        <ele>1179.67</ele>
        <time>2019-09-05T09:52:09Z</time>
      </trkpt>
      <trkpt lat="44.33809" lon="5.63126">
        <ele>1180.64</ele>
        <time>2019-09-05T09:52:22Z</time>
      </trkpt>
      <trkpt lat="44.33807" lon="5.63129">
        <ele>1180.64</ele>
        <time>2019-09-05T09:52:37Z</time>
      </trkpt>
      <trkpt lat="44.33807" lon="5.63129">
        <ele>1180.16</ele>
        <time>2019-09-05T09:52:55Z</time>
      </trkpt>
      <trkpt lat="44.33806" lon="5.6313">
        <ele>1180.64</ele>
        <time>2019-09-05T09:53:18Z</time>
      </trkpt>
      <trkpt lat="44.33806" lon="5.63129">
        <ele>1180.16</ele>
        <time>2019-09-05T09:53:52Z</time>
      </trkpt>
      <trkpt lat="44.33806" lon="5.63129">
        <ele>1180.64</ele>
        <time>2019-09-05T09:54:25Z</time>
      </trkpt>
      <trkpt lat="44.33806" lon="5.63131">
        <ele>1180.16</ele>
        <time>2019-09-05T09:54:46Z</time>
      </trkpt>
      <trkpt lat="44.33808" lon="5.6313">
        <ele>1179.19</ele>
        <time>2019-09-05T09:55:07Z</time>
      </trkpt>
      <trkpt lat="44.33809" lon="5.63127">
        <ele>1179.19</ele>
        <time>2019-09-05T09:55:38Z</time>
      </trkpt>
      <trkpt lat="44.3381" lon="5.63131">
        <ele>1179.67</ele>
        <time>2019-09-05T09:56:00Z</time>
      </trkpt>
      <trkpt lat="44.33811" lon="5.63131">
        <ele>1178.71</ele>
        <time>2019-09-05T09:56:24Z</time>
      </trkpt>
      <trkpt lat="44.33812" lon="5.63131">
        <ele>1178.71</ele>
        <time>2019-09-05T09:56:44Z</time>
      </trkpt>
      <trkpt lat="44.33811" lon="5.6313">
        <ele>1179.19</ele>
        <time>2019-09-05T09:57:06Z</time>
      </trkpt>
      <trkpt lat="44.33811" lon="5.6313">
        <ele>1179.67</ele>
        <time>2019-09-05T09:57:35Z</time>
      </trkpt>
      <trkpt lat="44.33811" lon="5.63129">
        <ele>1180.16</ele>
        <time>2019-09-05T09:57:49Z</time>
      </trkpt>
      <trkpt lat="44.33811" lon="5.6313">
        <ele>1179.19</ele>
        <time>2019-09-05T09:58:10Z</time>
      </trkpt>
      <trkpt lat="44.33813" lon="5.6313">
        <ele>1180.16</ele>
        <time>2019-09-05T09:58:26Z</time>
      </trkpt>
      <trkpt lat="44.33814" lon="5.6313">
        <ele>1179.19</ele>
        <time>2019-09-05T09:58:38Z</time>
      </trkpt>
      <trkpt lat="44.33814" lon="5.63129">
        <ele>1178.71</ele>
        <time>2019-09-05T09:58:57Z</time>
      </trkpt>
      <trkpt lat="44.33813" lon="5.63133">
        <ele>1178.71</ele>
        <time>2019-09-05T09:59:17Z</time>
      </trkpt>
      <trkpt lat="44.33813" lon="5.63138">
        <ele>1179.19</ele>
        <time>2019-09-05T09:59:31Z</time>
      </trkpt>
      <trkpt lat="44.33814" lon="5.6314">
        <ele>1179.19</ele>
        <time>2019-09-05T09:59:58Z</time>
      </trkpt>
      <trkpt lat="44.33813" lon="5.63137">
        <ele>1178.23</ele>
        <time>2019-09-05T10:00:20Z</time>
      </trkpt>
      <trkpt lat="44.33813" lon="5.63139">
        <ele>1179.19</ele>
        <time>2019-09-05T10:00:38Z</time>
      </trkpt>
      <trkpt lat="44.33813" lon="5.63139">
        <ele>1179.19</ele>
        <time>2019-09-05T10:00:39Z</time>
      </trkpt>
      <trkpt lat="44.33813" lon="5.63141">
        <ele>1179.67</ele>
        <time>2019-09-05T10:01:04Z</time>
      </trkpt>
      <trkpt lat="44.33817" lon="5.63146">
        <ele>1177.75</ele>
        <time>2019-09-05T10:01:18Z</time>
      </trkpt>
      <trkpt lat="44.33819" lon="5.63148">
        <ele>1177.75</ele>
        <time>2019-09-05T10:01:32Z</time>
      </trkpt>
      <trkpt lat="44.33822" lon="5.63153">
        <ele>1176.31</ele>
        <time>2019-09-05T10:01:47Z</time>
      </trkpt>
      <trkpt lat="44.33827" lon="5.63157">
        <ele>1175.35</ele>
        <time>2019-09-05T10:02:01Z</time>
      </trkpt>
      <trkpt lat="44.33833" lon="5.63164">
        <ele>1174.39</ele>
        <time>2019-09-05T10:02:14Z</time>
      </trkpt>
      <trkpt lat="44.33838" lon="5.63174">
        <ele>1172.95</ele>
        <time>2019-09-05T10:02:25Z</time>
      </trkpt>
      <trkpt lat="44.33841" lon="5.63179">
        <ele>1171.02</ele>
        <time>2019-09-05T10:02:31Z</time>
      </trkpt>
      <trkpt lat="44.33845" lon="5.63184">
        <ele>1171.02</ele>
        <time>2019-09-05T10:02:47Z</time>
      </trkpt>
      <trkpt lat="44.33848" lon="5.6319">
        <ele>1170.54</ele>
        <time>2019-09-05T10:03:02Z</time>
      </trkpt>
      <trkpt lat="44.33848" lon="5.6319">
        <ele>1170.54</ele>
        <time>2019-09-05T10:03:25Z</time>
      </trkpt>
      <trkpt lat="44.33853" lon="5.63198">
        <ele>1169.58</ele>
        <time>2019-09-05T10:03:37Z</time>
      </trkpt>
      <trkpt lat="44.33861" lon="5.63205">
        <ele>1168.14</ele>
        <time>2019-09-05T10:03:51Z</time>
      </trkpt>
      <trkpt lat="44.33863" lon="5.63213">
        <ele>1167.18</ele>
        <time>2019-09-05T10:03:57Z</time>
      </trkpt>
      <trkpt lat="44.33871" lon="5.63231">
        <ele>1167.18</ele>
        <time>2019-09-05T10:04:13Z</time>
      </trkpt>
      <trkpt lat="44.33881" lon="5.63246">
        <ele>1166.7</ele>
        <time>2019-09-05T10:04:27Z</time>
      </trkpt>
      <trkpt lat="44.33892" lon="5.63264">
        <ele>1166.7</ele>
        <time>2019-09-05T10:04:43Z</time>
      </trkpt>
      <trkpt lat="44.33893" lon="5.63265">
        <ele>1166.22</ele>
        <time>2019-09-05T10:04:44Z</time>
      </trkpt>
      <trkpt lat="44.33895" lon="5.63266">
        <ele>1166.7</ele>
        <time>2019-09-05T10:04:46Z</time>
      </trkpt>
      <trkpt lat="44.33906" lon="5.63288">
        <ele>1165.74</ele>
        <time>2019-09-05T10:05:04Z</time>
      </trkpt>
      <trkpt lat="44.33918" lon="5.633">
        <ele>1165.74</ele>
        <time>2019-09-05T10:05:19Z</time>
      </trkpt>
      <trkpt lat="44.33932" lon="5.63314">
        <ele>1164.77</ele>
        <time>2019-09-05T10:05:37Z</time>
      </trkpt>
      <trkpt lat="44.33942" lon="5.63324">
        <ele>1165.26</ele>
        <time>2019-09-05T10:05:50Z</time>
      </trkpt>
      <trkpt lat="44.33943" lon="5.63327">
        <ele>1166.22</ele>
        <time>2019-09-05T10:05:53Z</time>
      </trkpt>
      <trkpt lat="44.33945" lon="5.63328">
        <ele>1166.22</ele>
        <time>2019-09-05T10:05:55Z</time>
      </trkpt>
      <trkpt lat="44.33953" lon="5.63344">
        <ele>1166.7</ele>
        <time>2019-09-05T10:06:11Z</time>
      </trkpt>
      <trkpt lat="44.3396" lon="5.63357">
        <ele>1166.7</ele>
        <time>2019-09-05T10:06:25Z</time>
      </trkpt>
      <trkpt lat="44.33972" lon="5.63371">
        <ele>1165.26</ele>
        <time>2019-09-05T10:06:41Z</time>
      </trkpt>
      <trkpt lat="44.33982" lon="5.63376">
        <ele>1164.29</ele>
        <time>2019-09-05T10:06:56Z</time>
      </trkpt>
      <trkpt lat="44.33986" lon="5.63379">
        <ele>1164.29</ele>
        <time>2019-09-05T10:07:09Z</time>
      </trkpt>
      <trkpt lat="44.33991" lon="5.63381">
        <ele>1164.77</ele>
        <time>2019-09-05T10:07:23Z</time>
      </trkpt>
      <trkpt lat="44.33991" lon="5.63382">
        <ele>1165.26</ele>
        <time>2019-09-05T10:07:39Z</time>
      </trkpt>
      <trkpt lat="44.33991" lon="5.63378">
        <ele>1164.29</ele>
        <time>2019-09-05T10:07:57Z</time>
      </trkpt>
      <trkpt lat="44.33994" lon="5.63374">
        <ele>1163.81</ele>
        <time>2019-09-05T10:08:09Z</time>
      </trkpt>
      <trkpt lat="44.33994" lon="5.63374">
        <ele>1163.33</ele>
        <time>2019-09-05T10:08:21Z</time>
      </trkpt>
      <trkpt lat="44.33994" lon="5.63375">
        <ele>1163.33</ele>
        <time>2019-09-05T10:08:57Z</time>
      </trkpt>
      <trkpt lat="44.33996" lon="5.63376">
        <ele>1163.81</ele>
        <time>2019-09-05T10:09:25Z</time>
      </trkpt>
      <trkpt lat="44.33996" lon="5.63377">
        <ele>1163.81</ele>
        <time>2019-09-05T10:10:09Z</time>
      </trkpt>
      <trkpt lat="44.33995" lon="5.63377">
        <ele>1164.29</ele>
        <time>2019-09-05T10:10:39Z</time>
      </trkpt>
      <trkpt lat="44.33996" lon="5.63376">
        <ele>1163.81</ele>
        <time>2019-09-05T10:11:11Z</time>
      </trkpt>
      <trkpt lat="44.33997" lon="5.63376">
        <ele>1164.29</ele>
        <time>2019-09-05T10:11:43Z</time>
      </trkpt>
      <trkpt lat="44.33996" lon="5.63378">
        <ele>1163.81</ele>
        <time>2019-09-05T10:12:18Z</time>
      </trkpt>
      <trkpt lat="44.33996" lon="5.63378">
        <ele>1164.29</ele>
        <time>2019-09-05T10:13:01Z</time>
      </trkpt>
      <trkpt lat="44.33998" lon="5.63377">
        <ele>1164.77</ele>
        <time>2019-09-05T10:13:31Z</time>
      </trkpt>
      <trkpt lat="44.33998" lon="5.63377">
        <ele>1164.77</ele>
        <time>2019-09-05T10:14:00Z</time>
      </trkpt>
      <trkpt lat="44.33998" lon="5.63375">
        <ele>1164.77</ele>
        <time>2019-09-05T10:14:34Z</time>
      </trkpt>
      <trkpt lat="44.33997" lon="5.63376">
        <ele>1165.26</ele>
        <time>2019-09-05T10:15:01Z</time>
      </trkpt>
      <trkpt lat="44.33998" lon="5.63376">
        <ele>1164.77</ele>
        <time>2019-09-05T10:15:29Z</time>
      </trkpt>
      <trkpt lat="44.33998" lon="5.63375">
        <ele>1164.77</ele>
        <time>2019-09-05T10:16:13Z</time>
      </trkpt>
      <trkpt lat="44.33997" lon="5.63374">
        <ele>1164.77</ele>
        <time>2019-09-05T10:16:45Z</time>
      </trkpt>
      <trkpt lat="44.33996" lon="5.63375">
        <ele>1164.77</ele>
        <time>2019-09-05T10:17:27Z</time>
      </trkpt>
      <trkpt lat="44.33996" lon="5.63375">
        <ele>1164.77</ele>
        <time>2019-09-05T10:18:07Z</time>
      </trkpt>
      <trkpt lat="44.33997" lon="5.63375">
        <ele>1165.26</ele>
        <time>2019-09-05T10:18:52Z</time>
      </trkpt>
      <trkpt lat="44.33997" lon="5.63376">
        <ele>1164.77</ele>
        <time>2019-09-05T10:19:38Z</time>
      </trkpt>
      <trkpt lat="44.33997" lon="5.63376">
        <ele>1164.77</ele>
        <time>2019-09-05T10:20:18Z</time>
      </trkpt>
      <trkpt lat="44.33998" lon="5.63375">
        <ele>1165.26</ele>
        <time>2019-09-05T10:20:58Z</time>
      </trkpt>
      <trkpt lat="44.33998" lon="5.63375">
        <ele>1164.29</ele>
        <time>2019-09-05T10:21:29Z</time>
      </trkpt>
      <trkpt lat="44.33998" lon="5.63376">
        <ele>1164.77</ele>
        <time>2019-09-05T10:22:11Z</time>
      </trkpt>
      <trkpt lat="44.33998" lon="5.63375">
        <ele>1164.29</ele>
        <time>2019-09-05T10:22:42Z</time>
      </trkpt>
      <trkpt lat="44.33998" lon="5.63377">
        <ele>1163.81</ele>
        <time>2019-09-05T10:23:27Z</time>
      </trkpt>
      <trkpt lat="44.33997" lon="5.63375">
        <ele>1164.29</ele>
        <time>2019-09-05T10:24:04Z</time>
      </trkpt>
      <trkpt lat="44.33998" lon="5.63376">
        <ele>1164.29</ele>
        <time>2019-09-05T10:24:36Z</time>
      </trkpt>
      <trkpt lat="44.33998" lon="5.63375">
        <ele>1164.29</ele>
        <time>2019-09-05T10:25:08Z</time>
      </trkpt>
      <trkpt lat="44.33998" lon="5.63374">
        <ele>1164.77</ele>
        <time>2019-09-05T10:25:38Z</time>
      </trkpt>
      <trkpt lat="44.33999" lon="5.63376">
        <ele>1164.29</ele>
        <time>2019-09-05T10:26:10Z</time>
      </trkpt>
      <trkpt lat="44.33998" lon="5.63375">
        <ele>1163.81</ele>
        <time>2019-09-05T10:26:45Z</time>
      </trkpt>
      <trkpt lat="44.33996" lon="5.63375">
        <ele>1163.81</ele>
        <time>2019-09-05T10:27:25Z</time>
      </trkpt>
      <trkpt lat="44.33998" lon="5.63375">
        <ele>1163.81</ele>
        <time>2019-09-05T10:27:49Z</time>
      </trkpt>
      <trkpt lat="44.33998" lon="5.63374">
        <ele>1164.29</ele>
        <time>2019-09-05T10:28:13Z</time>
      </trkpt>
      <trkpt lat="44.33998" lon="5.63375">
        <ele>1164.29</ele>
        <time>2019-09-05T10:28:38Z</time>
      </trkpt>
      <trkpt lat="44.33997" lon="5.63376">
        <ele>1164.77</ele>
        <time>2019-09-05T10:29:12Z</time>
      </trkpt>
      <trkpt lat="44.33999" lon="5.63377">
        <ele>1164.29</ele>
        <time>2019-09-05T10:29:33Z</time>
      </trkpt>
      <trkpt lat="44.33998" lon="5.63376">
        <ele>1164.29</ele>
        <time>2019-09-05T10:29:56Z</time>
      </trkpt>
      <trkpt lat="44.33998" lon="5.63375">
        <ele>1164.29</ele>
        <time>2019-09-05T10:30:26Z</time>
      </trkpt>
      <trkpt lat="44.33998" lon="5.63376">
        <ele>1164.29</ele>
        <time>2019-09-05T10:31:01Z</time>
      </trkpt>
      <trkpt lat="44.33998" lon="5.63376">
        <ele>1164.29</ele>
        <time>2019-09-05T10:31:29Z</time>
      </trkpt>
      <trkpt lat="44.33998" lon="5.63376">
        <ele>1164.77</ele>
        <time>2019-09-05T10:31:52Z</time>
      </trkpt>
      <trkpt lat="44.33999" lon="5.63377">
        <ele>1164.77</ele>
        <time>2019-09-05T10:32:18Z</time>
      </trkpt>
      <trkpt lat="44.33998" lon="5.63376">
        <ele>1164.29</ele>
        <time>2019-09-05T10:32:44Z</time>
      </trkpt>
      <trkpt lat="44.33998" lon="5.63375">
        <ele>1164.29</ele>
        <time>2019-09-05T10:33:00Z</time>
      </trkpt>
      <trkpt lat="44.33997" lon="5.63376">
        <ele>1164.29</ele>
        <time>2019-09-05T10:33:28Z</time>
      </trkpt>
      <trkpt lat="44.33997" lon="5.63376">
        <ele>1164.29</ele>
        <time>2019-09-05T10:33:51Z</time>
      </trkpt>
      <trkpt lat="44.33996" lon="5.63375">
        <ele>1164.29</ele>
        <time>2019-09-05T10:34:13Z</time>
      </trkpt>
      <trkpt lat="44.33997" lon="5.63375">
        <ele>1164.29</ele>
        <time>2019-09-05T10:34:49Z</time>
      </trkpt>
      <trkpt lat="44.33996" lon="5.63376">
        <ele>1164.29</ele>
        <time>2019-09-05T10:35:16Z</time>
      </trkpt>
      <trkpt lat="44.33997" lon="5.63377">
        <ele>1164.29</ele>
        <time>2019-09-05T10:35:47Z</time>
      </trkpt>
      <trkpt lat="44.33996" lon="5.63376">
        <ele>1164.29</ele>
        <time>2019-09-05T10:36:02Z</time>
      </trkpt>
      <trkpt lat="44.33995" lon="5.63375">
        <ele>1164.29</ele>
        <time>2019-09-05T10:36:33Z</time>
      </trkpt>
      <trkpt lat="44.33994" lon="5.63374">
        <ele>1164.77</ele>
        <time>2019-09-05T10:37:02Z</time>
      </trkpt>
      <trkpt lat="44.33993" lon="5.63374">
        <ele>1164.29</ele>
        <time>2019-09-05T10:37:28Z</time>
      </trkpt>
      <trkpt lat="44.33992" lon="5.63375">
        <ele>1164.29</ele>
        <time>2019-09-05T10:38:00Z</time>
      </trkpt>
      <trkpt lat="44.33992" lon="5.63375">
        <ele>1164.29</ele>
        <time>2019-09-05T10:38:31Z</time>
      </trkpt>
      <trkpt lat="44.33993" lon="5.63375">
        <ele>1164.29</ele>
        <time>2019-09-05T10:39:05Z</time>
      </trkpt>
      <trkpt lat="44.33995" lon="5.63376">
        <ele>1163.81</ele>
        <time>2019-09-05T10:39:30Z</time>
      </trkpt>
      <trkpt lat="44.33996" lon="5.63375">
        <ele>1164.29</ele>
        <time>2019-09-05T10:39:58Z</time>
      </trkpt>
      <trkpt lat="44.33995" lon="5.63374">
        <ele>1163.81</ele>
        <time>2019-09-05T10:40:34Z</time>
      </trkpt>
      <trkpt lat="44.33994" lon="5.63375">
        <ele>1164.77</ele>
        <time>2019-09-05T10:41:15Z</time>
      </trkpt>
      <trkpt lat="44.33993" lon="5.63376">
        <ele>1164.77</ele>
        <time>2019-09-05T10:41:46Z</time>
      </trkpt>
      <trkpt lat="44.33994" lon="5.63374">
        <ele>1164.29</ele>
        <time>2019-09-05T10:42:12Z</time>
      </trkpt>
      <trkpt lat="44.33995" lon="5.63373">
        <ele>1163.81</ele>
        <time>2019-09-05T10:42:40Z</time>
      </trkpt>
      <trkpt lat="44.33995" lon="5.63375">
        <ele>1163.81</ele>
        <time>2019-09-05T10:43:08Z</time>
      </trkpt>
      <trkpt lat="44.33995" lon="5.63374">
        <ele>1164.29</ele>
        <time>2019-09-05T10:43:33Z</time>
      </trkpt>
      <trkpt lat="44.33997" lon="5.63373">
        <ele>1162.85</ele>
        <time>2019-09-05T10:43:51Z</time>
      </trkpt>
      <trkpt lat="44.33995" lon="5.63374">
        <ele>1163.33</ele>
        <time>2019-09-05T10:44:08Z</time>
      </trkpt>
      <trkpt lat="44.33996" lon="5.63375">
        <ele>1162.85</ele>
        <time>2019-09-05T10:44:46Z</time>
      </trkpt>
      <trkpt lat="44.33997" lon="5.63374">
        <ele>1162.37</ele>
        <time>2019-09-05T10:45:24Z</time>
      </trkpt>
      <trkpt lat="44.33995" lon="5.63376">
        <ele>1162.37</ele>
        <time>2019-09-05T10:46:04Z</time>
      </trkpt>
      <trkpt lat="44.33996" lon="5.63374">
        <ele>1162.37</ele>
        <time>2019-09-05T10:46:42Z</time>
      </trkpt>
      <trkpt lat="44.33995" lon="5.63374">
        <ele>1162.37</ele>
        <time>2019-09-05T10:47:22Z</time>
      </trkpt>
      <trkpt lat="44.33996" lon="5.63375">
        <ele>1162.85</ele>
        <time>2019-09-05T10:47:58Z</time>
      </trkpt>
      <trkpt lat="44.33996" lon="5.63375">
        <ele>1163.33</ele>
        <time>2019-09-05T10:48:41Z</time>
      </trkpt>
      <trkpt lat="44.33995" lon="5.63375">
        <ele>1162.85</ele>
        <time>2019-09-05T10:49:23Z</time>
      </trkpt>
      <trkpt lat="44.33995" lon="5.63376">
        <ele>1162.37</ele>
        <time>2019-09-05T10:49:59Z</time>
      </trkpt>
      <trkpt lat="44.33994" lon="5.63376">
        <ele>1162.37</ele>
        <time>2019-09-05T10:50:33Z</time>
      </trkpt>
      <trkpt lat="44.33994" lon="5.63377">
        <ele>1162.85</ele>
        <time>2019-09-05T10:51:10Z</time>
      </trkpt>
      <trkpt lat="44.33994" lon="5.63376">
        <ele>1162.85</ele>
        <time>2019-09-05T10:51:49Z</time>
      </trkpt>
      <trkpt lat="44.33994" lon="5.63376">
        <ele>1163.33</ele>
        <time>2019-09-05T10:52:27Z</time>
      </trkpt>
      <trkpt lat="44.33993" lon="5.63377">
        <ele>1163.33</ele>
        <time>2019-09-05T10:53:04Z</time>
      </trkpt>
      <trkpt lat="44.33994" lon="5.63379">
        <ele>1163.81</ele>
        <time>2019-09-05T10:53:44Z</time>
      </trkpt>
      <trkpt lat="44.33998" lon="5.63374">
        <ele>1163.81</ele>
        <time>2019-09-05T10:54:21Z</time>
      </trkpt>
      <trkpt lat="44.33997" lon="5.63374">
        <ele>1163.81</ele>
        <time>2019-09-05T10:54:51Z</time>
      </trkpt>
      <trkpt lat="44.33999" lon="5.63375">
        <ele>1163.33</ele>
        <time>2019-09-05T10:55:32Z</time>
      </trkpt>
      <trkpt lat="44.33997" lon="5.63376">
        <ele>1164.29</ele>
        <time>2019-09-05T10:56:08Z</time>
      </trkpt>
      <trkpt lat="44.33997" lon="5.63374">
        <ele>1163.33</ele>
        <time>2019-09-05T10:56:49Z</time>
      </trkpt>
      <trkpt lat="44.33998" lon="5.63375">
        <ele>1163.81</ele>
        <time>2019-09-05T10:57:34Z</time>
      </trkpt>
      <trkpt lat="44.33997" lon="5.63375">
        <ele>1163.81</ele>
        <time>2019-09-05T10:58:25Z</time>
      </trkpt>
      <trkpt lat="44.33997" lon="5.63374">
        <ele>1164.29</ele>
        <time>2019-09-05T10:59:07Z</time>
      </trkpt>
      <trkpt lat="44.33999" lon="5.63377">
        <ele>1163.81</ele>
        <time>2019-09-05T10:59:41Z</time>
      </trkpt>
      <trkpt lat="44.33997" lon="5.63376">
        <ele>1163.81</ele>
        <time>2019-09-05T11:00:23Z</time>
      </trkpt>
      <trkpt lat="44.33997" lon="5.63371">
        <ele>1163.81</ele>
        <time>2019-09-05T11:00:57Z</time>
      </trkpt>
      <trkpt lat="44.33998" lon="5.63372">
        <ele>1163.81</ele>
        <time>2019-09-05T11:01:25Z</time>
      </trkpt>
      <trkpt lat="44.33997" lon="5.63371">
        <ele>1164.29</ele>
        <time>2019-09-05T11:02:00Z</time>
      </trkpt>
      <trkpt lat="44.33996" lon="5.63372">
        <ele>1163.81</ele>
        <time>2019-09-05T11:02:31Z</time>
      </trkpt>
      <trkpt lat="44.33998" lon="5.63374">
        <ele>1164.29</ele>
        <time>2019-09-05T11:02:59Z</time>
      </trkpt>
      <trkpt lat="44.33997" lon="5.63372">
        <ele>1164.29</ele>
        <time>2019-09-05T11:03:31Z</time>
      </trkpt>
      <trkpt lat="44.33999" lon="5.63375">
        <ele>1164.29</ele>
        <time>2019-09-05T11:04:08Z</time>
      </trkpt>
      <trkpt lat="44.33999" lon="5.63371">
        <ele>1163.81</ele>
        <time>2019-09-05T11:04:28Z</time>
      </trkpt>
      <trkpt lat="44.33998" lon="5.63371">
        <ele>1163.81</ele>
        <time>2019-09-05T11:04:29Z</time>
      </trkpt>
      <trkpt lat="44.34" lon="5.63372">
        <ele>1165.26</ele>
        <time>2019-09-05T11:04:32Z</time>
      </trkpt>
      <trkpt lat="44.33999" lon="5.63375">
        <ele>1165.26</ele>
        <time>2019-09-05T11:04:47Z</time>
      </trkpt>
      <trkpt lat="44.33996" lon="5.63375">
        <ele>1165.74</ele>
        <time>2019-09-05T11:05:09Z</time>
      </trkpt>
      <trkpt lat="44.33998" lon="5.63371">
        <ele>1165.26</ele>
        <time>2019-09-05T11:05:28Z</time>
      </trkpt>
      <trkpt lat="44.33998" lon="5.63371">
        <ele>1165.74</ele>
        <time>2019-09-05T11:05:46Z</time>
      </trkpt>
      <trkpt lat="44.34" lon="5.6337">
        <ele>1164.77</ele>
        <time>2019-09-05T11:06:08Z</time>
      </trkpt>
      <trkpt lat="44.33999" lon="5.6337">
        <ele>1165.26</ele>
        <time>2019-09-05T11:06:27Z</time>
      </trkpt>
      <trkpt lat="44.34" lon="5.63368">
        <ele>1164.29</ele>
        <time>2019-09-05T11:06:47Z</time>
      </trkpt>
      <trkpt lat="44.34" lon="5.63365">
        <ele>1164.29</ele>
        <time>2019-09-05T11:06:59Z</time>
      </trkpt>
      <trkpt lat="44.34003" lon="5.63361">
        <ele>1162.85</ele>
        <time>2019-09-05T11:07:11Z</time>
      </trkpt>
      <trkpt lat="44.34013" lon="5.6335">
        <ele>1160.45</ele>
        <time>2019-09-05T11:07:27Z</time>
      </trkpt>
      <trkpt lat="44.34018" lon="5.63345">
        <ele>1159.97</ele>
        <time>2019-09-05T11:07:41Z</time>
      </trkpt>
      <trkpt lat="44.34025" lon="5.63341">
        <ele>1159.01</ele>
        <time>2019-09-05T11:07:54Z</time>
      </trkpt>
      <trkpt lat="44.34034" lon="5.63337">
        <ele>1157.08</ele>
        <time>2019-09-05T11:08:09Z</time>
      </trkpt>
      <trkpt lat="44.3404" lon="5.63333">
        <ele>1156.12</ele>
        <time>2019-09-05T11:08:21Z</time>
      </trkpt>
      <trkpt lat="44.34049" lon="5.63329">
        <ele>1153.72</ele>
        <time>2019-09-05T11:08:35Z</time>
      </trkpt>
      <trkpt lat="44.34058" lon="5.63323">
        <ele>1151.32</ele>
        <time>2019-09-05T11:08:51Z</time>
      </trkpt>
      <trkpt lat="44.34066" lon="5.63322">
        <ele>1149.87</ele>
        <time>2019-09-05T11:09:07Z</time>
      </trkpt>
      <trkpt lat="44.34074" lon="5.63325">
        <ele>1147.95</ele>
        <time>2019-09-05T11:09:20Z</time>
      </trkpt>
      <trkpt lat="44.3408" lon="5.63319">
        <ele>1146.03</ele>
        <time>2019-09-05T11:09:33Z</time>
      </trkpt>
      <trkpt lat="44.34086" lon="5.63309">
        <ele>1145.07</ele>
        <time>2019-09-05T11:09:46Z</time>
      </trkpt>
      <trkpt lat="44.34092" lon="5.633">
        <ele>1143.14</ele>
        <time>2019-09-05T11:10:00Z</time>
      </trkpt>
      <trkpt lat="44.34097" lon="5.63291">
        <ele>1141.22</ele>
        <time>2019-09-05T11:10:11Z</time>
      </trkpt>
      <trkpt lat="44.34102" lon="5.63285">
        <ele>1139.78</ele>
        <time>2019-09-05T11:10:24Z</time>
      </trkpt>
      <trkpt lat="44.34111" lon="5.6328">
        <ele>1138.34</ele>
        <time>2019-09-05T11:10:39Z</time>
      </trkpt>
      <trkpt lat="44.34118" lon="5.63272">
        <ele>1135.94</ele>
        <time>2019-09-05T11:10:54Z</time>
      </trkpt>
      <trkpt lat="44.34127" lon="5.63265">
        <ele>1134.01</ele>
        <time>2019-09-05T11:11:09Z</time>
      </trkpt>
      <trkpt lat="44.34135" lon="5.63258">
        <ele>1132.09</ele>
        <time>2019-09-05T11:11:21Z</time>
      </trkpt>
      <trkpt lat="44.34141" lon="5.63247">
        <ele>1129.69</ele>
        <time>2019-09-05T11:11:36Z</time>
      </trkpt>
      <trkpt lat="44.34148" lon="5.63237">
        <ele>1127.76</ele>
        <time>2019-09-05T11:11:49Z</time>
      </trkpt>
      <trkpt lat="44.34155" lon="5.63224">
        <ele>1124.4</ele>
        <time>2019-09-05T11:12:04Z</time>
      </trkpt>
      <trkpt lat="44.34161" lon="5.63212">
        <ele>1122.48</ele>
        <time>2019-09-05T11:12:18Z</time>
      </trkpt>
      <trkpt lat="44.34167" lon="5.63203">
        <ele>1121.03</ele>
        <time>2019-09-05T11:12:32Z</time>
      </trkpt>
      <trkpt lat="44.34172" lon="5.6319">
        <ele>1118.63</ele>
        <time>2019-09-05T11:12:48Z</time>
      </trkpt>
      <trkpt lat="44.34177" lon="5.6318">
        <ele>1116.23</ele>
        <time>2019-09-05T11:13:02Z</time>
      </trkpt>
      <trkpt lat="44.34183" lon="5.63169">
        <ele>1114.31</ele>
        <time>2019-09-05T11:13:17Z</time>
      </trkpt>
      <trkpt lat="44.34192" lon="5.63164">
        <ele>1112.86</ele>
        <time>2019-09-05T11:13:31Z</time>
      </trkpt>
      <trkpt lat="44.34198" lon="5.63152">
        <ele>1110.46</ele>
        <time>2019-09-05T11:13:47Z</time>
      </trkpt>
      <trkpt lat="44.34207" lon="5.63143">
        <ele>1109.02</ele>
        <time>2019-09-05T11:14:02Z</time>
      </trkpt>
      <trkpt lat="44.34215" lon="5.63134">
        <ele>1106.61</ele>
        <time>2019-09-05T11:14:16Z</time>
      </trkpt>
      <trkpt lat="44.34223" lon="5.63126">
        <ele>1104.69</ele>
        <time>2019-09-05T11:14:31Z</time>
      </trkpt>
      <trkpt lat="44.34229" lon="5.63119">
        <ele>1103.25</ele>
        <time>2019-09-05T11:14:43Z</time>
      </trkpt>
      <trkpt lat="44.34235" lon="5.63106">
        <ele>1101.33</ele>
        <time>2019-09-05T11:14:58Z</time>
      </trkpt>
      <trkpt lat="44.34243" lon="5.63097">
        <ele>1099.89</ele>
        <time>2019-09-05T11:15:12Z</time>
      </trkpt>
      <trkpt lat="44.34251" lon="5.6309">
        <ele>1097.96</ele>
        <time>2019-09-05T11:15:27Z</time>
      </trkpt>
      <trkpt lat="44.34267" lon="5.63086">
        <ele>1096.04</ele>
        <time>2019-09-05T11:15:47Z</time>
      </trkpt>
      <trkpt lat="44.34276" lon="5.63077">
        <ele>1094.12</ele>
        <time>2019-09-05T11:16:05Z</time>
      </trkpt>
      <trkpt lat="44.34285" lon="5.63069">
        <ele>1092.2</ele>
        <time>2019-09-05T11:16:20Z</time>
      </trkpt>
      <trkpt lat="44.34298" lon="5.63063">
        <ele>1090.75</ele>
        <time>2019-09-05T11:16:37Z</time>
      </trkpt>
      <trkpt lat="44.34302" lon="5.63068">
        <ele>1090.75</ele>
        <time>2019-09-05T11:16:56Z</time>
      </trkpt>
      <trkpt lat="44.34299" lon="5.63075">
        <ele>1091.23</ele>
        <time>2019-09-05T11:17:09Z</time>
      </trkpt>
      <trkpt lat="44.34297" lon="5.63085">
        <ele>1092.68</ele>
        <time>2019-09-05T11:17:22Z</time>
      </trkpt>
      <trkpt lat="44.34296" lon="5.63098">
        <ele>1093.64</ele>
        <time>2019-09-05T11:17:36Z</time>
      </trkpt>
      <trkpt lat="44.34295" lon="5.6311">
        <ele>1095.08</ele>
        <time>2019-09-05T11:17:50Z</time>
      </trkpt>
      <trkpt lat="44.34293" lon="5.63123">
        <ele>1096.04</ele>
        <time>2019-09-05T11:18:04Z</time>
      </trkpt>
      <trkpt lat="44.34289" lon="5.63137">
        <ele>1096.52</ele>
        <time>2019-09-05T11:18:17Z</time>
      </trkpt>
      <trkpt lat="44.34282" lon="5.63151">
        <ele>1097.96</ele>
        <time>2019-09-05T11:18:33Z</time>
      </trkpt>
      <trkpt lat="44.34272" lon="5.63161">
        <ele>1098.92</ele>
        <time>2019-09-05T11:18:49Z</time>
      </trkpt>
      <trkpt lat="44.34263" lon="5.6317">
        <ele>1099.89</ele>
        <time>2019-09-05T11:19:03Z</time>
      </trkpt>
      <trkpt lat="44.34256" lon="5.6318">
        <ele>1100.85</ele>
        <time>2019-09-05T11:19:17Z</time>
      </trkpt>
      <trkpt lat="44.34248" lon="5.63192">
        <ele>1101.33</ele>
        <time>2019-09-05T11:19:32Z</time>
      </trkpt>
      <trkpt lat="44.34243" lon="5.63209">
        <ele>1102.29</ele>
        <time>2019-09-05T11:19:48Z</time>
      </trkpt>
      <trkpt lat="44.34249" lon="5.6322">
        <ele>1103.25</ele>
        <time>2019-09-05T11:20:01Z</time>
      </trkpt>
      <trkpt lat="44.34259" lon="5.63231">
        <ele>1103.25</ele>
        <time>2019-09-05T11:20:16Z</time>
      </trkpt>
      <trkpt lat="44.34262" lon="5.63235">
        <ele>1103.25</ele>
        <time>2019-09-05T11:20:20Z</time>
      </trkpt>
      <trkpt lat="44.3427" lon="5.6325">
        <ele>1102.77</ele>
        <time>2019-09-05T11:20:37Z</time>
      </trkpt>
      <trkpt lat="44.34276" lon="5.63265">
        <ele>1103.25</ele>
        <time>2019-09-05T11:20:51Z</time>
      </trkpt>
      <trkpt lat="44.34276" lon="5.63281">
        <ele>1104.69</ele>
        <time>2019-09-05T11:21:05Z</time>
      </trkpt>
      <trkpt lat="44.34276" lon="5.63301">
        <ele>1104.21</ele>
        <time>2019-09-05T11:21:22Z</time>
      </trkpt>
      <trkpt lat="44.34283" lon="5.63319">
        <ele>1104.69</ele>
        <time>2019-09-05T11:21:38Z</time>
      </trkpt>
      <trkpt lat="44.34287" lon="5.63334">
        <ele>1106.13</ele>
        <time>2019-09-05T11:21:53Z</time>
      </trkpt>
      <trkpt lat="44.34288" lon="5.63334">
        <ele>1106.13</ele>
        <time>2019-09-05T11:22:10Z</time>
      </trkpt>
      <trkpt lat="44.34291" lon="5.63342">
        <ele>1106.61</ele>
        <time>2019-09-05T11:22:22Z</time>
      </trkpt>
      <trkpt lat="44.34294" lon="5.63355">
        <ele>1107.1</ele>
        <time>2019-09-05T11:22:37Z</time>
      </trkpt>
      <trkpt lat="44.34297" lon="5.63367">
        <ele>1107.1</ele>
        <time>2019-09-05T11:22:53Z</time>
      </trkpt>
      <trkpt lat="44.34301" lon="5.63381">
        <ele>1108.06</ele>
        <time>2019-09-05T11:23:08Z</time>
      </trkpt>
      <trkpt lat="44.34308" lon="5.63393">
        <ele>1109.02</ele>
        <time>2019-09-05T11:23:22Z</time>
      </trkpt>
      <trkpt lat="44.34315" lon="5.63408">
        <ele>1109.98</ele>
        <time>2019-09-05T11:23:39Z</time>
      </trkpt>
      <trkpt lat="44.34321" lon="5.63423">
        <ele>1109.98</ele>
        <time>2019-09-05T11:23:53Z</time>
      </trkpt>
      <trkpt lat="44.34324" lon="5.63442">
        <ele>1110.46</ele>
        <time>2019-09-05T11:24:10Z</time>
      </trkpt>
      <trkpt lat="44.34327" lon="5.63459">
        <ele>1110.46</ele>
        <time>2019-09-05T11:24:26Z</time>
      </trkpt>
      <trkpt lat="44.34332" lon="5.63475">
        <ele>1111.42</ele>
        <time>2019-09-05T11:24:42Z</time>
      </trkpt>
      <trkpt lat="44.34339" lon="5.63493">
        <ele>1111.9</ele>
        <time>2019-09-05T11:24:57Z</time>
      </trkpt>
      <trkpt lat="44.34346" lon="5.63499">
        <ele>1109.98</ele>
        <time>2019-09-05T11:25:10Z</time>
      </trkpt>
      <trkpt lat="44.34355" lon="5.63505">
        <ele>1107.1</ele>
        <time>2019-09-05T11:25:27Z</time>
      </trkpt>
      <trkpt lat="44.34363" lon="5.6351">
        <ele>1106.13</ele>
        <time>2019-09-05T11:25:41Z</time>
      </trkpt>
      <trkpt lat="44.34375" lon="5.63518">
        <ele>1105.17</ele>
        <time>2019-09-05T11:25:57Z</time>
      </trkpt>
      <trkpt lat="44.34383" lon="5.63529">
        <ele>1103.25</ele>
        <time>2019-09-05T11:26:11Z</time>
      </trkpt>
      <trkpt lat="44.34389" lon="5.63537">
        <ele>1101.81</ele>
        <time>2019-09-05T11:26:26Z</time>
      </trkpt>
      <trkpt lat="44.34397" lon="5.63548">
        <ele>1102.29</ele>
        <time>2019-09-05T11:26:42Z</time>
      </trkpt>
      <trkpt lat="44.34402" lon="5.63563">
        <ele>1099.89</ele>
        <time>2019-09-05T11:26:57Z</time>
      </trkpt>
      <trkpt lat="44.34406" lon="5.63579">
        <ele>1098.44</ele>
        <time>2019-09-05T11:27:11Z</time>
      </trkpt>
      <trkpt lat="44.34407" lon="5.63594">
        <ele>1097.48</ele>
        <time>2019-09-05T11:27:25Z</time>
      </trkpt>
      <trkpt lat="44.34409" lon="5.63611">
        <ele>1096.04</ele>
        <time>2019-09-05T11:27:40Z</time>
      </trkpt>
      <trkpt lat="44.3441" lon="5.63631">
        <ele>1094.12</ele>
        <time>2019-09-05T11:27:57Z</time>
      </trkpt>
      <trkpt lat="44.34409" lon="5.63649">
        <ele>1093.16</ele>
        <time>2019-09-05T11:28:13Z</time>
      </trkpt>
      <trkpt lat="44.34408" lon="5.63665">
        <ele>1091.23</ele>
        <time>2019-09-05T11:28:28Z</time>
      </trkpt>
      <trkpt lat="44.34407" lon="5.63681">
        <ele>1090.27</ele>
        <time>2019-09-05T11:28:41Z</time>
      </trkpt>
      <trkpt lat="44.34407" lon="5.63698">
        <ele>1089.79</ele>
        <time>2019-09-05T11:28:55Z</time>
      </trkpt>
      <trkpt lat="44.34406" lon="5.63718">
        <ele>1087.39</ele>
        <time>2019-09-05T11:29:12Z</time>
      </trkpt>
      <trkpt lat="44.34402" lon="5.63737">
        <ele>1086.43</ele>
        <time>2019-09-05T11:29:28Z</time>
      </trkpt>
      <trkpt lat="44.344" lon="5.63759">
        <ele>1085.47</ele>
        <time>2019-09-05T11:29:45Z</time>
      </trkpt>
      <trkpt lat="44.34398" lon="5.63773">
        <ele>1084.5</ele>
        <time>2019-09-05T11:29:58Z</time>
      </trkpt>
      <trkpt lat="44.34395" lon="5.63789">
        <ele>1084.02</ele>
        <time>2019-09-05T11:30:13Z</time>
      </trkpt>
      <trkpt lat="44.34395" lon="5.6381">
        <ele>1081.62</ele>
        <time>2019-09-05T11:30:32Z</time>
      </trkpt>
      <trkpt lat="44.34396" lon="5.63826">
        <ele>1081.62</ele>
        <time>2019-09-05T11:30:47Z</time>
      </trkpt>
      <trkpt lat="44.34403" lon="5.63828">
        <ele>1080.66</ele>
        <time>2019-09-05T11:30:59Z</time>
      </trkpt>
      <trkpt lat="44.34416" lon="5.63826">
        <ele>1081.14</ele>
        <time>2019-09-05T11:31:13Z</time>
      </trkpt>
      <trkpt lat="44.34424" lon="5.63828">
        <ele>1082.1</ele>
        <time>2019-09-05T11:31:25Z</time>
      </trkpt>
      <trkpt lat="44.34439" lon="5.63832">
        <ele>1081.14</ele>
        <time>2019-09-05T11:31:41Z</time>
      </trkpt>
      <trkpt lat="44.34454" lon="5.63844">
        <ele>1083.06</ele>
        <time>2019-09-05T11:31:59Z</time>
      </trkpt>
      <trkpt lat="44.34463" lon="5.63861">
        <ele>1084.5</ele>
        <time>2019-09-05T11:32:14Z</time>
      </trkpt>
      <trkpt lat="44.34469" lon="5.63872">
        <ele>1085.47</ele>
        <time>2019-09-05T11:32:29Z</time>
      </trkpt>
      <trkpt lat="44.34476" lon="5.63878">
        <ele>1084.5</ele>
        <time>2019-09-05T11:32:43Z</time>
      </trkpt>
      <trkpt lat="44.34486" lon="5.63879">
        <ele>1082.58</ele>
        <time>2019-09-05T11:32:58Z</time>
      </trkpt>
      <trkpt lat="44.34496" lon="5.63883">
        <ele>1080.66</ele>
        <time>2019-09-05T11:33:14Z</time>
      </trkpt>
      <trkpt lat="44.34505" lon="5.63883">
        <ele>1078.74</ele>
        <time>2019-09-05T11:33:27Z</time>
      </trkpt>
      <trkpt lat="44.34514" lon="5.63882">
        <ele>1076.81</ele>
        <time>2019-09-05T11:33:38Z</time>
      </trkpt>
      <trkpt lat="44.34522" lon="5.63883">
        <ele>1073.93</ele>
        <time>2019-09-05T11:33:52Z</time>
      </trkpt>
      <trkpt lat="44.34534" lon="5.63883">
        <ele>1071.05</ele>
        <time>2019-09-05T11:34:09Z</time>
      </trkpt>
      <trkpt lat="44.34546" lon="5.63887">
        <ele>1070.08</ele>
        <time>2019-09-05T11:34:24Z</time>
      </trkpt>
      <trkpt lat="44.34548" lon="5.63888">
        <ele>1070.08</ele>
        <time>2019-09-05T11:34:27Z</time>
      </trkpt>
      <trkpt lat="44.34562" lon="5.6389">
        <ele>1069.12</ele>
        <time>2019-09-05T11:34:41Z</time>
      </trkpt>
      <trkpt lat="44.34575" lon="5.63892">
        <ele>1069.6</ele>
        <time>2019-09-05T11:34:55Z</time>
      </trkpt>
      <trkpt lat="44.3459" lon="5.63893">
        <ele>1070.08</ele>
        <time>2019-09-05T11:35:09Z</time>
      </trkpt>
      <trkpt lat="44.34604" lon="5.63892">
        <ele>1069.6</ele>
        <time>2019-09-05T11:35:25Z</time>
      </trkpt>
      <trkpt lat="44.34614" lon="5.6389">
        <ele>1068.16</ele>
        <time>2019-09-05T11:35:41Z</time>
      </trkpt>
      <trkpt lat="44.34624" lon="5.63887">
        <ele>1066.24</ele>
        <time>2019-09-05T11:35:56Z</time>
      </trkpt>
      <trkpt lat="44.34625" lon="5.63891">
        <ele>1066.24</ele>
        <time>2019-09-05T11:36:14Z</time>
      </trkpt>
      <trkpt lat="44.34612" lon="5.63897">
        <ele>1068.16</ele>
        <time>2019-09-05T11:36:28Z</time>
      </trkpt>
      <trkpt lat="44.346" lon="5.639">
        <ele>1069.6</ele>
        <time>2019-09-05T11:36:43Z</time>
      </trkpt>
      <trkpt lat="44.34586" lon="5.63901">
        <ele>1069.6</ele>
        <time>2019-09-05T11:36:58Z</time>
      </trkpt>
      <trkpt lat="44.34589" lon="5.63899">
        <ele>1069.12</ele>
        <time>2019-09-05T11:37:12Z</time>
      </trkpt>
      <trkpt lat="44.34591" lon="5.63897">
        <ele>1069.6</ele>
        <time>2019-09-05T11:37:31Z</time>
      </trkpt>
      <trkpt lat="44.34588" lon="5.63896">
        <ele>1068.64</ele>
        <time>2019-09-05T11:37:45Z</time>
      </trkpt>
      <trkpt lat="44.34581" lon="5.63899">
        <ele>1069.6</ele>
        <time>2019-09-05T11:38:04Z</time>
      </trkpt>
      <trkpt lat="44.34569" lon="5.639">
        <ele>1069.12</ele>
        <time>2019-09-05T11:38:17Z</time>
      </trkpt>
      <trkpt lat="44.34555" lon="5.63901">
        <ele>1069.12</ele>
        <time>2019-09-05T11:38:34Z</time>
      </trkpt>
      <trkpt lat="44.34547" lon="5.63897">
        <ele>1071.05</ele>
        <time>2019-09-05T11:38:47Z</time>
      </trkpt>
      <trkpt lat="44.34535" lon="5.6389">
        <ele>1070.57</ele>
        <time>2019-09-05T11:39:01Z</time>
      </trkpt>
      <trkpt lat="44.34527" lon="5.63891">
        <ele>1073.45</ele>
        <time>2019-09-05T11:39:17Z</time>
      </trkpt>
      <trkpt lat="44.34517" lon="5.6389">
        <ele>1075.37</ele>
        <time>2019-09-05T11:39:29Z</time>
      </trkpt>
      <trkpt lat="44.34502" lon="5.63889">
        <ele>1077.78</ele>
        <time>2019-09-05T11:39:45Z</time>
      </trkpt>
      <trkpt lat="44.34495" lon="5.63885">
        <ele>1079.7</ele>
        <time>2019-09-05T11:39:58Z</time>
      </trkpt>
      <trkpt lat="44.34487" lon="5.6388">
        <ele>1081.14</ele>
        <time>2019-09-05T11:40:11Z</time>
      </trkpt>
      <trkpt lat="44.34478" lon="5.63875">
        <ele>1083.06</ele>
        <time>2019-09-05T11:40:23Z</time>
      </trkpt>
      <trkpt lat="44.34471" lon="5.63871">
        <ele>1084.99</ele>
        <time>2019-09-05T11:40:36Z</time>
      </trkpt>
      <trkpt lat="44.34463" lon="5.63858">
        <ele>1085.47</ele>
        <time>2019-09-05T11:40:53Z</time>
      </trkpt>
      <trkpt lat="44.34458" lon="5.63845">
        <ele>1084.02</ele>
        <time>2019-09-05T11:41:08Z</time>
      </trkpt>
      <trkpt lat="44.3445" lon="5.63836">
        <ele>1083.06</ele>
        <time>2019-09-05T11:41:22Z</time>
      </trkpt>
      <trkpt lat="44.34448" lon="5.63835">
        <ele>1082.58</ele>
        <time>2019-09-05T11:41:24Z</time>
      </trkpt>
      <trkpt lat="44.34435" lon="5.63831">
        <ele>1082.58</ele>
        <time>2019-09-05T11:41:39Z</time>
      </trkpt>
      <trkpt lat="44.34424" lon="5.6383">
        <ele>1083.54</ele>
        <time>2019-09-05T11:41:52Z</time>
      </trkpt>
      <trkpt lat="44.34413" lon="5.63829">
        <ele>1083.06</ele>
        <time>2019-09-05T11:42:05Z</time>
      </trkpt>
      <trkpt lat="44.34403" lon="5.63832">
        <ele>1082.1</ele>
        <time>2019-09-05T11:42:18Z</time>
      </trkpt>
      <trkpt lat="44.34395" lon="5.63821">
        <ele>1084.02</ele>
        <time>2019-09-05T11:42:32Z</time>
      </trkpt>
      <trkpt lat="44.34395" lon="5.63806">
        <ele>1084.5</ele>
        <time>2019-09-05T11:42:46Z</time>
      </trkpt>
      <trkpt lat="44.34394" lon="5.63791">
        <ele>1084.99</ele>
        <time>2019-09-05T11:43:00Z</time>
      </trkpt>
      <trkpt lat="44.34396" lon="5.63771">
        <ele>1086.43</ele>
        <time>2019-09-05T11:43:14Z</time>
      </trkpt>
      <trkpt lat="44.344" lon="5.63759">
        <ele>1086.43</ele>
        <time>2019-09-05T11:43:26Z</time>
      </trkpt>
      <trkpt lat="44.34403" lon="5.63743">
        <ele>1087.87</ele>
        <time>2019-09-05T11:43:40Z</time>
      </trkpt>
      <trkpt lat="44.34404" lon="5.63729">
        <ele>1089.31</ele>
        <time>2019-09-05T11:43:53Z</time>
      </trkpt>
      <trkpt lat="44.34406" lon="5.63713">
        <ele>1089.31</ele>
        <time>2019-09-05T11:44:06Z</time>
      </trkpt>
      <trkpt lat="44.34409" lon="5.63698">
        <ele>1090.27</ele>
        <time>2019-09-05T11:44:20Z</time>
      </trkpt>
      <trkpt lat="44.34408" lon="5.63684">
        <ele>1091.23</ele>
        <time>2019-09-05T11:44:32Z</time>
      </trkpt>
      <trkpt lat="44.34409" lon="5.63671">
        <ele>1091.71</ele>
        <time>2019-09-05T11:44:44Z</time>
      </trkpt>
      <trkpt lat="44.3441" lon="5.63659">
        <ele>1092.68</ele>
        <time>2019-09-05T11:44:58Z</time>
      </trkpt>
      <trkpt lat="44.3441" lon="5.63644">
        <ele>1093.64</ele>
        <time>2019-09-05T11:45:12Z</time>
      </trkpt>
      <trkpt lat="44.3441" lon="5.63626">
        <ele>1094.6</ele>
        <time>2019-09-05T11:45:26Z</time>
      </trkpt>
      <trkpt lat="44.34408" lon="5.63611">
        <ele>1095.56</ele>
        <time>2019-09-05T11:45:40Z</time>
      </trkpt>
      <trkpt lat="44.34407" lon="5.63591">
        <ele>1097</ele>
        <time>2019-09-05T11:45:56Z</time>
      </trkpt>
      <trkpt lat="44.34404" lon="5.63571">
        <ele>1098.44</ele>
        <time>2019-09-05T11:46:11Z</time>
      </trkpt>
      <trkpt lat="44.344" lon="5.63552">
        <ele>1099.89</ele>
        <time>2019-09-05T11:46:30Z</time>
      </trkpt>
      <trkpt lat="44.34391" lon="5.63538">
        <ele>1101.81</ele>
        <time>2019-09-05T11:46:44Z</time>
      </trkpt>
      <trkpt lat="44.3438" lon="5.63524">
        <ele>1103.73</ele>
        <time>2019-09-05T11:47:02Z</time>
      </trkpt>
      <trkpt lat="44.34373" lon="5.63516">
        <ele>1105.65</ele>
        <time>2019-09-05T11:47:15Z</time>
      </trkpt>
      <trkpt lat="44.34361" lon="5.63507">
        <ele>1106.61</ele>
        <time>2019-09-05T11:47:30Z</time>
      </trkpt>
      <trkpt lat="44.34347" lon="5.63497">
        <ele>1109.5</ele>
        <time>2019-09-05T11:47:48Z</time>
      </trkpt>
      <trkpt lat="44.34338" lon="5.63489">
        <ele>1111.9</ele>
        <time>2019-09-05T11:48:05Z</time>
      </trkpt>
      <trkpt lat="44.34334" lon="5.63495">
        <ele>1112.86</ele>
        <time>2019-09-05T11:48:24Z</time>
      </trkpt>
      <trkpt lat="44.34339" lon="5.635">
        <ele>1113.34</ele>
        <time>2019-09-05T11:48:40Z</time>
      </trkpt>
      <trkpt lat="44.34337" lon="5.63497">
        <ele>1113.82</ele>
        <time>2019-09-05T11:49:00Z</time>
      </trkpt>
      <trkpt lat="44.34338" lon="5.63499">
        <ele>1113.82</ele>
        <time>2019-09-05T11:49:15Z</time>
      </trkpt>
      <trkpt lat="44.34334" lon="5.63505">
        <ele>1113.82</ele>
        <time>2019-09-05T11:49:34Z</time>
      </trkpt>
      <trkpt lat="44.34342" lon="5.63514">
        <ele>1114.31</ele>
        <time>2019-09-05T11:49:48Z</time>
      </trkpt>
      <trkpt lat="44.34349" lon="5.63528">
        <ele>1114.79</ele>
        <time>2019-09-05T11:50:03Z</time>
      </trkpt>
      <trkpt lat="44.34355" lon="5.63535">
        <ele>1114.79</ele>
        <time>2019-09-05T11:50:19Z</time>
      </trkpt>
      <trkpt lat="44.34359" lon="5.63547">
        <ele>1117.19</ele>
        <time>2019-09-05T11:50:35Z</time>
      </trkpt>
      <trkpt lat="44.3436" lon="5.63562">
        <ele>1118.15</ele>
        <time>2019-09-05T11:50:48Z</time>
      </trkpt>
      <trkpt lat="44.34364" lon="5.6358">
        <ele>1117.67</ele>
        <time>2019-09-05T11:51:02Z</time>
      </trkpt>
      <trkpt lat="44.34367" lon="5.63597">
        <ele>1118.15</ele>
        <time>2019-09-05T11:51:17Z</time>
      </trkpt>
      <trkpt lat="44.34366" lon="5.63618">
        <ele>1118.15</ele>
        <time>2019-09-05T11:51:34Z</time>
      </trkpt>
      <trkpt lat="44.34363" lon="5.6364">
        <ele>1119.11</ele>
        <time>2019-09-05T11:51:52Z</time>
      </trkpt>
      <trkpt lat="44.34361" lon="5.63661">
        <ele>1119.11</ele>
        <time>2019-09-05T11:52:08Z</time>
      </trkpt>
      <trkpt lat="44.34359" lon="5.63682">
        <ele>1118.15</ele>
        <time>2019-09-05T11:52:24Z</time>
      </trkpt>
      <trkpt lat="44.3436" lon="5.63694">
        <ele>1118.63</ele>
        <time>2019-09-05T11:52:38Z</time>
      </trkpt>
      <trkpt lat="44.34357" lon="5.6371">
        <ele>1116.71</ele>
        <time>2019-09-05T11:52:51Z</time>
      </trkpt>
      <trkpt lat="44.34353" lon="5.63728">
        <ele>1116.71</ele>
        <time>2019-09-05T11:53:05Z</time>
      </trkpt>
      <trkpt lat="44.3435" lon="5.63743">
        <ele>1116.71</ele>
        <time>2019-09-05T11:53:17Z</time>
      </trkpt>
      <trkpt lat="44.34347" lon="5.63761">
        <ele>1117.19</ele>
        <time>2019-09-05T11:53:31Z</time>
      </trkpt>
      <trkpt lat="44.34344" lon="5.63772">
        <ele>1117.67</ele>
        <time>2019-09-05T11:53:44Z</time>
      </trkpt>
      <trkpt lat="44.34341" lon="5.63789">
        <ele>1117.67</ele>
        <time>2019-09-05T11:54:00Z</time>
      </trkpt>
      <trkpt lat="44.34339" lon="5.63807">
        <ele>1119.59</ele>
        <time>2019-09-05T11:54:15Z</time>
      </trkpt>
      <trkpt lat="44.34338" lon="5.63827">
        <ele>1120.55</ele>
        <time>2019-09-05T11:54:31Z</time>
      </trkpt>
      <trkpt lat="44.34339" lon="5.63844">
        <ele>1122.48</ele>
        <time>2019-09-05T11:54:45Z</time>
      </trkpt>
      <trkpt lat="44.34341" lon="5.63864">
        <ele>1122</ele>
        <time>2019-09-05T11:55:00Z</time>
      </trkpt>
      <trkpt lat="44.34341" lon="5.63883">
        <ele>1121.03</ele>
        <time>2019-09-05T11:55:16Z</time>
      </trkpt>
      <trkpt lat="44.3434" lon="5.63899">
        <ele>1120.07</ele>
        <time>2019-09-05T11:55:31Z</time>
      </trkpt>
      <trkpt lat="44.34336" lon="5.63906">
        <ele>1119.59</ele>
        <time>2019-09-05T11:55:45Z</time>
      </trkpt>
      <trkpt lat="44.34336" lon="5.63913">
        <ele>1121.03</ele>
        <time>2019-09-05T11:56:06Z</time>
      </trkpt>
      <trkpt lat="44.34334" lon="5.63922">
        <ele>1121.03</ele>
        <time>2019-09-05T11:56:20Z</time>
      </trkpt>
      <trkpt lat="44.34337" lon="5.63931">
        <ele>1120.55</ele>
        <time>2019-09-05T11:56:39Z</time>
      </trkpt>
      <trkpt lat="44.34347" lon="5.63932">
        <ele>1120.07</ele>
        <time>2019-09-05T11:56:54Z</time>
      </trkpt>
      <trkpt lat="44.34359" lon="5.63931">
        <ele>1119.59</ele>
        <time>2019-09-05T11:57:06Z</time>
      </trkpt>
      <trkpt lat="44.3437" lon="5.63934">
        <ele>1118.63</ele>
        <time>2019-09-05T11:57:20Z</time>
      </trkpt>
      <trkpt lat="44.34381" lon="5.63941">
        <ele>1118.15</ele>
        <time>2019-09-05T11:57:34Z</time>
      </trkpt>
      <trkpt lat="44.34393" lon="5.63949">
        <ele>1118.15</ele>
        <time>2019-09-05T11:57:47Z</time>
      </trkpt>
      <trkpt lat="44.34404" lon="5.63953">
        <ele>1119.11</ele>
        <time>2019-09-05T11:57:59Z</time>
      </trkpt>
      <trkpt lat="44.34408" lon="5.63954">
        <ele>1118.63</ele>
        <time>2019-09-05T11:58:03Z</time>
      </trkpt>
      <trkpt lat="44.34421" lon="5.63959">
        <ele>1118.63</ele>
        <time>2019-09-05T11:58:17Z</time>
      </trkpt>
      <trkpt lat="44.34433" lon="5.63965">
        <ele>1119.11</ele>
        <time>2019-09-05T11:58:31Z</time>
      </trkpt>
      <trkpt lat="44.34444" lon="5.63971">
        <ele>1119.11</ele>
        <time>2019-09-05T11:58:45Z</time>
      </trkpt>
      <trkpt lat="44.34454" lon="5.63976">
        <ele>1119.11</ele>
        <time>2019-09-05T11:58:57Z</time>
      </trkpt>
      <trkpt lat="44.34467" lon="5.63983">
        <ele>1119.11</ele>
        <time>2019-09-05T11:59:10Z</time>
      </trkpt>
      <trkpt lat="44.34479" lon="5.63995">
        <ele>1120.55</ele>
        <time>2019-09-05T11:59:26Z</time>
      </trkpt>
      <trkpt lat="44.34493" lon="5.64008">
        <ele>1119.11</ele>
        <time>2019-09-05T11:59:43Z</time>
      </trkpt>
      <trkpt lat="44.34502" lon="5.64015">
        <ele>1119.11</ele>
        <time>2019-09-05T11:59:55Z</time>
      </trkpt>
      <trkpt lat="44.34515" lon="5.64022">
        <ele>1118.63</ele>
        <time>2019-09-05T12:00:10Z</time>
      </trkpt>
      <trkpt lat="44.34525" lon="5.64027">
        <ele>1119.59</ele>
        <time>2019-09-05T12:00:22Z</time>
      </trkpt>
      <trkpt lat="44.34536" lon="5.64033">
        <ele>1120.55</ele>
        <time>2019-09-05T12:00:36Z</time>
      </trkpt>
      <trkpt lat="44.34551" lon="5.64032">
        <ele>1121.03</ele>
        <time>2019-09-05T12:00:53Z</time>
      </trkpt>
      <trkpt lat="44.34563" lon="5.64031">
        <ele>1121.03</ele>
        <time>2019-09-05T12:01:08Z</time>
      </trkpt>
      <trkpt lat="44.34575" lon="5.64038">
        <ele>1122</ele>
        <time>2019-09-05T12:01:24Z</time>
      </trkpt>
      <trkpt lat="44.34589" lon="5.64041">
        <ele>1122.96</ele>
        <time>2019-09-05T12:01:40Z</time>
      </trkpt>
      <trkpt lat="44.34601" lon="5.64043">
        <ele>1123.92</ele>
        <time>2019-09-05T12:01:55Z</time>
      </trkpt>
      <trkpt lat="44.34614" lon="5.64049">
        <ele>1125.36</ele>
        <time>2019-09-05T12:02:11Z</time>
      </trkpt>
      <trkpt lat="44.34626" lon="5.6406">
        <ele>1126.32</ele>
        <time>2019-09-05T12:02:26Z</time>
      </trkpt>
      <trkpt lat="44.34636" lon="5.64067">
        <ele>1128.24</ele>
        <time>2019-09-05T12:02:43Z</time>
      </trkpt>
      <trkpt lat="44.34647" lon="5.64076">
        <ele>1128.24</ele>
        <time>2019-09-05T12:02:59Z</time>
      </trkpt>
      <trkpt lat="44.34656" lon="5.64085">
        <ele>1128.24</ele>
        <time>2019-09-05T12:03:14Z</time>
      </trkpt>
      <trkpt lat="44.34669" lon="5.64094">
        <ele>1129.69</ele>
        <time>2019-09-05T12:03:31Z</time>
      </trkpt>
      <trkpt lat="44.3468" lon="5.64102">
        <ele>1130.17</ele>
        <time>2019-09-05T12:03:46Z</time>
      </trkpt>
      <trkpt lat="44.34692" lon="5.64112">
        <ele>1131.61</ele>
        <time>2019-09-05T12:04:03Z</time>
      </trkpt>
      <trkpt lat="44.34704" lon="5.64119">
        <ele>1132.57</ele>
        <time>2019-09-05T12:04:18Z</time>
      </trkpt>
      <trkpt lat="44.34706" lon="5.64116">
        <ele>1132.57</ele>
        <time>2019-09-05T12:04:22Z</time>
      </trkpt>
      <trkpt lat="44.34711" lon="5.64106">
        <ele>1133.53</ele>
        <time>2019-09-05T12:04:35Z</time>
      </trkpt>
      <trkpt lat="44.34715" lon="5.64099">
        <ele>1134.49</ele>
        <time>2019-09-05T12:04:48Z</time>
      </trkpt>
      <trkpt lat="44.34721" lon="5.64087">
        <ele>1136.42</ele>
        <time>2019-09-05T12:05:03Z</time>
      </trkpt>
      <trkpt lat="44.34723" lon="5.64075">
        <ele>1137.86</ele>
        <time>2019-09-05T12:05:16Z</time>
      </trkpt>
      <trkpt lat="44.34727" lon="5.64067">
        <ele>1138.34</ele>
        <time>2019-09-05T12:05:30Z</time>
      </trkpt>
      <trkpt lat="44.34731" lon="5.64061">
        <ele>1139.78</ele>
        <time>2019-09-05T12:05:41Z</time>
      </trkpt>
      <trkpt lat="44.34734" lon="5.64059">
        <ele>1140.74</ele>
        <time>2019-09-05T12:05:54Z</time>
      </trkpt>
      <trkpt lat="44.34738" lon="5.64052">
        <ele>1142.18</ele>
        <time>2019-09-05T12:06:09Z</time>
      </trkpt>
      <trkpt lat="44.34749" lon="5.64036">
        <ele>1142.66</ele>
        <time>2019-09-05T12:06:25Z</time>
      </trkpt>
      <trkpt lat="44.34752" lon="5.64033">
        <ele>1142.18</ele>
        <time>2019-09-05T12:06:29Z</time>
      </trkpt>
      <trkpt lat="44.34757" lon="5.64008">
        <ele>1139.78</ele>
        <time>2019-09-05T12:06:48Z</time>
      </trkpt>
      <trkpt lat="44.3476" lon="5.63994">
        <ele>1136.9</ele>
        <time>2019-09-05T12:07:04Z</time>
      </trkpt>
      <trkpt lat="44.34765" lon="5.63977">
        <ele>1135.94</ele>
        <time>2019-09-05T12:07:21Z</time>
      </trkpt>
      <trkpt lat="44.34769" lon="5.63966">
        <ele>1134.01</ele>
        <time>2019-09-05T12:07:35Z</time>
      </trkpt>
      <trkpt lat="44.34774" lon="5.63951">
        <ele>1132.09</ele>
        <time>2019-09-05T12:07:51Z</time>
      </trkpt>
      <trkpt lat="44.34778" lon="5.63938">
        <ele>1130.17</ele>
        <time>2019-09-05T12:08:06Z</time>
      </trkpt>
      <trkpt lat="44.34783" lon="5.63923">
        <ele>1128.73</ele>
        <time>2019-09-05T12:08:22Z</time>
      </trkpt>
      <trkpt lat="44.34786" lon="5.63919">
        <ele>1128.24</ele>
        <time>2019-09-05T12:08:27Z</time>
      </trkpt>
      <trkpt lat="44.34788" lon="5.63916">
        <ele>1128.24</ele>
        <time>2019-09-05T12:08:29Z</time>
      </trkpt>
      <trkpt lat="44.348" lon="5.63906">
        <ele>1127.28</ele>
        <time>2019-09-05T12:08:44Z</time>
      </trkpt>
      <trkpt lat="44.34811" lon="5.63894">
        <ele>1126.32</ele>
        <time>2019-09-05T12:09:00Z</time>
      </trkpt>
      <trkpt lat="44.34823" lon="5.63882">
        <ele>1123.92</ele>
        <time>2019-09-05T12:09:17Z</time>
      </trkpt>
      <trkpt lat="44.34831" lon="5.63875">
        <ele>1122.48</ele>
        <time>2019-09-05T12:09:32Z</time>
      </trkpt>
      <trkpt lat="44.34844" lon="5.63867">
        <ele>1120.07</ele>
        <time>2019-09-05T12:09:49Z</time>
      </trkpt>
      <trkpt lat="44.34852" lon="5.63863">
        <ele>1118.63</ele>
        <time>2019-09-05T12:10:04Z</time>
      </trkpt>
      <trkpt lat="44.34858" lon="5.6386">
        <ele>1118.15</ele>
        <time>2019-09-05T12:10:11Z</time>
      </trkpt>
      <trkpt lat="44.34861" lon="5.63858">
        <ele>1117.67</ele>
        <time>2019-09-05T12:10:15Z</time>
      </trkpt>
      <trkpt lat="44.34869" lon="5.63852">
        <ele>1116.71</ele>
        <time>2019-09-05T12:10:25Z</time>
      </trkpt>
      <trkpt lat="44.3488" lon="5.63845">
        <ele>1114.79</ele>
        <time>2019-09-05T12:10:40Z</time>
      </trkpt>
      <trkpt lat="44.34889" lon="5.63842">
        <ele>1112.38</ele>
        <time>2019-09-05T12:10:53Z</time>
      </trkpt>
      <trkpt lat="44.349" lon="5.63831">
        <ele>1110.94</ele>
        <time>2019-09-05T12:11:09Z</time>
      </trkpt>
      <trkpt lat="44.34902" lon="5.63825">
        <ele>1109.98</ele>
        <time>2019-09-05T12:11:23Z</time>
      </trkpt>
      <trkpt lat="44.34903" lon="5.63822">
        <ele>1111.42</ele>
        <time>2019-09-05T12:11:54Z</time>
      </trkpt>
      <trkpt lat="44.349" lon="5.63824">
        <ele>1110.94</ele>
        <time>2019-09-05T12:12:30Z</time>
      </trkpt>
      <trkpt lat="44.34902" lon="5.63828">
        <ele>1110.46</ele>
        <time>2019-09-05T12:12:44Z</time>
      </trkpt>
      <trkpt lat="44.34903" lon="5.63817">
        <ele>1110.46</ele>
        <time>2019-09-05T12:12:59Z</time>
      </trkpt>
      <trkpt lat="44.34907" lon="5.63805">
        <ele>1109.5</ele>
        <time>2019-09-05T12:13:09Z</time>
      </trkpt>
      <trkpt lat="44.34913" lon="5.63782">
        <ele>1106.13</ele>
        <time>2019-09-05T12:13:26Z</time>
      </trkpt>
      <trkpt lat="44.34921" lon="5.63763">
        <ele>1104.21</ele>
        <time>2019-09-05T12:13:41Z</time>
      </trkpt>
      <trkpt lat="44.34931" lon="5.63741">
        <ele>1101.81</ele>
        <time>2019-09-05T12:13:57Z</time>
      </trkpt>
      <trkpt lat="44.34939" lon="5.63717">
        <ele>1100.37</ele>
        <time>2019-09-05T12:14:15Z</time>
      </trkpt>
      <trkpt lat="44.34942" lon="5.63706">
        <ele>1098.44</ele>
        <time>2019-09-05T12:14:26Z</time>
      </trkpt>
      <trkpt lat="44.34946" lon="5.637">
        <ele>1097.96</ele>
        <time>2019-09-05T12:14:40Z</time>
      </trkpt>
      <trkpt lat="44.34949" lon="5.63697">
        <ele>1097.48</ele>
        <time>2019-09-05T12:14:44Z</time>
      </trkpt>
      <trkpt lat="44.34954" lon="5.63688">
        <ele>1096.52</ele>
        <time>2019-09-05T12:14:58Z</time>
      </trkpt>
      <trkpt lat="44.34958" lon="5.63679">
        <ele>1095.56</ele>
        <time>2019-09-05T12:15:10Z</time>
      </trkpt>
      <trkpt lat="44.34969" lon="5.63663">
        <ele>1093.64</ele>
        <time>2019-09-05T12:15:27Z</time>
      </trkpt>
      <trkpt lat="44.34974" lon="5.63658">
        <ele>1092.68</ele>
        <time>2019-09-05T12:15:34Z</time>
      </trkpt>
      <trkpt lat="44.34986" lon="5.63652">
        <ele>1090.75</ele>
        <time>2019-09-05T12:15:49Z</time>
      </trkpt>
      <trkpt lat="44.34995" lon="5.63651">
        <ele>1090.75</ele>
        <time>2019-09-05T12:16:04Z</time>
      </trkpt>
      <trkpt lat="44.35003" lon="5.63661">
        <ele>1091.23</ele>
        <time>2019-09-05T12:16:20Z</time>
      </trkpt>
      <trkpt lat="44.3501" lon="5.63669">
        <ele>1091.71</ele>
        <time>2019-09-05T12:16:31Z</time>
      </trkpt>
      <trkpt lat="44.35019" lon="5.63681">
        <ele>1091.71</ele>
        <time>2019-09-05T12:16:46Z</time>
      </trkpt>
      <trkpt lat="44.35026" lon="5.63692">
        <ele>1093.64</ele>
        <time>2019-09-05T12:17:01Z</time>
      </trkpt>
      <trkpt lat="44.35037" lon="5.63706">
        <ele>1093.64</ele>
        <time>2019-09-05T12:17:16Z</time>
      </trkpt>
      <trkpt lat="44.35047" lon="5.63717">
        <ele>1096.04</ele>
        <time>2019-09-05T12:17:33Z</time>
      </trkpt>
      <trkpt lat="44.35055" lon="5.63726">
        <ele>1097.48</ele>
        <time>2019-09-05T12:17:47Z</time>
      </trkpt>
      <trkpt lat="44.35063" lon="5.63735">
        <ele>1099.4</ele>
        <time>2019-09-05T12:18:02Z</time>
      </trkpt>
      <trkpt lat="44.35071" lon="5.63742">
        <ele>1101.33</ele>
        <time>2019-09-05T12:18:16Z</time>
      </trkpt>
      <trkpt lat="44.3508" lon="5.63752">
        <ele>1104.21</ele>
        <time>2019-09-05T12:18:32Z</time>
      </trkpt>
      <trkpt lat="44.35087" lon="5.63761">
        <ele>1106.61</ele>
        <time>2019-09-05T12:18:47Z</time>
      </trkpt>
      <trkpt lat="44.35095" lon="5.63771">
        <ele>1108.06</ele>
        <time>2019-09-05T12:19:03Z</time>
      </trkpt>
      <trkpt lat="44.35105" lon="5.63779">
        <ele>1109.98</ele>
        <time>2019-09-05T12:19:19Z</time>
      </trkpt>
      <trkpt lat="44.35113" lon="5.63786">
        <ele>1112.86</ele>
        <time>2019-09-05T12:19:34Z</time>
      </trkpt>
      <trkpt lat="44.35124" lon="5.63792">
        <ele>1114.31</ele>
        <time>2019-09-05T12:19:49Z</time>
      </trkpt>
      <trkpt lat="44.35135" lon="5.638">
        <ele>1115.27</ele>
        <time>2019-09-05T12:20:04Z</time>
      </trkpt>
      <trkpt lat="44.35143" lon="5.6381">
        <ele>1117.19</ele>
        <time>2019-09-05T12:20:19Z</time>
      </trkpt>
      <trkpt lat="44.35152" lon="5.63821">
        <ele>1118.63</ele>
        <time>2019-09-05T12:20:33Z</time>
      </trkpt>
      <trkpt lat="44.35161" lon="5.63833">
        <ele>1120.07</ele>
        <time>2019-09-05T12:20:48Z</time>
      </trkpt>
      <trkpt lat="44.3517" lon="5.63846">
        <ele>1121.52</ele>
        <time>2019-09-05T12:21:04Z</time>
      </trkpt>
      <trkpt lat="44.35176" lon="5.63859">
        <ele>1122.48</ele>
        <time>2019-09-05T12:21:18Z</time>
      </trkpt>
      <trkpt lat="44.35176" lon="5.63859">
        <ele>1122.48</ele>
        <time>2019-09-05T12:21:19Z</time>
      </trkpt>
      <trkpt lat="44.35177" lon="5.63873">
        <ele>1123.92</ele>
        <time>2019-09-05T12:21:34Z</time>
      </trkpt>
      <trkpt lat="44.35175" lon="5.63872">
        <ele>1122.96</ele>
        <time>2019-09-05T12:21:48Z</time>
      </trkpt>
      <trkpt lat="44.35176" lon="5.63873">
        <ele>1122.96</ele>
        <time>2019-09-05T12:22:15Z</time>
      </trkpt>
      <trkpt lat="44.35176" lon="5.63871">
        <ele>1122.48</ele>
        <time>2019-09-05T12:22:40Z</time>
      </trkpt>
      <trkpt lat="44.35176" lon="5.6387">
        <ele>1123.44</ele>
        <time>2019-09-05T12:23:08Z</time>
      </trkpt>
      <trkpt lat="44.35178" lon="5.63873">
        <ele>1123.44</ele>
        <time>2019-09-05T12:23:26Z</time>
      </trkpt>
      <trkpt lat="44.35179" lon="5.63874">
        <ele>1123.92</ele>
        <time>2019-09-05T12:23:45Z</time>
      </trkpt>
      <trkpt lat="44.35177" lon="5.63877">
        <ele>1123.44</ele>
        <time>2019-09-05T12:24:02Z</time>
      </trkpt>
      <trkpt lat="44.35174" lon="5.63876">
        <ele>1123.92</ele>
        <time>2019-09-05T12:24:16Z</time>
      </trkpt>
      <trkpt lat="44.35175" lon="5.63873">
        <ele>1123.92</ele>
        <time>2019-09-05T12:24:38Z</time>
      </trkpt>
      <trkpt lat="44.35175" lon="5.63873">
        <ele>1124.4</ele>
        <time>2019-09-05T12:25:00Z</time>
      </trkpt>
      <trkpt lat="44.35175" lon="5.63872">
        <ele>1123.92</ele>
        <time>2019-09-05T12:25:26Z</time>
      </trkpt>
      <trkpt lat="44.35175" lon="5.63872">
        <ele>1124.4</ele>
        <time>2019-09-05T12:25:53Z</time>
      </trkpt>
      <trkpt lat="44.35175" lon="5.63872">
        <ele>1124.4</ele>
        <time>2019-09-05T12:26:22Z</time>
      </trkpt>
      <trkpt lat="44.35175" lon="5.63871">
        <ele>1124.4</ele>
        <time>2019-09-05T12:26:46Z</time>
      </trkpt>
      <trkpt lat="44.35184" lon="5.63873">
        <ele>1124.4</ele>
        <time>2019-09-05T12:27:03Z</time>
      </trkpt>
      <trkpt lat="44.35192" lon="5.6387">
        <ele>1123.92</ele>
        <time>2019-09-05T12:27:18Z</time>
      </trkpt>
      <trkpt lat="44.35199" lon="5.63866">
        <ele>1123.92</ele>
        <time>2019-09-05T12:27:30Z</time>
      </trkpt>
      <trkpt lat="44.35212" lon="5.63861">
        <ele>1122.96</ele>
        <time>2019-09-05T12:27:47Z</time>
      </trkpt>
      <trkpt lat="44.35227" lon="5.63857">
        <ele>1122.96</ele>
        <time>2019-09-05T12:28:03Z</time>
      </trkpt>
      <trkpt lat="44.35231" lon="5.63855">
        <ele>1122.96</ele>
        <time>2019-09-05T12:28:07Z</time>
      </trkpt>
      <trkpt lat="44.35246" lon="5.63855">
        <ele>1124.4</ele>
        <time>2019-09-05T12:28:24Z</time>
      </trkpt>
      <trkpt lat="44.35259" lon="5.63858">
        <ele>1124.88</ele>
        <time>2019-09-05T12:28:38Z</time>
      </trkpt>
      <trkpt lat="44.35273" lon="5.63861">
        <ele>1124.4</ele>
        <time>2019-09-05T12:28:52Z</time>
      </trkpt>
      <trkpt lat="44.35288" lon="5.63862">
        <ele>1123.92</ele>
        <time>2019-09-05T12:29:06Z</time>
      </trkpt>
      <trkpt lat="44.35304" lon="5.63865">
        <ele>1123.92</ele>
        <time>2019-09-05T12:29:21Z</time>
      </trkpt>
      <trkpt lat="44.35323" lon="5.6387">
        <ele>1123.92</ele>
        <time>2019-09-05T12:29:41Z</time>
      </trkpt>
      <trkpt lat="44.35333" lon="5.6387">
        <ele>1123.44</ele>
        <time>2019-09-05T12:29:55Z</time>
      </trkpt>
      <trkpt lat="44.35343" lon="5.63875">
        <ele>1122.48</ele>
        <time>2019-09-05T12:30:10Z</time>
      </trkpt>
      <trkpt lat="44.35346" lon="5.63877">
        <ele>1122</ele>
        <time>2019-09-05T12:30:26Z</time>
      </trkpt>
      <trkpt lat="44.35359" lon="5.63889">
        <ele>1120.07</ele>
        <time>2019-09-05T12:30:40Z</time>
      </trkpt>
      <trkpt lat="44.35365" lon="5.63894">
        <ele>1120.55</ele>
        <time>2019-09-05T12:30:46Z</time>
      </trkpt>
      <trkpt lat="44.35371" lon="5.639">
        <ele>1119.59</ele>
        <time>2019-09-05T12:30:53Z</time>
      </trkpt>
      <trkpt lat="44.35378" lon="5.63903">
        <ele>1119.11</ele>
        <time>2019-09-05T12:31:00Z</time>
      </trkpt>
      <trkpt lat="44.35387" lon="5.63906">
        <ele>1118.63</ele>
        <time>2019-09-05T12:31:09Z</time>
      </trkpt>
      <trkpt lat="44.35391" lon="5.63912">
        <ele>1117.67</ele>
        <time>2019-09-05T12:31:14Z</time>
      </trkpt>
      <trkpt lat="44.35393" lon="5.63916">
        <ele>1117.67</ele>
        <time>2019-09-05T12:31:17Z</time>
      </trkpt>
      <trkpt lat="44.35396" lon="5.63933">
        <ele>1115.75</ele>
        <time>2019-09-05T12:31:29Z</time>
      </trkpt>
      <trkpt lat="44.35409" lon="5.63941">
        <ele>1113.82</ele>
        <time>2019-09-05T12:31:43Z</time>
      </trkpt>
      <trkpt lat="44.35412" lon="5.6394">
        <ele>1113.34</ele>
        <time>2019-09-05T12:31:46Z</time>
      </trkpt>
      <trkpt lat="44.35425" lon="5.63936">
        <ele>1110.94</ele>
        <time>2019-09-05T12:32:01Z</time>
      </trkpt>
      <trkpt lat="44.3543" lon="5.63936">
        <ele>1110.94</ele>
        <time>2019-09-05T12:32:29Z</time>
      </trkpt>
      <trkpt lat="44.3544" lon="5.63931">
        <ele>1109.5</ele>
        <time>2019-09-05T12:32:45Z</time>
      </trkpt>
      <trkpt lat="44.35444" lon="5.63928">
        <ele>1107.58</ele>
        <time>2019-09-05T12:32:50Z</time>
      </trkpt>
      <trkpt lat="44.35455" lon="5.63926">
        <ele>1107.58</ele>
        <time>2019-09-05T12:33:03Z</time>
      </trkpt>
      <trkpt lat="44.35461" lon="5.63925">
        <ele>1107.1</ele>
        <time>2019-09-05T12:33:22Z</time>
      </trkpt>
      <trkpt lat="44.35469" lon="5.63924">
        <ele>1106.61</ele>
        <time>2019-09-05T12:33:30Z</time>
      </trkpt>
      <trkpt lat="44.35474" lon="5.63923">
        <ele>1105.17</ele>
        <time>2019-09-05T12:33:36Z</time>
      </trkpt>
      <trkpt lat="44.3549" lon="5.63916">
        <ele>1103.73</ele>
        <time>2019-09-05T12:33:53Z</time>
      </trkpt>
      <trkpt lat="44.35504" lon="5.63919">
        <ele>1103.25</ele>
        <time>2019-09-05T12:34:06Z</time>
      </trkpt>
      <trkpt lat="44.35513" lon="5.63916">
        <ele>1101.33</ele>
        <time>2019-09-05T12:34:14Z</time>
      </trkpt>
      <trkpt lat="44.35518" lon="5.63913">
        <ele>1100.37</ele>
        <time>2019-09-05T12:34:19Z</time>
      </trkpt>
      <trkpt lat="44.35532" lon="5.63913">
        <ele>1099.89</ele>
        <time>2019-09-05T12:34:31Z</time>
      </trkpt>
      <trkpt lat="44.35547" lon="5.63916">
        <ele>1098.92</ele>
        <time>2019-09-05T12:34:45Z</time>
      </trkpt>
      <trkpt lat="44.35565" lon="5.63918">
        <ele>1098.92</ele>
        <time>2019-09-05T12:35:01Z</time>
      </trkpt>
      <trkpt lat="44.3558" lon="5.6392">
        <ele>1099.4</ele>
        <time>2019-09-05T12:35:13Z</time>
      </trkpt>
      <trkpt lat="44.35585" lon="5.63921">
        <ele>1099.4</ele>
        <time>2019-09-05T12:35:17Z</time>
      </trkpt>
      <trkpt lat="44.35603" lon="5.63922">
        <ele>1099.4</ele>
        <time>2019-09-05T12:35:32Z</time>
      </trkpt>
      <trkpt lat="44.35607" lon="5.63924">
        <ele>1099.4</ele>
        <time>2019-09-05T12:35:37Z</time>
      </trkpt>
      <trkpt lat="44.3561" lon="5.63925">
        <ele>1099.4</ele>
        <time>2019-09-05T12:35:40Z</time>
      </trkpt>
      <trkpt lat="44.35621" lon="5.63914">
        <ele>1098.92</ele>
        <time>2019-09-05T12:35:54Z</time>
      </trkpt>
      <trkpt lat="44.35621" lon="5.63907">
        <ele>1096.52</ele>
        <time>2019-09-05T12:36:01Z</time>
      </trkpt>
      <trkpt lat="44.35608" lon="5.63886">
        <ele>1095.08</ele>
        <time>2019-09-05T12:36:17Z</time>
      </trkpt>
      <trkpt lat="44.35601" lon="5.63871">
        <ele>1092.68</ele>
        <time>2019-09-05T12:36:31Z</time>
      </trkpt>
      <trkpt lat="44.35589" lon="5.63857">
        <ele>1090.75</ele>
        <time>2019-09-05T12:36:48Z</time>
      </trkpt>
      <trkpt lat="44.35576" lon="5.63843">
        <ele>1087.87</ele>
        <time>2019-09-05T12:37:04Z</time>
      </trkpt>
      <trkpt lat="44.35568" lon="5.63827">
        <ele>1085.47</ele>
        <time>2019-09-05T12:37:20Z</time>
      </trkpt>
      <trkpt lat="44.35556" lon="5.63815">
        <ele>1083.06</ele>
        <time>2019-09-05T12:37:37Z</time>
      </trkpt>
      <trkpt lat="44.35548" lon="5.63802">
        <ele>1080.18</ele>
        <time>2019-09-05T12:37:52Z</time>
      </trkpt>
      <trkpt lat="44.35549" lon="5.63795">
        <ele>1077.78</ele>
        <time>2019-09-05T12:38:05Z</time>
      </trkpt>
      <trkpt lat="44.35553" lon="5.63794">
        <ele>1077.78</ele>
        <time>2019-09-05T12:38:08Z</time>
      </trkpt>
      <trkpt lat="44.35565" lon="5.63781">
        <ele>1075.37</ele>
        <time>2019-09-05T12:38:25Z</time>
      </trkpt>
      <trkpt lat="44.35568" lon="5.63778">
        <ele>1076.33</ele>
        <time>2019-09-05T12:38:29Z</time>
      </trkpt>
      <trkpt lat="44.35579" lon="5.63769">
        <ele>1073.45</ele>
        <time>2019-09-05T12:38:43Z</time>
      </trkpt>
      <trkpt lat="44.35585" lon="5.63766">
        <ele>1072.01</ele>
        <time>2019-09-05T12:38:52Z</time>
      </trkpt>
      <trkpt lat="44.35588" lon="5.63765">
        <ele>1071.53</ele>
        <time>2019-09-05T12:38:55Z</time>
      </trkpt>
      <trkpt lat="44.35594" lon="5.63767">
        <ele>1070.57</ele>
        <time>2019-09-05T12:39:01Z</time>
      </trkpt>
      <trkpt lat="44.35606" lon="5.63773">
        <ele>1067.2</ele>
        <time>2019-09-05T12:39:14Z</time>
      </trkpt>
      <trkpt lat="44.35619" lon="5.63779">
        <ele>1064.32</ele>
        <time>2019-09-05T12:39:27Z</time>
      </trkpt>
      <trkpt lat="44.35632" lon="5.63787">
        <ele>1060.95</ele>
        <time>2019-09-05T12:39:40Z</time>
      </trkpt>
      <trkpt lat="44.3564" lon="5.63791">
        <ele>1059.51</ele>
        <time>2019-09-05T12:39:50Z</time>
      </trkpt>
      <trkpt lat="44.35651" lon="5.63797">
        <ele>1058.07</ele>
        <time>2019-09-05T12:40:02Z</time>
      </trkpt>
      <trkpt lat="44.35666" lon="5.63805">
        <ele>1056.15</ele>
        <time>2019-09-05T12:40:19Z</time>
      </trkpt>
      <trkpt lat="44.35679" lon="5.63811">
        <ele>1053.74</ele>
        <time>2019-09-05T12:40:35Z</time>
      </trkpt>
      <trkpt lat="44.35691" lon="5.63813">
        <ele>1052.3</ele>
        <time>2019-09-05T12:40:49Z</time>
      </trkpt>
      <trkpt lat="44.35703" lon="5.63817">
        <ele>1050.86</ele>
        <time>2019-09-05T12:41:02Z</time>
      </trkpt>
      <trkpt lat="44.35713" lon="5.63824">
        <ele>1050.38</ele>
        <time>2019-09-05T12:41:19Z</time>
      </trkpt>
      <trkpt lat="44.35718" lon="5.6383">
        <ele>1048.94</ele>
        <time>2019-09-05T12:41:30Z</time>
      </trkpt>
      <trkpt lat="44.35729" lon="5.63842">
        <ele>1046.05</ele>
        <time>2019-09-05T12:41:43Z</time>
      </trkpt>
      <trkpt lat="44.35737" lon="5.63853">
        <ele>1043.17</ele>
        <time>2019-09-05T12:41:56Z</time>
      </trkpt>
      <trkpt lat="44.3575" lon="5.63867">
        <ele>1041.73</ele>
        <time>2019-09-05T12:42:12Z</time>
      </trkpt>
      <trkpt lat="44.35765" lon="5.63878">
        <ele>1039.8</ele>
        <time>2019-09-05T12:42:28Z</time>
      </trkpt>
      <trkpt lat="44.35773" lon="5.63889">
        <ele>1037.88</ele>
        <time>2019-09-05T12:42:43Z</time>
      </trkpt>
      <trkpt lat="44.35781" lon="5.63897">
        <ele>1036.44</ele>
        <time>2019-09-05T12:42:55Z</time>
      </trkpt>
      <trkpt lat="44.3579" lon="5.63908">
        <ele>1034.52</ele>
        <time>2019-09-05T12:43:09Z</time>
      </trkpt>
      <trkpt lat="44.35794" lon="5.63918">
        <ele>1033.55</ele>
        <time>2019-09-05T12:43:22Z</time>
      </trkpt>
      <trkpt lat="44.35797" lon="5.63934">
        <ele>1031.15</ele>
        <time>2019-09-05T12:43:35Z</time>
      </trkpt>
      <trkpt lat="44.35798" lon="5.63937">
        <ele>1030.67</ele>
        <time>2019-09-05T12:43:37Z</time>
      </trkpt>
      <trkpt lat="44.35798" lon="5.63956">
        <ele>1030.19</ele>
        <time>2019-09-05T12:43:52Z</time>
      </trkpt>
      <trkpt lat="44.35797" lon="5.63972">
        <ele>1027.79</ele>
        <time>2019-09-05T12:44:06Z</time>
      </trkpt>
      <trkpt lat="44.35796" lon="5.63975">
        <ele>1027.31</ele>
        <time>2019-09-05T12:44:08Z</time>
      </trkpt>
      <trkpt lat="44.35795" lon="5.63992">
        <ele>1025.86</ele>
        <time>2019-09-05T12:44:22Z</time>
      </trkpt>
      <trkpt lat="44.35794" lon="5.64012">
        <ele>1023.94</ele>
        <time>2019-09-05T12:44:36Z</time>
      </trkpt>
      <trkpt lat="44.35789" lon="5.64028">
        <ele>1022.5</ele>
        <time>2019-09-05T12:44:50Z</time>
      </trkpt>
      <trkpt lat="44.35788" lon="5.64029">
        <ele>1022.5</ele>
        <time>2019-09-05T12:44:51Z</time>
      </trkpt>
      <trkpt lat="44.35778" lon="5.64045">
        <ele>1022.5</ele>
        <time>2019-09-05T12:45:07Z</time>
      </trkpt>
      <trkpt lat="44.35769" lon="5.64061">
        <ele>1022.98</ele>
        <time>2019-09-05T12:45:23Z</time>
      </trkpt>
      <trkpt lat="44.35759" lon="5.64077">
        <ele>1021.54</ele>
        <time>2019-09-05T12:45:40Z</time>
      </trkpt>
      <trkpt lat="44.35754" lon="5.64091">
        <ele>1019.13</ele>
        <time>2019-09-05T12:45:57Z</time>
      </trkpt>
      <trkpt lat="44.35746" lon="5.64106">
        <ele>1016.73</ele>
        <time>2019-09-05T12:46:14Z</time>
      </trkpt>
      <trkpt lat="44.35732" lon="5.64124">
        <ele>1015.29</ele>
        <time>2019-09-05T12:46:33Z</time>
      </trkpt>
      <trkpt lat="44.35725" lon="5.64136">
        <ele>1013.37</ele>
        <time>2019-09-05T12:46:48Z</time>
      </trkpt>
      <trkpt lat="44.35723" lon="5.64139">
        <ele>1012.89</ele>
        <time>2019-09-05T12:46:52Z</time>
      </trkpt>
      <trkpt lat="44.35715" lon="5.64155">
        <ele>1010</ele>
        <time>2019-09-05T12:47:08Z</time>
      </trkpt>
      <trkpt lat="44.35708" lon="5.64166">
        <ele>1007.12</ele>
        <time>2019-09-05T12:47:23Z</time>
      </trkpt>
      <trkpt lat="44.35695" lon="5.64164">
        <ele>1004.72</ele>
        <time>2019-09-05T12:47:40Z</time>
      </trkpt>
      <trkpt lat="44.35689" lon="5.64163">
        <ele>1003.27</ele>
        <time>2019-09-05T12:47:55Z</time>
      </trkpt>
      <trkpt lat="44.35679" lon="5.64166">
        <ele>1002.79</ele>
        <time>2019-09-05T12:48:10Z</time>
      </trkpt>
      <trkpt lat="44.35683" lon="5.64167">
        <ele>1002.79</ele>
        <time>2019-09-05T12:48:44Z</time>
      </trkpt>
      <trkpt lat="44.35674" lon="5.64167">
        <ele>1001.35</ele>
        <time>2019-09-05T12:49:04Z</time>
      </trkpt>
      <trkpt lat="44.35668" lon="5.64169">
        <ele>1000.39</ele>
        <time>2019-09-05T12:49:23Z</time>
      </trkpt>
      <trkpt lat="44.35662" lon="5.64171">
        <ele>999.43</ele>
        <time>2019-09-05T12:49:31Z</time>
      </trkpt>
      <trkpt lat="44.35648" lon="5.64172">
        <ele>997.51</ele>
        <time>2019-09-05T12:49:46Z</time>
      </trkpt>
      <trkpt lat="44.35637" lon="5.64171">
        <ele>995.58</ele>
        <time>2019-09-05T12:50:01Z</time>
      </trkpt>
      <trkpt lat="44.35629" lon="5.64168">
        <ele>993.18</ele>
        <time>2019-09-05T12:50:15Z</time>
      </trkpt>
      <trkpt lat="44.35616" lon="5.64164">
        <ele>990.3</ele>
        <time>2019-09-05T12:50:30Z</time>
      </trkpt>
      <trkpt lat="44.35601" lon="5.64162">
        <ele>987.89</ele>
        <time>2019-09-05T12:50:45Z</time>
      </trkpt>
      <trkpt lat="44.35596" lon="5.64162">
        <ele>986.93</ele>
        <time>2019-09-05T12:50:58Z</time>
      </trkpt>
      <trkpt lat="44.35586" lon="5.64162">
        <ele>984.05</ele>
        <time>2019-09-05T12:51:15Z</time>
      </trkpt>
      <trkpt lat="44.35599" lon="5.6417">
        <ele>982.6</ele>
        <time>2019-09-05T12:51:30Z</time>
      </trkpt>
      <trkpt lat="44.35612" lon="5.6418">
        <ele>981.16</ele>
        <time>2019-09-05T12:51:47Z</time>
      </trkpt>
      <trkpt lat="44.35624" lon="5.64194">
        <ele>978.76</ele>
        <time>2019-09-05T12:52:05Z</time>
      </trkpt>
      <trkpt lat="44.35627" lon="5.64199">
        <ele>978.28</ele>
        <time>2019-09-05T12:52:11Z</time>
      </trkpt>
      <trkpt lat="44.35638" lon="5.64209">
        <ele>977.32</ele>
        <time>2019-09-05T12:52:23Z</time>
      </trkpt>
      <trkpt lat="44.35651" lon="5.64218">
        <ele>975.88</ele>
        <time>2019-09-05T12:52:38Z</time>
      </trkpt>
      <trkpt lat="44.35653" lon="5.64218">
        <ele>975.39</ele>
        <time>2019-09-05T12:52:40Z</time>
      </trkpt>
      <trkpt lat="44.35665" lon="5.64221">
        <ele>974.91</ele>
        <time>2019-09-05T12:52:55Z</time>
      </trkpt>
      <trkpt lat="44.3567" lon="5.64223">
        <ele>972.99</ele>
        <time>2019-09-05T12:53:03Z</time>
      </trkpt>
      <trkpt lat="44.35661" lon="5.64227">
        <ele>971.55</ele>
        <time>2019-09-05T12:53:12Z</time>
      </trkpt>
      <trkpt lat="44.35646" lon="5.64228">
        <ele>968.67</ele>
        <time>2019-09-05T12:53:27Z</time>
      </trkpt>
      <trkpt lat="44.3563" lon="5.64225">
        <ele>967.22</ele>
        <time>2019-09-05T12:53:43Z</time>
      </trkpt>
      <trkpt lat="44.35614" lon="5.64219">
        <ele>964.82</ele>
        <time>2019-09-05T12:54:01Z</time>
      </trkpt>
      <trkpt lat="44.35601" lon="5.6421">
        <ele>965.3</ele>
        <time>2019-09-05T12:54:16Z</time>
      </trkpt>
      <trkpt lat="44.35587" lon="5.64203">
        <ele>964.82</ele>
        <time>2019-09-05T12:54:31Z</time>
      </trkpt>
      <trkpt lat="44.35573" lon="5.64199">
        <ele>961.94</ele>
        <time>2019-09-05T12:54:46Z</time>
      </trkpt>
      <trkpt lat="44.35566" lon="5.64196">
        <ele>961.46</ele>
        <time>2019-09-05T12:54:59Z</time>
      </trkpt>
      <trkpt lat="44.35564" lon="5.64195">
        <ele>960.98</ele>
        <time>2019-09-05T12:55:04Z</time>
      </trkpt>
      <trkpt lat="44.35559" lon="5.64193">
        <ele>960.49</ele>
        <time>2019-09-05T12:55:09Z</time>
      </trkpt>
      <trkpt lat="44.35549" lon="5.64187">
        <ele>960.01</ele>
        <time>2019-09-05T12:55:21Z</time>
      </trkpt>
      <trkpt lat="44.35544" lon="5.64188">
        <ele>959.05</ele>
        <time>2019-09-05T12:55:25Z</time>
      </trkpt>
      <trkpt lat="44.35531" lon="5.64197">
        <ele>957.13</ele>
        <time>2019-09-05T12:55:38Z</time>
      </trkpt>
      <trkpt lat="44.35528" lon="5.64201">
        <ele>956.65</ele>
        <time>2019-09-05T12:55:43Z</time>
      </trkpt>
      <trkpt lat="44.35524" lon="5.64209">
        <ele>955.69</ele>
        <time>2019-09-05T12:55:50Z</time>
      </trkpt>
      <trkpt lat="44.35516" lon="5.64227">
        <ele>956.17</ele>
        <time>2019-09-05T12:56:04Z</time>
      </trkpt>
      <trkpt lat="44.35513" lon="5.64241">
        <ele>953.77</ele>
        <time>2019-09-05T12:56:19Z</time>
      </trkpt>
      <trkpt lat="44.35507" lon="5.64257">
        <ele>952.32</ele>
        <time>2019-09-05T12:56:35Z</time>
      </trkpt>
      <trkpt lat="44.35501" lon="5.64274">
        <ele>949.44</ele>
        <time>2019-09-05T12:56:50Z</time>
      </trkpt>
      <trkpt lat="44.35497" lon="5.64288">
        <ele>947.52</ele>
        <time>2019-09-05T12:57:05Z</time>
      </trkpt>
      <trkpt lat="44.35497" lon="5.64292">
        <ele>947.04</ele>
        <time>2019-09-05T12:57:25Z</time>
      </trkpt>
      <trkpt lat="44.35494" lon="5.64302">
        <ele>944.63</ele>
        <time>2019-09-05T12:57:39Z</time>
      </trkpt>
      <trkpt lat="44.35491" lon="5.64314">
        <ele>941.75</ele>
        <time>2019-09-05T12:57:55Z</time>
      </trkpt>
      <trkpt lat="44.35481" lon="5.64323">
        <ele>938.38</ele>
        <time>2019-09-05T12:58:08Z</time>
      </trkpt>
      <trkpt lat="44.35469" lon="5.64332">
        <ele>935.02</ele>
        <time>2019-09-05T12:58:24Z</time>
      </trkpt>
      <trkpt lat="44.3547" lon="5.64334">
        <ele>934.54</ele>
        <time>2019-09-05T12:58:26Z</time>
      </trkpt>
      <trkpt lat="44.35484" lon="5.64333">
        <ele>933.1</ele>
        <time>2019-09-05T12:58:41Z</time>
      </trkpt>
      <trkpt lat="44.35494" lon="5.64333">
        <ele>931.17</ele>
        <time>2019-09-05T12:58:54Z</time>
      </trkpt>
      <trkpt lat="44.35503" lon="5.64329">
        <ele>929.73</ele>
        <time>2019-09-05T12:59:06Z</time>
      </trkpt>
      <trkpt lat="44.35513" lon="5.64325">
        <ele>927.33</ele>
        <time>2019-09-05T12:59:22Z</time>
      </trkpt>
      <trkpt lat="44.3552" lon="5.64315">
        <ele>925.89</ele>
        <time>2019-09-05T12:59:36Z</time>
      </trkpt>
      <trkpt lat="44.35519" lon="5.6432">
        <ele>925.41</ele>
        <time>2019-09-05T12:59:54Z</time>
      </trkpt>
      <trkpt lat="44.35519" lon="5.64323">
        <ele>924.45</ele>
        <time>2019-09-05T13:00:03Z</time>
      </trkpt>
      <trkpt lat="44.3551" lon="5.64338">
        <ele>922.52</ele>
        <time>2019-09-05T13:00:17Z</time>
      </trkpt>
      <trkpt lat="44.35497" lon="5.64353">
        <ele>920.6</ele>
        <time>2019-09-05T13:00:34Z</time>
      </trkpt>
      <trkpt lat="44.3549" lon="5.6436">
        <ele>918.2</ele>
        <time>2019-09-05T13:00:49Z</time>
      </trkpt>
      <trkpt lat="44.35484" lon="5.64363">
        <ele>916.27</ele>
        <time>2019-09-05T13:01:02Z</time>
      </trkpt>
      <trkpt lat="44.35478" lon="5.64365">
        <ele>915.31</ele>
        <time>2019-09-05T13:01:15Z</time>
      </trkpt>
      <trkpt lat="44.35464" lon="5.64368">
        <ele>913.87</ele>
        <time>2019-09-05T13:01:30Z</time>
      </trkpt>
      <trkpt lat="44.35458" lon="5.64369">
        <ele>913.87</ele>
        <time>2019-09-05T13:01:44Z</time>
      </trkpt>
      <trkpt lat="44.35452" lon="5.64371">
        <ele>912.91</ele>
        <time>2019-09-05T13:01:55Z</time>
      </trkpt>
      <trkpt lat="44.35446" lon="5.64373">
        <ele>911.95</ele>
        <time>2019-09-05T13:02:15Z</time>
      </trkpt>
      <trkpt lat="44.35443" lon="5.64373">
        <ele>910.99</ele>
        <time>2019-09-05T13:02:31Z</time>
      </trkpt>
      <trkpt lat="44.35436" lon="5.64374">
        <ele>910.03</ele>
        <time>2019-09-05T13:02:46Z</time>
      </trkpt>
      <trkpt lat="44.35422" lon="5.64378">
        <ele>906.66</ele>
        <time>2019-09-05T13:03:03Z</time>
      </trkpt>
      <trkpt lat="44.35409" lon="5.64379">
        <ele>904.74</ele>
        <time>2019-09-05T13:03:18Z</time>
      </trkpt>
      <trkpt lat="44.35401" lon="5.64381">
        <ele>904.26</ele>
        <time>2019-09-05T13:03:34Z</time>
      </trkpt>
      <trkpt lat="44.3539" lon="5.64384">
        <ele>901.85</ele>
        <time>2019-09-05T13:03:47Z</time>
      </trkpt>
      <trkpt lat="44.35382" lon="5.64387">
        <ele>899.93</ele>
        <time>2019-09-05T13:04:01Z</time>
      </trkpt>
      <trkpt lat="44.35373" lon="5.64389">
        <ele>898.01</ele>
        <time>2019-09-05T13:04:14Z</time>
      </trkpt>
      <trkpt lat="44.35361" lon="5.64391">
        <ele>897.05</ele>
        <time>2019-09-05T13:04:29Z</time>
      </trkpt>
      <trkpt lat="44.35352" lon="5.64392">
        <ele>895.61</ele>
        <time>2019-09-05T13:04:42Z</time>
      </trkpt>
      <trkpt lat="44.35344" lon="5.64392">
        <ele>894.64</ele>
        <time>2019-09-05T13:04:56Z</time>
      </trkpt>
      <trkpt lat="44.35336" lon="5.64389">
        <ele>893.2</ele>
        <time>2019-09-05T13:05:10Z</time>
      </trkpt>
      <trkpt lat="44.35332" lon="5.64386">
        <ele>891.76</ele>
        <time>2019-09-05T13:05:23Z</time>
      </trkpt>
      <trkpt lat="44.35325" lon="5.64383">
        <ele>890.8</ele>
        <time>2019-09-05T13:05:32Z</time>
      </trkpt>
      <trkpt lat="44.35316" lon="5.64377">
        <ele>889.36</ele>
        <time>2019-09-05T13:05:46Z</time>
      </trkpt>
      <trkpt lat="44.35307" lon="5.64371">
        <ele>889.36</ele>
        <time>2019-09-05T13:06:00Z</time>
      </trkpt>
      <trkpt lat="44.35299" lon="5.64369">
        <ele>888.88</ele>
        <time>2019-09-05T13:06:13Z</time>
      </trkpt>
      <trkpt lat="44.35296" lon="5.64372">
        <ele>888.88</ele>
        <time>2019-09-05T13:06:19Z</time>
      </trkpt>
      <trkpt lat="44.35297" lon="5.6438">
        <ele>889.36</ele>
        <time>2019-09-05T13:06:26Z</time>
      </trkpt>
      <trkpt lat="44.35303" lon="5.64399">
        <ele>886.95</ele>
        <time>2019-09-05T13:06:42Z</time>
      </trkpt>
      <trkpt lat="44.35305" lon="5.64406">
        <ele>885.99</ele>
        <time>2019-09-05T13:06:48Z</time>
      </trkpt>
      <trkpt lat="44.35308" lon="5.64427">
        <ele>884.55</ele>
        <time>2019-09-05T13:07:04Z</time>
      </trkpt>
      <trkpt lat="44.35312" lon="5.64441">
        <ele>883.59</ele>
        <time>2019-09-05T13:07:16Z</time>
      </trkpt>
      <trkpt lat="44.35313" lon="5.64458">
        <ele>880.22</ele>
        <time>2019-09-05T13:07:30Z</time>
      </trkpt>
      <trkpt lat="44.35324" lon="5.64473">
        <ele>881.19</ele>
        <time>2019-09-05T13:07:47Z</time>
      </trkpt>
      <trkpt lat="44.35326" lon="5.64483">
        <ele>882.15</ele>
        <time>2019-09-05T13:07:55Z</time>
      </trkpt>
      <trkpt lat="44.35333" lon="5.64495">
        <ele>882.63</ele>
        <time>2019-09-05T13:08:09Z</time>
      </trkpt>
      <trkpt lat="44.35341" lon="5.64505">
        <ele>882.63</ele>
        <time>2019-09-05T13:08:22Z</time>
      </trkpt>
      <trkpt lat="44.35352" lon="5.64516">
        <ele>882.15</ele>
        <time>2019-09-05T13:08:36Z</time>
      </trkpt>
      <trkpt lat="44.35356" lon="5.64522">
        <ele>881.67</ele>
        <time>2019-09-05T13:08:50Z</time>
      </trkpt>
      <trkpt lat="44.35364" lon="5.64534">
        <ele>881.67</ele>
        <time>2019-09-05T13:09:06Z</time>
      </trkpt>
      <trkpt lat="44.35373" lon="5.64547">
        <ele>881.67</ele>
        <time>2019-09-05T13:09:18Z</time>
      </trkpt>
      <trkpt lat="44.35376" lon="5.64553">
        <ele>882.15</ele>
        <time>2019-09-05T13:09:23Z</time>
      </trkpt>
      <trkpt lat="44.35387" lon="5.64572">
        <ele>883.11</ele>
        <time>2019-09-05T13:09:40Z</time>
      </trkpt>
      <trkpt lat="44.35395" lon="5.64584">
        <ele>884.07</ele>
        <time>2019-09-05T13:09:55Z</time>
      </trkpt>
      <trkpt lat="44.35404" lon="5.64597">
        <ele>882.15</ele>
        <time>2019-09-05T13:10:10Z</time>
      </trkpt>
      <trkpt lat="44.35416" lon="5.64607">
        <ele>880.71</ele>
        <time>2019-09-05T13:10:26Z</time>
      </trkpt>
      <trkpt lat="44.35425" lon="5.64618">
        <ele>880.22</ele>
        <time>2019-09-05T13:10:40Z</time>
      </trkpt>
      <trkpt lat="44.35431" lon="5.6463">
        <ele>880.71</ele>
        <time>2019-09-05T13:10:53Z</time>
      </trkpt>
      <trkpt lat="44.35443" lon="5.64637">
        <ele>879.74</ele>
        <time>2019-09-05T13:11:08Z</time>
      </trkpt>
      <trkpt lat="44.35444" lon="5.64639">
        <ele>878.78</ele>
        <time>2019-09-05T13:11:10Z</time>
      </trkpt>
      <trkpt lat="44.35452" lon="5.64646">
        <ele>877.82</ele>
        <time>2019-09-05T13:11:23Z</time>
      </trkpt>
      <trkpt lat="44.35468" lon="5.64658">
        <ele>877.82</ele>
        <time>2019-09-05T13:11:42Z</time>
      </trkpt>
      <trkpt lat="44.35477" lon="5.64667">
        <ele>876.86</ele>
        <time>2019-09-05T13:11:57Z</time>
      </trkpt>
      <trkpt lat="44.35488" lon="5.64676">
        <ele>875.9</ele>
        <time>2019-09-05T13:12:12Z</time>
      </trkpt>
      <trkpt lat="44.35501" lon="5.64692">
        <ele>875.42</ele>
        <time>2019-09-05T13:12:28Z</time>
      </trkpt>
      <trkpt lat="44.35508" lon="5.64707">
        <ele>875.42</ele>
        <time>2019-09-05T13:12:44Z</time>
      </trkpt>
      <trkpt lat="44.35516" lon="5.64719">
        <ele>874.46</ele>
        <time>2019-09-05T13:12:56Z</time>
      </trkpt>
      <trkpt lat="44.35525" lon="5.64731">
        <ele>876.38</ele>
        <time>2019-09-05T13:13:09Z</time>
      </trkpt>
      <trkpt lat="44.3553" lon="5.64741">
        <ele>876.38</ele>
        <time>2019-09-05T13:13:22Z</time>
      </trkpt>
      <trkpt lat="44.35534" lon="5.64749">
        <ele>875.9</ele>
        <time>2019-09-05T13:13:30Z</time>
      </trkpt>
      <trkpt lat="44.35544" lon="5.64766">
        <ele>874.46</ele>
        <time>2019-09-05T13:13:47Z</time>
      </trkpt>
      <trkpt lat="44.35552" lon="5.64781">
        <ele>873.5</ele>
        <time>2019-09-05T13:14:03Z</time>
      </trkpt>
      <trkpt lat="44.35558" lon="5.64802">
        <ele>872.53</ele>
        <time>2019-09-05T13:14:19Z</time>
      </trkpt>
      <trkpt lat="44.35558" lon="5.64808">
        <ele>873.01</ele>
        <time>2019-09-05T13:14:32Z</time>
      </trkpt>
      <trkpt lat="44.35555" lon="5.64805">
        <ele>872.53</ele>
        <time>2019-09-05T13:14:51Z</time>
      </trkpt>
      <trkpt lat="44.35554" lon="5.64804">
        <ele>872.05</ele>
        <time>2019-09-05T13:15:18Z</time>
      </trkpt>
      <trkpt lat="44.35558" lon="5.64815">
        <ele>871.09</ele>
        <time>2019-09-05T13:15:33Z</time>
      </trkpt>
      <trkpt lat="44.3556" lon="5.64826">
        <ele>870.61</ele>
        <time>2019-09-05T13:15:40Z</time>
      </trkpt>
      <trkpt lat="44.35564" lon="5.64843">
        <ele>869.65</ele>
        <time>2019-09-05T13:15:57Z</time>
      </trkpt>
      <trkpt lat="44.35566" lon="5.64849">
        <ele>869.17</ele>
        <time>2019-09-05T13:16:15Z</time>
      </trkpt>
      <trkpt lat="44.35567" lon="5.64867">
        <ele>867.73</ele>
        <time>2019-09-05T13:16:31Z</time>
      </trkpt>
      <trkpt lat="44.35566" lon="5.64884">
        <ele>866.29</ele>
        <time>2019-09-05T13:16:45Z</time>
      </trkpt>
      <trkpt lat="44.35565" lon="5.64889">
        <ele>866.29</ele>
        <time>2019-09-05T13:16:50Z</time>
      </trkpt>
      <trkpt lat="44.35565" lon="5.64905">
        <ele>865.32</ele>
        <time>2019-09-05T13:17:05Z</time>
      </trkpt>
      <trkpt lat="44.35564" lon="5.6491">
        <ele>865.8</ele>
        <time>2019-09-05T13:17:20Z</time>
      </trkpt>
      <trkpt lat="44.35562" lon="5.64921">
        <ele>864.84</ele>
        <time>2019-09-05T13:17:34Z</time>
      </trkpt>
      <trkpt lat="44.35562" lon="5.6493">
        <ele>864.36</ele>
        <time>2019-09-05T13:17:50Z</time>
      </trkpt>
      <trkpt lat="44.35559" lon="5.64942">
        <ele>864.36</ele>
        <time>2019-09-05T13:18:00Z</time>
      </trkpt>
      <trkpt lat="44.35555" lon="5.64954">
        <ele>863.88</ele>
        <time>2019-09-05T13:18:15Z</time>
      </trkpt>
      <trkpt lat="44.35553" lon="5.64967">
        <ele>862.92</ele>
        <time>2019-09-05T13:18:31Z</time>
      </trkpt>
      <trkpt lat="44.3555" lon="5.64978">
        <ele>862.44</ele>
        <time>2019-09-05T13:18:46Z</time>
      </trkpt>
      <trkpt lat="44.3555" lon="5.64983">
        <ele>862.44</ele>
        <time>2019-09-05T13:19:00Z</time>
      </trkpt>
      <trkpt lat="44.35551" lon="5.64985">
        <ele>861.96</ele>
        <time>2019-09-05T13:19:18Z</time>
      </trkpt>
      <trkpt lat="44.35551" lon="5.64986">
        <ele>861.96</ele>
        <time>2019-09-05T13:19:48Z</time>
      </trkpt>
      <trkpt lat="44.35552" lon="5.64985">
        <ele>862.44</ele>
        <time>2019-09-05T13:20:02Z</time>
      </trkpt>
      <trkpt lat="44.3555" lon="5.64995">
        <ele>861</ele>
        <time>2019-09-05T13:20:20Z</time>
      </trkpt>
      <trkpt lat="44.3555" lon="5.65003">
        <ele>860.04</ele>
        <time>2019-09-05T13:20:27Z</time>
      </trkpt>
      <trkpt lat="44.35549" lon="5.65022">
        <ele>858.11</ele>
        <time>2019-09-05T13:20:42Z</time>
      </trkpt>
      <trkpt lat="44.35545" lon="5.65037">
        <ele>856.67</ele>
        <time>2019-09-05T13:20:54Z</time>
      </trkpt>
      <trkpt lat="44.35541" lon="5.65057">
        <ele>857.15</ele>
        <time>2019-09-05T13:21:10Z</time>
      </trkpt>
      <trkpt lat="44.35539" lon="5.65067">
        <ele>855.71</ele>
        <time>2019-09-05T13:21:23Z</time>
      </trkpt>
      <trkpt lat="44.35538" lon="5.6507">
        <ele>855.71</ele>
        <time>2019-09-05T13:21:25Z</time>
      </trkpt>
      <trkpt lat="44.35532" lon="5.65092">
        <ele>854.27</ele>
        <time>2019-09-05T13:21:41Z</time>
      </trkpt>
      <trkpt lat="44.35529" lon="5.65107">
        <ele>853.31</ele>
        <time>2019-09-05T13:21:56Z</time>
      </trkpt>
      <trkpt lat="44.35528" lon="5.65109">
        <ele>854.27</ele>
        <time>2019-09-05T13:22:13Z</time>
      </trkpt>
      <trkpt lat="44.35525" lon="5.6512">
        <ele>851.87</ele>
        <time>2019-09-05T13:22:28Z</time>
      </trkpt>
      <trkpt lat="44.35523" lon="5.65122">
        <ele>850.9</ele>
        <time>2019-09-05T13:22:50Z</time>
      </trkpt>
      <trkpt lat="44.3552" lon="5.65129">
        <ele>850.42</ele>
        <time>2019-09-05T13:23:08Z</time>
      </trkpt>
      <trkpt lat="44.35513" lon="5.65143">
        <ele>848.5</ele>
        <time>2019-09-05T13:23:23Z</time>
      </trkpt>
      <trkpt lat="44.35512" lon="5.65148">
        <ele>847.54</ele>
        <time>2019-09-05T13:23:28Z</time>
      </trkpt>
      <trkpt lat="44.35512" lon="5.65159">
        <ele>845.14</ele>
        <time>2019-09-05T13:23:38Z</time>
      </trkpt>
      <trkpt lat="44.35511" lon="5.65174">
        <ele>842.25</ele>
        <time>2019-09-05T13:23:51Z</time>
      </trkpt>
      <trkpt lat="44.35508" lon="5.65186">
        <ele>839.85</ele>
        <time>2019-09-05T13:24:08Z</time>
      </trkpt>
      <trkpt lat="44.35506" lon="5.65188">
        <ele>839.37</ele>
        <time>2019-09-05T13:24:12Z</time>
      </trkpt>
      <trkpt lat="44.35502" lon="5.65195">
        <ele>838.41</ele>
        <time>2019-09-05T13:24:25Z</time>
      </trkpt>
      <trkpt lat="44.35503" lon="5.65204">
        <ele>837.93</ele>
        <time>2019-09-05T13:24:36Z</time>
      </trkpt>
      <trkpt lat="44.355" lon="5.65223">
        <ele>834.08</ele>
        <time>2019-09-05T13:24:52Z</time>
      </trkpt>
      <trkpt lat="44.35498" lon="5.65226">
        <ele>832.64</ele>
        <time>2019-09-05T13:24:55Z</time>
      </trkpt>
      <trkpt lat="44.35491" lon="5.65244">
        <ele>831.68</ele>
        <time>2019-09-05T13:25:10Z</time>
      </trkpt>
      <trkpt lat="44.35491" lon="5.65246">
        <ele>831.68</ele>
        <time>2019-09-05T13:25:12Z</time>
      </trkpt>
      <trkpt lat="44.35491" lon="5.65259">
        <ele>830.72</ele>
        <time>2019-09-05T13:25:27Z</time>
      </trkpt>
      <trkpt lat="44.35491" lon="5.65261">
        <ele>830.24</ele>
        <time>2019-09-05T13:25:46Z</time>
      </trkpt>
      <trkpt lat="44.35491" lon="5.65261">
        <ele>830.24</ele>
        <time>2019-09-05T13:26:19Z</time>
      </trkpt>
      <trkpt lat="44.35496" lon="5.65262">
        <ele>828.79</ele>
        <time>2019-09-05T13:26:38Z</time>
      </trkpt>
      <trkpt lat="44.35498" lon="5.65261">
        <ele>828.79</ele>
        <time>2019-09-05T13:26:52Z</time>
      </trkpt>
      <trkpt lat="44.35498" lon="5.65265">
        <ele>827.83</ele>
        <time>2019-09-05T13:27:07Z</time>
      </trkpt>
      <trkpt lat="44.35493" lon="5.65278">
        <ele>825.91</ele>
        <time>2019-09-05T13:27:21Z</time>
      </trkpt>
      <trkpt lat="44.35486" lon="5.6529">
        <ele>823.03</ele>
        <time>2019-09-05T13:27:38Z</time>
      </trkpt>
      <trkpt lat="44.35487" lon="5.65292">
        <ele>821.58</ele>
        <time>2019-09-05T13:27:41Z</time>
      </trkpt>
      <trkpt lat="44.35493" lon="5.65289">
        <ele>820.62</ele>
        <time>2019-09-05T13:27:48Z</time>
      </trkpt>
      <trkpt lat="44.355" lon="5.65291">
        <ele>819.18</ele>
        <time>2019-09-05T13:28:01Z</time>
      </trkpt>
      <trkpt lat="44.35497" lon="5.65308">
        <ele>815.82</ele>
        <time>2019-09-05T13:28:17Z</time>
      </trkpt>
      <trkpt lat="44.35494" lon="5.65315">
        <ele>815.34</ele>
        <time>2019-09-05T13:28:29Z</time>
      </trkpt>
      <trkpt lat="44.3549" lon="5.65328">
        <ele>812.93</ele>
        <time>2019-09-05T13:28:43Z</time>
      </trkpt>
      <trkpt lat="44.35488" lon="5.65339">
        <ele>811.49</ele>
        <time>2019-09-05T13:28:59Z</time>
      </trkpt>
      <trkpt lat="44.35486" lon="5.65344">
        <ele>810.53</ele>
        <time>2019-09-05T13:29:04Z</time>
      </trkpt>
      <trkpt lat="44.35477" lon="5.65352">
        <ele>810.05</ele>
        <time>2019-09-05T13:29:18Z</time>
      </trkpt>
      <trkpt lat="44.35475" lon="5.65355">
        <ele>809.57</ele>
        <time>2019-09-05T13:29:22Z</time>
      </trkpt>
      <trkpt lat="44.35467" lon="5.65367">
        <ele>807.16</ele>
        <time>2019-09-05T13:29:36Z</time>
      </trkpt>
      <trkpt lat="44.35458" lon="5.65378">
        <ele>805.24</ele>
        <time>2019-09-05T13:29:50Z</time>
      </trkpt>
      <trkpt lat="44.35454" lon="5.65393">
        <ele>803.8</ele>
        <time>2019-09-05T13:30:02Z</time>
      </trkpt>
      <trkpt lat="44.35458" lon="5.65422">
        <ele>800.92</ele>
        <time>2019-09-05T13:30:22Z</time>
      </trkpt>
      <trkpt lat="44.35468" lon="5.65443">
        <ele>798.51</ele>
        <time>2019-09-05T13:30:41Z</time>
      </trkpt>
      <trkpt lat="44.35474" lon="5.65459">
        <ele>796.59</ele>
        <time>2019-09-05T13:30:58Z</time>
      </trkpt>
      <trkpt lat="44.35484" lon="5.65481">
        <ele>796.59</ele>
        <time>2019-09-05T13:31:16Z</time>
      </trkpt>
      <trkpt lat="44.35492" lon="5.655">
        <ele>794.19</ele>
        <time>2019-09-05T13:31:33Z</time>
      </trkpt>
      <trkpt lat="44.35497" lon="5.65516">
        <ele>793.22</ele>
        <time>2019-09-05T13:31:49Z</time>
      </trkpt>
      <trkpt lat="44.35506" lon="5.65537">
        <ele>791.78</ele>
        <time>2019-09-05T13:32:06Z</time>
      </trkpt>
      <trkpt lat="44.3551" lon="5.65552">
        <ele>793.22</ele>
        <time>2019-09-05T13:32:19Z</time>
      </trkpt>
      <trkpt lat="44.35513" lon="5.6556">
        <ele>793.71</ele>
        <time>2019-09-05T13:32:32Z</time>
      </trkpt>
      <trkpt lat="44.35515" lon="5.6556">
        <ele>793.22</ele>
        <time>2019-09-05T13:32:48Z</time>
      </trkpt>
      <trkpt lat="44.35515" lon="5.65556">
        <ele>794.19</ele>
        <time>2019-09-05T13:33:09Z</time>
      </trkpt>
      <trkpt lat="44.35516" lon="5.65561">
        <ele>797.55</ele>
        <time>2019-09-05T13:33:38Z</time>
      </trkpt>
      <trkpt lat="44.35516" lon="5.65564">
        <ele>797.07</ele>
        <time>2019-09-05T13:33:40Z</time>
      </trkpt>
      <trkpt lat="44.35516" lon="5.6557">
        <ele>793.71</ele>
        <time>2019-09-05T13:33:44Z</time>
      </trkpt>
      <trkpt lat="44.35518" lon="5.65576">
        <ele>796.11</ele>
        <time>2019-09-05T13:33:49Z</time>
      </trkpt>
      <trkpt lat="44.3552" lon="5.65579">
        <ele>795.63</ele>
        <time>2019-09-05T13:33:51Z</time>
      </trkpt>
      <trkpt lat="44.35525" lon="5.65594">
        <ele>797.07</ele>
        <time>2019-09-05T13:34:06Z</time>
      </trkpt>
      <trkpt lat="44.35529" lon="5.65605">
        <ele>798.51</ele>
        <time>2019-09-05T13:34:19Z</time>
      </trkpt>
      <trkpt lat="44.35534" lon="5.65616">
        <ele>798.99</ele>
        <time>2019-09-05T13:34:33Z</time>
      </trkpt>
      <trkpt lat="44.35538" lon="5.65624">
        <ele>800.44</ele>
        <time>2019-09-05T13:34:46Z</time>
      </trkpt>
      <trkpt lat="44.3554" lon="5.65631">
        <ele>800.44</ele>
        <time>2019-09-05T13:35:00Z</time>
      </trkpt>
      <trkpt lat="44.35541" lon="5.65643">
        <ele>802.36</ele>
        <time>2019-09-05T13:35:13Z</time>
      </trkpt>
      <trkpt lat="44.35531" lon="5.65649">
        <ele>802.84</ele>
        <time>2019-09-05T13:35:28Z</time>
      </trkpt>
      <trkpt lat="44.3553" lon="5.6565">
        <ele>803.32</ele>
        <time>2019-09-05T13:35:41Z</time>
      </trkpt>
      <trkpt lat="44.35532" lon="5.6565">
        <ele>803.32</ele>
        <time>2019-09-05T13:35:55Z</time>
      </trkpt>
      <trkpt lat="44.35533" lon="5.6565">
        <ele>802.84</ele>
        <time>2019-09-05T13:36:07Z</time>
      </trkpt>
      <trkpt lat="44.35532" lon="5.65653">
        <ele>802.36</ele>
        <time>2019-09-05T13:36:20Z</time>
      </trkpt>
      <trkpt lat="44.35531" lon="5.65649">
        <ele>802.36</ele>
        <time>2019-09-05T13:36:43Z</time>
      </trkpt>
      <trkpt lat="44.35535" lon="5.65651">
        <ele>802.36</ele>
        <time>2019-09-05T13:36:59Z</time>
      </trkpt>
      <trkpt lat="44.35533" lon="5.65649">
        <ele>801.4</ele>
        <time>2019-09-05T13:37:17Z</time>
      </trkpt>
      <trkpt lat="44.35533" lon="5.6565">
        <ele>802.36</ele>
        <time>2019-09-05T13:37:41Z</time>
      </trkpt>
      <trkpt lat="44.35532" lon="5.6565">
        <ele>802.84</ele>
        <time>2019-09-05T13:38:00Z</time>
      </trkpt>
      <trkpt lat="44.35532" lon="5.65648">
        <ele>804.28</ele>
        <time>2019-09-05T13:38:18Z</time>
      </trkpt>
      <trkpt lat="44.35534" lon="5.65648">
        <ele>803.32</ele>
        <time>2019-09-05T13:38:34Z</time>
      </trkpt>
      <trkpt lat="44.35533" lon="5.65657">
        <ele>804.28</ele>
        <time>2019-09-05T13:38:48Z</time>
      </trkpt>
      <trkpt lat="44.35533" lon="5.65659">
        <ele>804.76</ele>
        <time>2019-09-05T13:38:50Z</time>
      </trkpt>
      <trkpt lat="44.35534" lon="5.65658">
        <ele>803.8</ele>
        <time>2019-09-05T13:39:06Z</time>
      </trkpt>
      <trkpt lat="44.35533" lon="5.65658">
        <ele>803.8</ele>
        <time>2019-09-05T13:39:11Z</time>
      </trkpt>
    </trkseg>
  </trk>
</gpx>